<?xml version="1.0" encoding="UTF-8" standalone="no" ?>
<gpx xmlns="http://www.topografix.com/GPX/1/1" xmlns:xsi="http://www.w3.org/2001/XMLSchema-instance" xsi:schemaLocation="http://www.topografix.com/GPX/1/1 http://www.topografix.com/GPX/1/1/gpx.xsd" version="1.1" creator="VisuGPX - https://www.visugpx.com">
  <metadata>
    <name>RANDO ST PRIVAT DU DRAGON 22 KM</name>
    <desc><![CDATA[RANDO ST PRIVAT DU DRAGON 22 KM.DEPART ARRIVEEPARKING EN FACE LE CIMETIERE.LE CROIZET.LES BAYORRES.CERZAT DU DRAGON .L HERMET.CHATEAU D ALLERET.SAUVANIRGUES]]></desc>
  </metadata>
  <trk>
    <name><![CDATA[31-JAN-21 15:47:32]]></name>
    <extensions>
      <line xmlns="http://www.topografix.com/GPX/gpx_style/0/2">
        <color>0000FF</color>
        <width>4</width>
      </line>
    </extensions>
    <trkseg>
      <trkpt lat="45.18824" lon="3.44497">
        <ele>687</ele>
        <time>2021-01-31T09:11:31Z</time>
      </trkpt>
      <trkpt lat="45.18819" lon="3.44512">
        <ele>684.12</ele>
        <time>2021-01-31T09:11:44Z</time>
      </trkpt>
      <trkpt lat="45.18818" lon="3.44523">
        <ele>682.19</ele>
        <time>2021-01-31T09:11:51Z</time>
      </trkpt>
      <trkpt lat="45.18823" lon="3.44537">
        <ele>679.31</ele>
        <time>2021-01-31T09:12:07Z</time>
      </trkpt>
      <trkpt lat="45.18827" lon="3.4454">
        <ele>682.19</ele>
        <time>2021-01-31T09:12:32Z</time>
      </trkpt>
      <trkpt lat="45.18833" lon="3.44546">
        <ele>682.67</ele>
        <time>2021-01-31T09:12:51Z</time>
      </trkpt>
      <trkpt lat="45.18836" lon="3.44544">
        <ele>684.12</ele>
        <time>2021-01-31T09:13:07Z</time>
      </trkpt>
      <trkpt lat="45.18836" lon="3.44541">
        <ele>684.12</ele>
        <time>2021-01-31T09:13:09Z</time>
      </trkpt>
      <trkpt lat="45.18837" lon="3.44527">
        <ele>685.56</ele>
        <time>2021-01-31T09:13:21Z</time>
      </trkpt>
      <trkpt lat="45.18838" lon="3.44519">
        <ele>685.08</ele>
        <time>2021-01-31T09:13:27Z</time>
      </trkpt>
      <trkpt lat="45.18839" lon="3.44506">
        <ele>685.56</ele>
        <time>2021-01-31T09:13:37Z</time>
      </trkpt>
      <trkpt lat="45.18839" lon="3.44502">
        <ele>686.04</ele>
        <time>2021-01-31T09:13:39Z</time>
      </trkpt>
      <trkpt lat="45.18842" lon="3.44483">
        <ele>688.92</ele>
        <time>2021-01-31T09:13:53Z</time>
      </trkpt>
      <trkpt lat="45.18844" lon="3.44474">
        <ele>690.84</ele>
        <time>2021-01-31T09:14:09Z</time>
      </trkpt>
      <trkpt lat="45.18845" lon="3.44475">
        <ele>686.52</ele>
        <time>2021-01-31T09:14:34Z</time>
      </trkpt>
      <trkpt lat="45.18847" lon="3.4447">
        <ele>685.08</ele>
        <time>2021-01-31T09:14:48Z</time>
      </trkpt>
      <trkpt lat="45.18843" lon="3.44491">
        <ele>688.44</ele>
        <time>2021-01-31T09:15:03Z</time>
      </trkpt>
      <trkpt lat="45.18855" lon="3.44509">
        <ele>690.36</ele>
        <time>2021-01-31T09:15:16Z</time>
      </trkpt>
      <trkpt lat="45.18864" lon="3.44511">
        <ele>690.36</ele>
        <time>2021-01-31T09:15:23Z</time>
      </trkpt>
      <trkpt lat="45.18878" lon="3.44509">
        <ele>689.4</ele>
        <time>2021-01-31T09:15:34Z</time>
      </trkpt>
      <trkpt lat="45.18884" lon="3.44507">
        <ele>688.44</ele>
        <time>2021-01-31T09:15:40Z</time>
      </trkpt>
      <trkpt lat="45.18889" lon="3.44502">
        <ele>687.96</ele>
        <time>2021-01-31T09:15:46Z</time>
      </trkpt>
      <trkpt lat="45.18904" lon="3.44497">
        <ele>687</ele>
        <time>2021-01-31T09:16:00Z</time>
      </trkpt>
      <trkpt lat="45.18926" lon="3.44495">
        <ele>684.6</ele>
        <time>2021-01-31T09:16:16Z</time>
      </trkpt>
      <trkpt lat="45.18948" lon="3.44494">
        <ele>681.71</ele>
        <time>2021-01-31T09:16:31Z</time>
      </trkpt>
      <trkpt lat="45.1897" lon="3.44495">
        <ele>680.27</ele>
        <time>2021-01-31T09:16:46Z</time>
      </trkpt>
      <trkpt lat="45.18985" lon="3.44496">
        <ele>678.35</ele>
        <time>2021-01-31T09:16:59Z</time>
      </trkpt>
      <trkpt lat="45.19" lon="3.44495">
        <ele>677.87</ele>
        <time>2021-01-31T09:17:09Z</time>
      </trkpt>
      <trkpt lat="45.19016" lon="3.44488">
        <ele>676.42</ele>
        <time>2021-01-31T09:17:21Z</time>
      </trkpt>
      <trkpt lat="45.19028" lon="3.44477">
        <ele>674.98</ele>
        <time>2021-01-31T09:17:32Z</time>
      </trkpt>
      <trkpt lat="45.19036" lon="3.44456">
        <ele>672.58</ele>
        <time>2021-01-31T09:17:45Z</time>
      </trkpt>
      <trkpt lat="45.19044" lon="3.4444">
        <ele>668.25</ele>
        <time>2021-01-31T09:17:58Z</time>
      </trkpt>
      <trkpt lat="45.19045" lon="3.44438">
        <ele>668.25</ele>
        <time>2021-01-31T09:17:59Z</time>
      </trkpt>
      <trkpt lat="45.19063" lon="3.44428">
        <ele>665.85</ele>
        <time>2021-01-31T09:18:16Z</time>
      </trkpt>
      <trkpt lat="45.19074" lon="3.44423">
        <ele>664.89</ele>
        <time>2021-01-31T09:18:31Z</time>
      </trkpt>
      <trkpt lat="45.1908" lon="3.4442">
        <ele>664.41</ele>
        <time>2021-01-31T09:18:45Z</time>
      </trkpt>
      <trkpt lat="45.19091" lon="3.44418">
        <ele>662.97</ele>
        <time>2021-01-31T09:18:57Z</time>
      </trkpt>
      <trkpt lat="45.19102" lon="3.44404">
        <ele>661.52</ele>
        <time>2021-01-31T09:19:11Z</time>
      </trkpt>
      <trkpt lat="45.19105" lon="3.44399">
        <ele>662.49</ele>
        <time>2021-01-31T09:19:24Z</time>
      </trkpt>
      <trkpt lat="45.19112" lon="3.44387">
        <ele>660.56</ele>
        <time>2021-01-31T09:19:39Z</time>
      </trkpt>
      <trkpt lat="45.19114" lon="3.44379">
        <ele>660.08</ele>
        <time>2021-01-31T09:19:43Z</time>
      </trkpt>
      <trkpt lat="45.19116" lon="3.44377">
        <ele>660.08</ele>
        <time>2021-01-31T09:19:45Z</time>
      </trkpt>
      <trkpt lat="45.19122" lon="3.44357">
        <ele>659.12</ele>
        <time>2021-01-31T09:19:59Z</time>
      </trkpt>
      <trkpt lat="45.1913" lon="3.44326">
        <ele>660.08</ele>
        <time>2021-01-31T09:20:16Z</time>
      </trkpt>
      <trkpt lat="45.19133" lon="3.44312">
        <ele>661.04</ele>
        <time>2021-01-31T09:20:23Z</time>
      </trkpt>
      <trkpt lat="45.19133" lon="3.44301">
        <ele>660.56</ele>
        <time>2021-01-31T09:20:30Z</time>
      </trkpt>
      <trkpt lat="45.19128" lon="3.44292">
        <ele>659.6</ele>
        <time>2021-01-31T09:20:36Z</time>
      </trkpt>
      <trkpt lat="45.19118" lon="3.44278">
        <ele>658.64</ele>
        <time>2021-01-31T09:20:47Z</time>
      </trkpt>
      <trkpt lat="45.19114" lon="3.44274">
        <ele>658.64</ele>
        <time>2021-01-31T09:20:55Z</time>
      </trkpt>
      <trkpt lat="45.19107" lon="3.44266">
        <ele>659.12</ele>
        <time>2021-01-31T09:21:01Z</time>
      </trkpt>
      <trkpt lat="45.19087" lon="3.4424">
        <ele>660.56</ele>
        <time>2021-01-31T09:21:19Z</time>
      </trkpt>
      <trkpt lat="45.19079" lon="3.44229">
        <ele>661.04</ele>
        <time>2021-01-31T09:21:27Z</time>
      </trkpt>
      <trkpt lat="45.19063" lon="3.44205">
        <ele>662.01</ele>
        <time>2021-01-31T09:21:43Z</time>
      </trkpt>
      <trkpt lat="45.1905" lon="3.44177">
        <ele>663.93</ele>
        <time>2021-01-31T09:22:00Z</time>
      </trkpt>
      <trkpt lat="45.19045" lon="3.44169">
        <ele>663.45</ele>
        <time>2021-01-31T09:22:11Z</time>
      </trkpt>
      <trkpt lat="45.19042" lon="3.44162">
        <ele>663.45</ele>
        <time>2021-01-31T09:22:15Z</time>
      </trkpt>
      <trkpt lat="45.19025" lon="3.44134">
        <ele>664.89</ele>
        <time>2021-01-31T09:22:34Z</time>
      </trkpt>
      <trkpt lat="45.19014" lon="3.44118">
        <ele>663.45</ele>
        <time>2021-01-31T09:22:47Z</time>
      </trkpt>
      <trkpt lat="45.19003" lon="3.44098">
        <ele>660.08</ele>
        <time>2021-01-31T09:23:00Z</time>
      </trkpt>
      <trkpt lat="45.18988" lon="3.44076">
        <ele>655.76</ele>
        <time>2021-01-31T09:23:15Z</time>
      </trkpt>
      <trkpt lat="45.18977" lon="3.44065">
        <ele>654.31</ele>
        <time>2021-01-31T09:23:26Z</time>
      </trkpt>
      <trkpt lat="45.18965" lon="3.44053">
        <ele>652.39</ele>
        <time>2021-01-31T09:23:38Z</time>
      </trkpt>
      <trkpt lat="45.18944" lon="3.44036">
        <ele>650.47</ele>
        <time>2021-01-31T09:23:54Z</time>
      </trkpt>
      <trkpt lat="45.1894" lon="3.44032">
        <ele>649.51</ele>
        <time>2021-01-31T09:24:05Z</time>
      </trkpt>
      <trkpt lat="45.18929" lon="3.44012">
        <ele>648.55</ele>
        <time>2021-01-31T09:24:19Z</time>
      </trkpt>
      <trkpt lat="45.18914" lon="3.43994">
        <ele>647.1</ele>
        <time>2021-01-31T09:24:34Z</time>
      </trkpt>
      <trkpt lat="45.18897" lon="3.43987">
        <ele>643.74</ele>
        <time>2021-01-31T09:24:49Z</time>
      </trkpt>
      <trkpt lat="45.18885" lon="3.43986">
        <ele>641.34</ele>
        <time>2021-01-31T09:25:00Z</time>
      </trkpt>
      <trkpt lat="45.18874" lon="3.43976">
        <ele>639.89</ele>
        <time>2021-01-31T09:25:07Z</time>
      </trkpt>
      <trkpt lat="45.18866" lon="3.43968">
        <ele>639.89</ele>
        <time>2021-01-31T09:25:15Z</time>
      </trkpt>
      <trkpt lat="45.1886" lon="3.43963">
        <ele>640.38</ele>
        <time>2021-01-31T09:25:22Z</time>
      </trkpt>
      <trkpt lat="45.18859" lon="3.4396">
        <ele>639.89</ele>
        <time>2021-01-31T09:25:28Z</time>
      </trkpt>
      <trkpt lat="45.18851" lon="3.43952">
        <ele>638.93</ele>
        <time>2021-01-31T09:25:38Z</time>
      </trkpt>
      <trkpt lat="45.18844" lon="3.43946">
        <ele>637.01</ele>
        <time>2021-01-31T09:25:46Z</time>
      </trkpt>
      <trkpt lat="45.18842" lon="3.43937">
        <ele>636.53</ele>
        <time>2021-01-31T09:25:51Z</time>
      </trkpt>
      <trkpt lat="45.18833" lon="3.4393">
        <ele>634.13</ele>
        <time>2021-01-31T09:25:59Z</time>
      </trkpt>
      <trkpt lat="45.18825" lon="3.43925">
        <ele>631.72</ele>
        <time>2021-01-31T09:26:06Z</time>
      </trkpt>
      <trkpt lat="45.18814" lon="3.43914">
        <ele>628.36</ele>
        <time>2021-01-31T09:26:16Z</time>
      </trkpt>
      <trkpt lat="45.18804" lon="3.43904">
        <ele>626.44</ele>
        <time>2021-01-31T09:26:25Z</time>
      </trkpt>
      <trkpt lat="45.18794" lon="3.43893">
        <ele>624.51</ele>
        <time>2021-01-31T09:26:34Z</time>
      </trkpt>
      <trkpt lat="45.18787" lon="3.43885">
        <ele>623.07</ele>
        <time>2021-01-31T09:26:42Z</time>
      </trkpt>
      <trkpt lat="45.18785" lon="3.4388">
        <ele>622.59</ele>
        <time>2021-01-31T09:26:47Z</time>
      </trkpt>
      <trkpt lat="45.18776" lon="3.43865">
        <ele>620.67</ele>
        <time>2021-01-31T09:26:56Z</time>
      </trkpt>
      <trkpt lat="45.18769" lon="3.43855">
        <ele>618.75</ele>
        <time>2021-01-31T09:27:04Z</time>
      </trkpt>
      <trkpt lat="45.18761" lon="3.43847">
        <ele>617.3</ele>
        <time>2021-01-31T09:27:12Z</time>
      </trkpt>
      <trkpt lat="45.18754" lon="3.43842">
        <ele>616.82</ele>
        <time>2021-01-31T09:27:21Z</time>
      </trkpt>
      <trkpt lat="45.18743" lon="3.43832">
        <ele>616.34</ele>
        <time>2021-01-31T09:27:28Z</time>
      </trkpt>
      <trkpt lat="45.18736" lon="3.43822">
        <ele>615.38</ele>
        <time>2021-01-31T09:27:36Z</time>
      </trkpt>
      <trkpt lat="45.1873" lon="3.43813">
        <ele>614.9</ele>
        <time>2021-01-31T09:27:45Z</time>
      </trkpt>
      <trkpt lat="45.18725" lon="3.43803">
        <ele>613.94</ele>
        <time>2021-01-31T09:27:53Z</time>
      </trkpt>
      <trkpt lat="45.18718" lon="3.4379">
        <ele>611.06</ele>
        <time>2021-01-31T09:28:03Z</time>
      </trkpt>
      <trkpt lat="45.18716" lon="3.43788">
        <ele>610.09</ele>
        <time>2021-01-31T09:28:05Z</time>
      </trkpt>
      <trkpt lat="45.18706" lon="3.43775">
        <ele>605.29</ele>
        <time>2021-01-31T09:28:17Z</time>
      </trkpt>
      <trkpt lat="45.18703" lon="3.4377">
        <ele>604.33</ele>
        <time>2021-01-31T09:28:21Z</time>
      </trkpt>
      <trkpt lat="45.18694" lon="3.43746">
        <ele>600</ele>
        <time>2021-01-31T09:28:37Z</time>
      </trkpt>
      <trkpt lat="45.18684" lon="3.43722">
        <ele>596.64</ele>
        <time>2021-01-31T09:28:52Z</time>
      </trkpt>
      <trkpt lat="45.18677" lon="3.43706">
        <ele>592.31</ele>
        <time>2021-01-31T09:29:06Z</time>
      </trkpt>
      <trkpt lat="45.18668" lon="3.43684">
        <ele>587.02</ele>
        <time>2021-01-31T09:29:20Z</time>
      </trkpt>
      <trkpt lat="45.18657" lon="3.43668">
        <ele>585.58</ele>
        <time>2021-01-31T09:29:33Z</time>
      </trkpt>
      <trkpt lat="45.18652" lon="3.43661">
        <ele>583.66</ele>
        <time>2021-01-31T09:29:39Z</time>
      </trkpt>
      <trkpt lat="45.18641" lon="3.43635">
        <ele>577.89</ele>
        <time>2021-01-31T09:29:55Z</time>
      </trkpt>
      <trkpt lat="45.18631" lon="3.43613">
        <ele>575.49</ele>
        <time>2021-01-31T09:30:10Z</time>
      </trkpt>
      <trkpt lat="45.18619" lon="3.436">
        <ele>571.64</ele>
        <time>2021-01-31T09:30:25Z</time>
      </trkpt>
      <trkpt lat="45.18616" lon="3.43594">
        <ele>570.2</ele>
        <time>2021-01-31T09:30:30Z</time>
      </trkpt>
      <trkpt lat="45.18614" lon="3.43587">
        <ele>569.24</ele>
        <time>2021-01-31T09:30:34Z</time>
      </trkpt>
      <trkpt lat="45.18612" lon="3.43562">
        <ele>565.87</ele>
        <time>2021-01-31T09:30:49Z</time>
      </trkpt>
      <trkpt lat="45.18609" lon="3.43559">
        <ele>565.39</ele>
        <time>2021-01-31T09:30:52Z</time>
      </trkpt>
      <trkpt lat="45.18601" lon="3.43559">
        <ele>563.95</ele>
        <time>2021-01-31T09:30:59Z</time>
      </trkpt>
      <trkpt lat="45.18595" lon="3.43568">
        <ele>563.47</ele>
        <time>2021-01-31T09:31:06Z</time>
      </trkpt>
      <trkpt lat="45.18585" lon="3.43574">
        <ele>562.03</ele>
        <time>2021-01-31T09:31:18Z</time>
      </trkpt>
      <trkpt lat="45.18584" lon="3.43566">
        <ele>561.55</ele>
        <time>2021-01-31T09:31:37Z</time>
      </trkpt>
      <trkpt lat="45.18584" lon="3.4356">
        <ele>560.11</ele>
        <time>2021-01-31T09:31:40Z</time>
      </trkpt>
      <trkpt lat="45.18583" lon="3.43547">
        <ele>558.18</ele>
        <time>2021-01-31T09:31:48Z</time>
      </trkpt>
      <trkpt lat="45.1858" lon="3.43527">
        <ele>554.82</ele>
        <time>2021-01-31T09:32:00Z</time>
      </trkpt>
      <trkpt lat="45.1858" lon="3.43504">
        <ele>554.34</ele>
        <time>2021-01-31T09:32:11Z</time>
      </trkpt>
      <trkpt lat="45.18583" lon="3.43495">
        <ele>552.9</ele>
        <time>2021-01-31T09:32:19Z</time>
      </trkpt>
      <trkpt lat="45.18589" lon="3.43504">
        <ele>553.86</ele>
        <time>2021-01-31T09:32:29Z</time>
      </trkpt>
      <trkpt lat="45.1859" lon="3.43502">
        <ele>553.86</ele>
        <time>2021-01-31T09:32:31Z</time>
      </trkpt>
      <trkpt lat="45.18593" lon="3.43504">
        <ele>556.26</ele>
        <time>2021-01-31T09:32:45Z</time>
      </trkpt>
      <trkpt lat="45.18589" lon="3.43502">
        <ele>556.26</ele>
        <time>2021-01-31T09:32:49Z</time>
      </trkpt>
      <trkpt lat="45.18583" lon="3.43503">
        <ele>555.78</ele>
        <time>2021-01-31T09:32:53Z</time>
      </trkpt>
      <trkpt lat="45.18581" lon="3.43501">
        <ele>555.3</ele>
        <time>2021-01-31T09:32:55Z</time>
      </trkpt>
      <trkpt lat="45.18584" lon="3.43489">
        <ele>553.86</ele>
        <time>2021-01-31T09:33:01Z</time>
      </trkpt>
      <trkpt lat="45.18589" lon="3.43469">
        <ele>552.9</ele>
        <time>2021-01-31T09:33:12Z</time>
      </trkpt>
      <trkpt lat="45.18587" lon="3.43439">
        <ele>554.82</ele>
        <time>2021-01-31T09:33:28Z</time>
      </trkpt>
      <trkpt lat="45.18577" lon="3.43414">
        <ele>557.22</ele>
        <time>2021-01-31T09:33:42Z</time>
      </trkpt>
      <trkpt lat="45.18571" lon="3.43389">
        <ele>561.07</ele>
        <time>2021-01-31T09:33:56Z</time>
      </trkpt>
      <trkpt lat="45.18571" lon="3.43365">
        <ele>564.43</ele>
        <time>2021-01-31T09:34:09Z</time>
      </trkpt>
      <trkpt lat="45.18571" lon="3.43341">
        <ele>566.35</ele>
        <time>2021-01-31T09:34:22Z</time>
      </trkpt>
      <trkpt lat="45.18571" lon="3.4332">
        <ele>566.83</ele>
        <time>2021-01-31T09:34:34Z</time>
      </trkpt>
      <trkpt lat="45.18572" lon="3.43312">
        <ele>568.28</ele>
        <time>2021-01-31T09:34:39Z</time>
      </trkpt>
      <trkpt lat="45.18583" lon="3.43305">
        <ele>571.64</ele>
        <time>2021-01-31T09:34:53Z</time>
      </trkpt>
      <trkpt lat="45.18584" lon="3.43306">
        <ele>572.12</ele>
        <time>2021-01-31T09:34:55Z</time>
      </trkpt>
      <trkpt lat="45.18591" lon="3.43326">
        <ele>573.56</ele>
        <time>2021-01-31T09:35:08Z</time>
      </trkpt>
      <trkpt lat="45.18595" lon="3.4334">
        <ele>572.6</ele>
        <time>2021-01-31T09:35:17Z</time>
      </trkpt>
      <trkpt lat="45.18601" lon="3.43352">
        <ele>571.64</ele>
        <time>2021-01-31T09:35:29Z</time>
      </trkpt>
      <trkpt lat="45.18605" lon="3.43362">
        <ele>571.64</ele>
        <time>2021-01-31T09:35:39Z</time>
      </trkpt>
      <trkpt lat="45.18614" lon="3.43378">
        <ele>574.04</ele>
        <time>2021-01-31T09:35:50Z</time>
      </trkpt>
      <trkpt lat="45.18623" lon="3.43391">
        <ele>575.49</ele>
        <time>2021-01-31T09:36:05Z</time>
      </trkpt>
      <trkpt lat="45.18627" lon="3.43401">
        <ele>574.53</ele>
        <time>2021-01-31T09:36:12Z</time>
      </trkpt>
      <trkpt lat="45.18638" lon="3.43417">
        <ele>573.08</ele>
        <time>2021-01-31T09:36:26Z</time>
      </trkpt>
      <trkpt lat="45.1865" lon="3.43429">
        <ele>573.08</ele>
        <time>2021-01-31T09:36:37Z</time>
      </trkpt>
      <trkpt lat="45.18662" lon="3.43445">
        <ele>572.12</ele>
        <time>2021-01-31T09:36:50Z</time>
      </trkpt>
      <trkpt lat="45.18667" lon="3.43456">
        <ele>571.64</ele>
        <time>2021-01-31T09:36:57Z</time>
      </trkpt>
      <trkpt lat="45.18671" lon="3.43465">
        <ele>570.68</ele>
        <time>2021-01-31T09:37:12Z</time>
      </trkpt>
      <trkpt lat="45.1867" lon="3.43466">
        <ele>570.68</ele>
        <time>2021-01-31T09:37:41Z</time>
      </trkpt>
      <trkpt lat="45.1867" lon="3.43467">
        <ele>571.16</ele>
        <time>2021-01-31T09:38:14Z</time>
      </trkpt>
      <trkpt lat="45.18669" lon="3.43467">
        <ele>570.68</ele>
        <time>2021-01-31T09:38:43Z</time>
      </trkpt>
      <trkpt lat="45.18669" lon="3.43466">
        <ele>570.68</ele>
        <time>2021-01-31T09:39:14Z</time>
      </trkpt>
      <trkpt lat="45.18668" lon="3.43466">
        <ele>570.68</ele>
        <time>2021-01-31T09:39:39Z</time>
      </trkpt>
      <trkpt lat="45.18676" lon="3.43474">
        <ele>573.08</ele>
        <time>2021-01-31T09:39:58Z</time>
      </trkpt>
      <trkpt lat="45.18673" lon="3.43473">
        <ele>573.56</ele>
        <time>2021-01-31T09:40:11Z</time>
      </trkpt>
      <trkpt lat="45.18677" lon="3.43477">
        <ele>574.04</ele>
        <time>2021-01-31T09:40:26Z</time>
      </trkpt>
      <trkpt lat="45.18684" lon="3.4349">
        <ele>574.53</ele>
        <time>2021-01-31T09:40:40Z</time>
      </trkpt>
      <trkpt lat="45.18689" lon="3.43498">
        <ele>575.97</ele>
        <time>2021-01-31T09:40:51Z</time>
      </trkpt>
      <trkpt lat="45.18692" lon="3.43504">
        <ele>576.45</ele>
        <time>2021-01-31T09:41:07Z</time>
      </trkpt>
      <trkpt lat="45.18691" lon="3.43503">
        <ele>576.45</ele>
        <time>2021-01-31T09:41:29Z</time>
      </trkpt>
      <trkpt lat="45.18694" lon="3.43507">
        <ele>576.93</ele>
        <time>2021-01-31T09:41:42Z</time>
      </trkpt>
      <trkpt lat="45.18704" lon="3.43538">
        <ele>575.01</ele>
        <time>2021-01-31T09:41:58Z</time>
      </trkpt>
      <trkpt lat="45.18714" lon="3.43565">
        <ele>571.64</ele>
        <time>2021-01-31T09:42:14Z</time>
      </trkpt>
      <trkpt lat="45.18718" lon="3.43572">
        <ele>569.72</ele>
        <time>2021-01-31T09:42:19Z</time>
      </trkpt>
      <trkpt lat="45.18731" lon="3.43567">
        <ele>566.35</ele>
        <time>2021-01-31T09:42:37Z</time>
      </trkpt>
      <trkpt lat="45.18731" lon="3.43567">
        <ele>566.35</ele>
        <time>2021-01-31T09:42:38Z</time>
      </trkpt>
      <trkpt lat="45.18727" lon="3.4357">
        <ele>566.35</ele>
        <time>2021-01-31T09:42:41Z</time>
      </trkpt>
      <trkpt lat="45.18726" lon="3.43588">
        <ele>566.35</ele>
        <time>2021-01-31T09:42:52Z</time>
      </trkpt>
      <trkpt lat="45.18739" lon="3.43613">
        <ele>566.35</ele>
        <time>2021-01-31T09:43:10Z</time>
      </trkpt>
      <trkpt lat="45.1874" lon="3.43612">
        <ele>566.35</ele>
        <time>2021-01-31T09:43:11Z</time>
      </trkpt>
      <trkpt lat="45.18756" lon="3.43603">
        <ele>570.2</ele>
        <time>2021-01-31T09:43:27Z</time>
      </trkpt>
      <trkpt lat="45.18784" lon="3.43601">
        <ele>576.45</ele>
        <time>2021-01-31T09:43:48Z</time>
      </trkpt>
      <trkpt lat="45.18804" lon="3.43599">
        <ele>579.81</ele>
        <time>2021-01-31T09:44:05Z</time>
      </trkpt>
      <trkpt lat="45.18828" lon="3.43599">
        <ele>586.54</ele>
        <time>2021-01-31T09:44:26Z</time>
      </trkpt>
      <trkpt lat="45.18839" lon="3.43597">
        <ele>588.95</ele>
        <time>2021-01-31T09:44:43Z</time>
      </trkpt>
      <trkpt lat="45.18857" lon="3.43593">
        <ele>591.83</ele>
        <time>2021-01-31T09:45:00Z</time>
      </trkpt>
      <trkpt lat="45.18876" lon="3.43588">
        <ele>598.08</ele>
        <time>2021-01-31T09:45:16Z</time>
      </trkpt>
      <trkpt lat="45.18894" lon="3.43588">
        <ele>602.88</ele>
        <time>2021-01-31T09:45:34Z</time>
      </trkpt>
      <trkpt lat="45.18899" lon="3.43587">
        <ele>604.81</ele>
        <time>2021-01-31T09:45:39Z</time>
      </trkpt>
      <trkpt lat="45.18915" lon="3.43584">
        <ele>608.17</ele>
        <time>2021-01-31T09:45:56Z</time>
      </trkpt>
      <trkpt lat="45.1893" lon="3.43582">
        <ele>611.54</ele>
        <time>2021-01-31T09:46:13Z</time>
      </trkpt>
      <trkpt lat="45.18938" lon="3.4358">
        <ele>612.98</ele>
        <time>2021-01-31T09:46:27Z</time>
      </trkpt>
      <trkpt lat="45.18954" lon="3.43574">
        <ele>616.82</ele>
        <time>2021-01-31T09:46:40Z</time>
      </trkpt>
      <trkpt lat="45.18968" lon="3.43562">
        <ele>618.75</ele>
        <time>2021-01-31T09:46:54Z</time>
      </trkpt>
      <trkpt lat="45.18983" lon="3.43553">
        <ele>622.59</ele>
        <time>2021-01-31T09:47:09Z</time>
      </trkpt>
      <trkpt lat="45.18996" lon="3.43544">
        <ele>624.99</ele>
        <time>2021-01-31T09:47:25Z</time>
      </trkpt>
      <trkpt lat="45.19013" lon="3.43544">
        <ele>628.36</ele>
        <time>2021-01-31T09:47:42Z</time>
      </trkpt>
      <trkpt lat="45.19034" lon="3.43539">
        <ele>632.2</ele>
        <time>2021-01-31T09:48:04Z</time>
      </trkpt>
      <trkpt lat="45.19048" lon="3.43534">
        <ele>636.53</ele>
        <time>2021-01-31T09:48:20Z</time>
      </trkpt>
      <trkpt lat="45.19069" lon="3.43532">
        <ele>642.3</ele>
        <time>2021-01-31T09:48:38Z</time>
      </trkpt>
      <trkpt lat="45.19072" lon="3.43531">
        <ele>642.78</ele>
        <time>2021-01-31T09:48:41Z</time>
      </trkpt>
      <trkpt lat="45.19091" lon="3.43527">
        <ele>646.62</ele>
        <time>2021-01-31T09:48:58Z</time>
      </trkpt>
      <trkpt lat="45.19103" lon="3.43518">
        <ele>649.99</ele>
        <time>2021-01-31T09:49:11Z</time>
      </trkpt>
      <trkpt lat="45.19117" lon="3.43512">
        <ele>652.39</ele>
        <time>2021-01-31T09:49:24Z</time>
      </trkpt>
      <trkpt lat="45.1912" lon="3.43511">
        <ele>653.35</ele>
        <time>2021-01-31T09:49:41Z</time>
      </trkpt>
      <trkpt lat="45.19125" lon="3.43509">
        <ele>654.8</ele>
        <time>2021-01-31T09:49:58Z</time>
      </trkpt>
      <trkpt lat="45.19125" lon="3.4351">
        <ele>654.8</ele>
        <time>2021-01-31T09:50:15Z</time>
      </trkpt>
      <trkpt lat="45.19124" lon="3.4351">
        <ele>654.31</ele>
        <time>2021-01-31T09:50:37Z</time>
      </trkpt>
      <trkpt lat="45.19138" lon="3.43501">
        <ele>653.35</ele>
        <time>2021-01-31T09:50:53Z</time>
      </trkpt>
      <trkpt lat="45.19154" lon="3.43492">
        <ele>656.72</ele>
        <time>2021-01-31T09:51:08Z</time>
      </trkpt>
      <trkpt lat="45.1917" lon="3.43485">
        <ele>657.68</ele>
        <time>2021-01-31T09:51:22Z</time>
      </trkpt>
      <trkpt lat="45.19187" lon="3.43476">
        <ele>659.12</ele>
        <time>2021-01-31T09:51:40Z</time>
      </trkpt>
      <trkpt lat="45.19205" lon="3.43466">
        <ele>660.56</ele>
        <time>2021-01-31T09:51:55Z</time>
      </trkpt>
      <trkpt lat="45.19222" lon="3.43459">
        <ele>665.37</ele>
        <time>2021-01-31T09:52:11Z</time>
      </trkpt>
      <trkpt lat="45.19235" lon="3.43452">
        <ele>668.25</ele>
        <time>2021-01-31T09:52:24Z</time>
      </trkpt>
      <trkpt lat="45.19251" lon="3.43446">
        <ele>671.14</ele>
        <time>2021-01-31T09:52:40Z</time>
      </trkpt>
      <trkpt lat="45.19269" lon="3.43447">
        <ele>673.54</ele>
        <time>2021-01-31T09:52:57Z</time>
      </trkpt>
      <trkpt lat="45.19284" lon="3.43449">
        <ele>676.42</ele>
        <time>2021-01-31T09:53:12Z</time>
      </trkpt>
      <trkpt lat="45.19303" lon="3.4345">
        <ele>678.35</ele>
        <time>2021-01-31T09:53:29Z</time>
      </trkpt>
      <trkpt lat="45.19316" lon="3.4345">
        <ele>680.75</ele>
        <time>2021-01-31T09:53:41Z</time>
      </trkpt>
      <trkpt lat="45.19334" lon="3.43449">
        <ele>683.15</ele>
        <time>2021-01-31T09:53:57Z</time>
      </trkpt>
      <trkpt lat="45.19351" lon="3.4345">
        <ele>686.04</ele>
        <time>2021-01-31T09:54:11Z</time>
      </trkpt>
      <trkpt lat="45.1937" lon="3.43456">
        <ele>687.96</ele>
        <time>2021-01-31T09:54:29Z</time>
      </trkpt>
      <trkpt lat="45.19373" lon="3.43456">
        <ele>688.92</ele>
        <time>2021-01-31T09:54:44Z</time>
      </trkpt>
      <trkpt lat="45.19374" lon="3.43457">
        <ele>688.92</ele>
        <time>2021-01-31T09:54:47Z</time>
      </trkpt>
      <trkpt lat="45.19391" lon="3.43466">
        <ele>690.36</ele>
        <time>2021-01-31T09:55:03Z</time>
      </trkpt>
      <trkpt lat="45.19407" lon="3.43471">
        <ele>693.25</ele>
        <time>2021-01-31T09:55:18Z</time>
      </trkpt>
      <trkpt lat="45.19417" lon="3.43478">
        <ele>696.61</ele>
        <time>2021-01-31T09:55:33Z</time>
      </trkpt>
      <trkpt lat="45.1942" lon="3.43478">
        <ele>697.57</ele>
        <time>2021-01-31T09:55:48Z</time>
      </trkpt>
      <trkpt lat="45.19422" lon="3.43478">
        <ele>697.09</ele>
        <time>2021-01-31T09:56:07Z</time>
      </trkpt>
      <trkpt lat="45.19431" lon="3.43485">
        <ele>698.53</ele>
        <time>2021-01-31T09:56:24Z</time>
      </trkpt>
      <trkpt lat="45.19439" lon="3.43487">
        <ele>700.46</ele>
        <time>2021-01-31T09:56:39Z</time>
      </trkpt>
      <trkpt lat="45.1944" lon="3.43483">
        <ele>700.94</ele>
        <time>2021-01-31T09:57:01Z</time>
      </trkpt>
      <trkpt lat="45.19447" lon="3.43448">
        <ele>702.38</ele>
        <time>2021-01-31T09:57:19Z</time>
      </trkpt>
      <trkpt lat="45.1945" lon="3.43429">
        <ele>703.82</ele>
        <time>2021-01-31T09:57:28Z</time>
      </trkpt>
      <trkpt lat="45.19452" lon="3.43397">
        <ele>703.34</ele>
        <time>2021-01-31T09:57:44Z</time>
      </trkpt>
      <trkpt lat="45.19452" lon="3.43384">
        <ele>701.9</ele>
        <time>2021-01-31T09:57:51Z</time>
      </trkpt>
      <trkpt lat="45.19454" lon="3.43376">
        <ele>701.42</ele>
        <time>2021-01-31T09:57:55Z</time>
      </trkpt>
      <trkpt lat="45.19457" lon="3.43336">
        <ele>699.02</ele>
        <time>2021-01-31T09:58:14Z</time>
      </trkpt>
      <trkpt lat="45.19457" lon="3.43334">
        <ele>699.02</ele>
        <time>2021-01-31T09:58:15Z</time>
      </trkpt>
      <trkpt lat="45.19453" lon="3.433">
        <ele>697.57</ele>
        <time>2021-01-31T09:58:33Z</time>
      </trkpt>
      <trkpt lat="45.19453" lon="3.43269">
        <ele>696.13</ele>
        <time>2021-01-31T09:58:49Z</time>
      </trkpt>
      <trkpt lat="45.19449" lon="3.43233">
        <ele>697.09</ele>
        <time>2021-01-31T09:59:08Z</time>
      </trkpt>
      <trkpt lat="45.19449" lon="3.43221">
        <ele>695.65</ele>
        <time>2021-01-31T09:59:15Z</time>
      </trkpt>
      <trkpt lat="45.19448" lon="3.43215">
        <ele>695.17</ele>
        <time>2021-01-31T09:59:18Z</time>
      </trkpt>
      <trkpt lat="45.19446" lon="3.43187">
        <ele>687.96</ele>
        <time>2021-01-31T09:59:37Z</time>
      </trkpt>
      <trkpt lat="45.19446" lon="3.43155">
        <ele>685.56</ele>
        <time>2021-01-31T09:59:54Z</time>
      </trkpt>
      <trkpt lat="45.19445" lon="3.43129">
        <ele>682.19</ele>
        <time>2021-01-31T10:00:11Z</time>
      </trkpt>
      <trkpt lat="45.1945" lon="3.43119">
        <ele>681.71</ele>
        <time>2021-01-31T10:00:17Z</time>
      </trkpt>
      <trkpt lat="45.19461" lon="3.43116">
        <ele>681.23</ele>
        <time>2021-01-31T10:00:32Z</time>
      </trkpt>
      <trkpt lat="45.19465" lon="3.4312">
        <ele>683.63</ele>
        <time>2021-01-31T10:00:48Z</time>
      </trkpt>
      <trkpt lat="45.19467" lon="3.43123">
        <ele>685.56</ele>
        <time>2021-01-31T10:01:11Z</time>
      </trkpt>
      <trkpt lat="45.19471" lon="3.4313">
        <ele>685.08</ele>
        <time>2021-01-31T10:01:25Z</time>
      </trkpt>
      <trkpt lat="45.19473" lon="3.43133">
        <ele>686.04</ele>
        <time>2021-01-31T10:01:42Z</time>
      </trkpt>
      <trkpt lat="45.19486" lon="3.43147">
        <ele>683.63</ele>
        <time>2021-01-31T10:01:56Z</time>
      </trkpt>
      <trkpt lat="45.19498" lon="3.43169">
        <ele>682.19</ele>
        <time>2021-01-31T10:02:12Z</time>
      </trkpt>
      <trkpt lat="45.19517" lon="3.43196">
        <ele>684.12</ele>
        <time>2021-01-31T10:02:29Z</time>
      </trkpt>
      <trkpt lat="45.19531" lon="3.4322">
        <ele>682.19</ele>
        <time>2021-01-31T10:02:45Z</time>
      </trkpt>
      <trkpt lat="45.19554" lon="3.43227">
        <ele>682.67</ele>
        <time>2021-01-31T10:03:00Z</time>
      </trkpt>
      <trkpt lat="45.19567" lon="3.43218">
        <ele>683.15</ele>
        <time>2021-01-31T10:03:08Z</time>
      </trkpt>
      <trkpt lat="45.1958" lon="3.43199">
        <ele>682.67</ele>
        <time>2021-01-31T10:03:23Z</time>
      </trkpt>
      <trkpt lat="45.19587" lon="3.43173">
        <ele>681.71</ele>
        <time>2021-01-31T10:03:40Z</time>
      </trkpt>
      <trkpt lat="45.19584" lon="3.43155">
        <ele>682.19</ele>
        <time>2021-01-31T10:03:50Z</time>
      </trkpt>
      <trkpt lat="45.19582" lon="3.43144">
        <ele>681.71</ele>
        <time>2021-01-31T10:03:56Z</time>
      </trkpt>
      <trkpt lat="45.19578" lon="3.43107">
        <ele>678.35</ele>
        <time>2021-01-31T10:04:16Z</time>
      </trkpt>
      <trkpt lat="45.19579" lon="3.43066">
        <ele>678.83</ele>
        <time>2021-01-31T10:04:37Z</time>
      </trkpt>
      <trkpt lat="45.19582" lon="3.4303">
        <ele>682.67</ele>
        <time>2021-01-31T10:04:55Z</time>
      </trkpt>
      <trkpt lat="45.19583" lon="3.43016">
        <ele>681.71</ele>
        <time>2021-01-31T10:05:03Z</time>
      </trkpt>
      <trkpt lat="45.19586" lon="3.43002">
        <ele>682.19</ele>
        <time>2021-01-31T10:05:12Z</time>
      </trkpt>
      <trkpt lat="45.19588" lon="3.42984">
        <ele>682.67</ele>
        <time>2021-01-31T10:05:21Z</time>
      </trkpt>
      <trkpt lat="45.19589" lon="3.42981">
        <ele>682.67</ele>
        <time>2021-01-31T10:05:23Z</time>
      </trkpt>
      <trkpt lat="45.19591" lon="3.42958">
        <ele>684.6</ele>
        <time>2021-01-31T10:05:34Z</time>
      </trkpt>
      <trkpt lat="45.19599" lon="3.42928">
        <ele>684.6</ele>
        <time>2021-01-31T10:05:52Z</time>
      </trkpt>
      <trkpt lat="45.19612" lon="3.42906">
        <ele>681.71</ele>
        <time>2021-01-31T10:06:11Z</time>
      </trkpt>
      <trkpt lat="45.19623" lon="3.42891">
        <ele>679.31</ele>
        <time>2021-01-31T10:06:26Z</time>
      </trkpt>
      <trkpt lat="45.19634" lon="3.42878">
        <ele>676.91</ele>
        <time>2021-01-31T10:06:41Z</time>
      </trkpt>
      <trkpt lat="45.19643" lon="3.42867">
        <ele>675.94</ele>
        <time>2021-01-31T10:06:53Z</time>
      </trkpt>
      <trkpt lat="45.1965" lon="3.42856">
        <ele>673.54</ele>
        <time>2021-01-31T10:07:09Z</time>
      </trkpt>
      <trkpt lat="45.19665" lon="3.42843">
        <ele>673.54</ele>
        <time>2021-01-31T10:07:25Z</time>
      </trkpt>
      <trkpt lat="45.19684" lon="3.42827">
        <ele>675.46</ele>
        <time>2021-01-31T10:07:45Z</time>
      </trkpt>
      <trkpt lat="45.19708" lon="3.4281">
        <ele>675.94</ele>
        <time>2021-01-31T10:08:07Z</time>
      </trkpt>
      <trkpt lat="45.19731" lon="3.42792">
        <ele>672.1</ele>
        <time>2021-01-31T10:08:26Z</time>
      </trkpt>
      <trkpt lat="45.19743" lon="3.42774">
        <ele>667.77</ele>
        <time>2021-01-31T10:08:41Z</time>
      </trkpt>
      <trkpt lat="45.19753" lon="3.42749">
        <ele>664.89</ele>
        <time>2021-01-31T10:09:00Z</time>
      </trkpt>
      <trkpt lat="45.19758" lon="3.42724">
        <ele>662.01</ele>
        <time>2021-01-31T10:09:17Z</time>
      </trkpt>
      <trkpt lat="45.19758" lon="3.42722">
        <ele>661.52</ele>
        <time>2021-01-31T10:09:18Z</time>
      </trkpt>
      <trkpt lat="45.19766" lon="3.42697">
        <ele>656.24</ele>
        <time>2021-01-31T10:09:35Z</time>
      </trkpt>
      <trkpt lat="45.19777" lon="3.42669">
        <ele>655.76</ele>
        <time>2021-01-31T10:09:52Z</time>
      </trkpt>
      <trkpt lat="45.19783" lon="3.42654">
        <ele>655.28</ele>
        <time>2021-01-31T10:10:03Z</time>
      </trkpt>
      <trkpt lat="45.19786" lon="3.42643">
        <ele>655.76</ele>
        <time>2021-01-31T10:10:10Z</time>
      </trkpt>
      <trkpt lat="45.19794" lon="3.42611">
        <ele>657.2</ele>
        <time>2021-01-31T10:10:30Z</time>
      </trkpt>
      <trkpt lat="45.19802" lon="3.42598">
        <ele>657.2</ele>
        <time>2021-01-31T10:10:39Z</time>
      </trkpt>
      <trkpt lat="45.19815" lon="3.42573">
        <ele>658.64</ele>
        <time>2021-01-31T10:10:57Z</time>
      </trkpt>
      <trkpt lat="45.19828" lon="3.42552">
        <ele>657.2</ele>
        <time>2021-01-31T10:11:13Z</time>
      </trkpt>
      <trkpt lat="45.19843" lon="3.42533">
        <ele>656.24</ele>
        <time>2021-01-31T10:11:29Z</time>
      </trkpt>
      <trkpt lat="45.19852" lon="3.42518">
        <ele>659.6</ele>
        <time>2021-01-31T10:11:41Z</time>
      </trkpt>
      <trkpt lat="45.19853" lon="3.42516">
        <ele>659.6</ele>
        <time>2021-01-31T10:11:42Z</time>
      </trkpt>
      <trkpt lat="45.19865" lon="3.42505">
        <ele>660.08</ele>
        <time>2021-01-31T10:11:52Z</time>
      </trkpt>
      <trkpt lat="45.19882" lon="3.42487">
        <ele>659.12</ele>
        <time>2021-01-31T10:12:07Z</time>
      </trkpt>
      <trkpt lat="45.19895" lon="3.42472">
        <ele>658.16</ele>
        <time>2021-01-31T10:12:21Z</time>
      </trkpt>
      <trkpt lat="45.19908" lon="3.42463">
        <ele>655.76</ele>
        <time>2021-01-31T10:12:35Z</time>
      </trkpt>
      <trkpt lat="45.19922" lon="3.4246">
        <ele>654.31</ele>
        <time>2021-01-31T10:12:51Z</time>
      </trkpt>
      <trkpt lat="45.1993" lon="3.42458">
        <ele>652.39</ele>
        <time>2021-01-31T10:13:02Z</time>
      </trkpt>
      <trkpt lat="45.19951" lon="3.42456">
        <ele>651.91</ele>
        <time>2021-01-31T10:13:18Z</time>
      </trkpt>
      <trkpt lat="45.19974" lon="3.42459">
        <ele>652.39</ele>
        <time>2021-01-31T10:13:36Z</time>
      </trkpt>
      <trkpt lat="45.19996" lon="3.4247">
        <ele>650.47</ele>
        <time>2021-01-31T10:13:55Z</time>
      </trkpt>
      <trkpt lat="45.19999" lon="3.42473">
        <ele>649.51</ele>
        <time>2021-01-31T10:13:59Z</time>
      </trkpt>
      <trkpt lat="45.20018" lon="3.4249">
        <ele>648.07</ele>
        <time>2021-01-31T10:14:20Z</time>
      </trkpt>
      <trkpt lat="45.20032" lon="3.42497">
        <ele>649.03</ele>
        <time>2021-01-31T10:14:34Z</time>
      </trkpt>
      <trkpt lat="45.2004" lon="3.42495">
        <ele>649.99</ele>
        <time>2021-01-31T10:14:38Z</time>
      </trkpt>
      <trkpt lat="45.20054" lon="3.42485">
        <ele>650.95</ele>
        <time>2021-01-31T10:14:47Z</time>
      </trkpt>
      <trkpt lat="45.20063" lon="3.42463">
        <ele>650.47</ele>
        <time>2021-01-31T10:15:00Z</time>
      </trkpt>
      <trkpt lat="45.20064" lon="3.42435">
        <ele>649.03</ele>
        <time>2021-01-31T10:15:15Z</time>
      </trkpt>
      <trkpt lat="45.20065" lon="3.42399">
        <ele>648.07</ele>
        <time>2021-01-31T10:15:34Z</time>
      </trkpt>
      <trkpt lat="45.20071" lon="3.42369">
        <ele>649.03</ele>
        <time>2021-01-31T10:15:51Z</time>
      </trkpt>
      <trkpt lat="45.20079" lon="3.42346">
        <ele>649.03</ele>
        <time>2021-01-31T10:16:05Z</time>
      </trkpt>
      <trkpt lat="45.20087" lon="3.42337">
        <ele>650.95</ele>
        <time>2021-01-31T10:16:20Z</time>
      </trkpt>
      <trkpt lat="45.20087" lon="3.42337">
        <ele>650.95</ele>
        <time>2021-01-31T10:16:23Z</time>
      </trkpt>
      <trkpt lat="45.2009" lon="3.42332">
        <ele>651.43</ele>
        <time>2021-01-31T10:16:27Z</time>
      </trkpt>
      <trkpt lat="45.20106" lon="3.42309">
        <ele>651.91</ele>
        <time>2021-01-31T10:16:44Z</time>
      </trkpt>
      <trkpt lat="45.20124" lon="3.42284">
        <ele>653.35</ele>
        <time>2021-01-31T10:17:03Z</time>
      </trkpt>
      <trkpt lat="45.20128" lon="3.42275">
        <ele>653.83</ele>
        <time>2021-01-31T10:17:09Z</time>
      </trkpt>
      <trkpt lat="45.20127" lon="3.42249">
        <ele>653.35</ele>
        <time>2021-01-31T10:17:25Z</time>
      </trkpt>
      <trkpt lat="45.20125" lon="3.42233">
        <ele>651.91</ele>
        <time>2021-01-31T10:17:34Z</time>
      </trkpt>
      <trkpt lat="45.20116" lon="3.42203">
        <ele>651.91</ele>
        <time>2021-01-31T10:17:53Z</time>
      </trkpt>
      <trkpt lat="45.20115" lon="3.42182">
        <ele>654.8</ele>
        <time>2021-01-31T10:18:10Z</time>
      </trkpt>
      <trkpt lat="45.20123" lon="3.4218">
        <ele>655.28</ele>
        <time>2021-01-31T10:18:18Z</time>
      </trkpt>
      <trkpt lat="45.20137" lon="3.42174">
        <ele>659.12</ele>
        <time>2021-01-31T10:18:34Z</time>
      </trkpt>
      <trkpt lat="45.2014" lon="3.42164">
        <ele>661.04</ele>
        <time>2021-01-31T10:18:44Z</time>
      </trkpt>
      <trkpt lat="45.20143" lon="3.42139">
        <ele>664.41</ele>
        <time>2021-01-31T10:19:02Z</time>
      </trkpt>
      <trkpt lat="45.20148" lon="3.42125">
        <ele>665.85</ele>
        <time>2021-01-31T10:19:16Z</time>
      </trkpt>
      <trkpt lat="45.20156" lon="3.42096">
        <ele>665.85</ele>
        <time>2021-01-31T10:19:36Z</time>
      </trkpt>
      <trkpt lat="45.20159" lon="3.42087">
        <ele>670.18</ele>
        <time>2021-01-31T10:19:43Z</time>
      </trkpt>
      <trkpt lat="45.20175" lon="3.42074">
        <ele>675.94</ele>
        <time>2021-01-31T10:19:57Z</time>
      </trkpt>
      <trkpt lat="45.20177" lon="3.42074">
        <ele>676.91</ele>
        <time>2021-01-31T10:19:59Z</time>
      </trkpt>
      <trkpt lat="45.20197" lon="3.42076">
        <ele>678.83</ele>
        <time>2021-01-31T10:20:14Z</time>
      </trkpt>
      <trkpt lat="45.20211" lon="3.42083">
        <ele>679.79</ele>
        <time>2021-01-31T10:20:28Z</time>
      </trkpt>
      <trkpt lat="45.20225" lon="3.42093">
        <ele>678.83</ele>
        <time>2021-01-31T10:20:44Z</time>
      </trkpt>
      <trkpt lat="45.20235" lon="3.42101">
        <ele>678.83</ele>
        <time>2021-01-31T10:21:00Z</time>
      </trkpt>
      <trkpt lat="45.20257" lon="3.4212">
        <ele>679.79</ele>
        <time>2021-01-31T10:21:20Z</time>
      </trkpt>
      <trkpt lat="45.20277" lon="3.42136">
        <ele>678.83</ele>
        <time>2021-01-31T10:21:38Z</time>
      </trkpt>
      <trkpt lat="45.20287" lon="3.42144">
        <ele>676.91</ele>
        <time>2021-01-31T10:21:53Z</time>
      </trkpt>
      <trkpt lat="45.20301" lon="3.42157">
        <ele>677.87</ele>
        <time>2021-01-31T10:22:08Z</time>
      </trkpt>
      <trkpt lat="45.20321" lon="3.42167">
        <ele>679.79</ele>
        <time>2021-01-31T10:22:24Z</time>
      </trkpt>
      <trkpt lat="45.20338" lon="3.42164">
        <ele>680.75</ele>
        <time>2021-01-31T10:22:40Z</time>
      </trkpt>
      <trkpt lat="45.20352" lon="3.42162">
        <ele>680.27</ele>
        <time>2021-01-31T10:22:55Z</time>
      </trkpt>
      <trkpt lat="45.20374" lon="3.42156">
        <ele>682.67</ele>
        <time>2021-01-31T10:23:12Z</time>
      </trkpt>
      <trkpt lat="45.20395" lon="3.42159">
        <ele>686.52</ele>
        <time>2021-01-31T10:23:29Z</time>
      </trkpt>
      <trkpt lat="45.20414" lon="3.42167">
        <ele>688.44</ele>
        <time>2021-01-31T10:23:46Z</time>
      </trkpt>
      <trkpt lat="45.20433" lon="3.4218">
        <ele>689.4</ele>
        <time>2021-01-31T10:24:03Z</time>
      </trkpt>
      <trkpt lat="45.2045" lon="3.4219">
        <ele>688.92</ele>
        <time>2021-01-31T10:24:20Z</time>
      </trkpt>
      <trkpt lat="45.20462" lon="3.42191">
        <ele>689.4</ele>
        <time>2021-01-31T10:24:32Z</time>
      </trkpt>
      <trkpt lat="45.20486" lon="3.42197">
        <ele>690.36</ele>
        <time>2021-01-31T10:24:50Z</time>
      </trkpt>
      <trkpt lat="45.20495" lon="3.42195">
        <ele>690.36</ele>
        <time>2021-01-31T10:24:57Z</time>
      </trkpt>
      <trkpt lat="45.20502" lon="3.42194">
        <ele>690.36</ele>
        <time>2021-01-31T10:25:03Z</time>
      </trkpt>
      <trkpt lat="45.20527" lon="3.42196">
        <ele>687</ele>
        <time>2021-01-31T10:25:20Z</time>
      </trkpt>
      <trkpt lat="45.20536" lon="3.42197">
        <ele>686.04</ele>
        <time>2021-01-31T10:25:27Z</time>
      </trkpt>
      <trkpt lat="45.20545" lon="3.42202">
        <ele>683.63</ele>
        <time>2021-01-31T10:25:39Z</time>
      </trkpt>
      <trkpt lat="45.20566" lon="3.42213">
        <ele>679.31</ele>
        <time>2021-01-31T10:25:57Z</time>
      </trkpt>
      <trkpt lat="45.20584" lon="3.42236">
        <ele>673.06</ele>
        <time>2021-01-31T10:26:15Z</time>
      </trkpt>
      <trkpt lat="45.20604" lon="3.42268">
        <ele>665.85</ele>
        <time>2021-01-31T10:26:36Z</time>
      </trkpt>
      <trkpt lat="45.20621" lon="3.42295">
        <ele>661.04</ele>
        <time>2021-01-31T10:26:54Z</time>
      </trkpt>
      <trkpt lat="45.2064" lon="3.42318">
        <ele>661.52</ele>
        <time>2021-01-31T10:27:13Z</time>
      </trkpt>
      <trkpt lat="45.20657" lon="3.42336">
        <ele>664.89</ele>
        <time>2021-01-31T10:27:30Z</time>
      </trkpt>
      <trkpt lat="45.20677" lon="3.42358">
        <ele>664.41</ele>
        <time>2021-01-31T10:27:50Z</time>
      </trkpt>
      <trkpt lat="45.20682" lon="3.4236">
        <ele>663.93</ele>
        <time>2021-01-31T10:27:55Z</time>
      </trkpt>
      <trkpt lat="45.20704" lon="3.42358">
        <ele>668.25</ele>
        <time>2021-01-31T10:28:11Z</time>
      </trkpt>
      <trkpt lat="45.20721" lon="3.42344">
        <ele>673.54</ele>
        <time>2021-01-31T10:28:27Z</time>
      </trkpt>
      <trkpt lat="45.20739" lon="3.42331">
        <ele>677.39</ele>
        <time>2021-01-31T10:28:44Z</time>
      </trkpt>
      <trkpt lat="45.20755" lon="3.4232">
        <ele>680.75</ele>
        <time>2021-01-31T10:28:59Z</time>
      </trkpt>
      <trkpt lat="45.20771" lon="3.42312">
        <ele>683.15</ele>
        <time>2021-01-31T10:29:13Z</time>
      </trkpt>
      <trkpt lat="45.20787" lon="3.42307">
        <ele>684.12</ele>
        <time>2021-01-31T10:29:26Z</time>
      </trkpt>
      <trkpt lat="45.20806" lon="3.42306">
        <ele>687</ele>
        <time>2021-01-31T10:29:40Z</time>
      </trkpt>
      <trkpt lat="45.20821" lon="3.42316">
        <ele>689.4</ele>
        <time>2021-01-31T10:29:56Z</time>
      </trkpt>
      <trkpt lat="45.20814" lon="3.42346">
        <ele>689.88</ele>
        <time>2021-01-31T10:30:14Z</time>
      </trkpt>
      <trkpt lat="45.20802" lon="3.42374">
        <ele>691.81</ele>
        <time>2021-01-31T10:30:32Z</time>
      </trkpt>
      <trkpt lat="45.20795" lon="3.42393">
        <ele>692.77</ele>
        <time>2021-01-31T10:30:47Z</time>
      </trkpt>
      <trkpt lat="45.20795" lon="3.42394">
        <ele>693.73</ele>
        <time>2021-01-31T10:31:11Z</time>
      </trkpt>
      <trkpt lat="45.20793" lon="3.42399">
        <ele>694.21</ele>
        <time>2021-01-31T10:31:39Z</time>
      </trkpt>
      <trkpt lat="45.20785" lon="3.42419">
        <ele>694.69</ele>
        <time>2021-01-31T10:31:52Z</time>
      </trkpt>
      <trkpt lat="45.20777" lon="3.42447">
        <ele>696.13</ele>
        <time>2021-01-31T10:32:07Z</time>
      </trkpt>
      <trkpt lat="45.20767" lon="3.4247">
        <ele>697.57</ele>
        <time>2021-01-31T10:32:21Z</time>
      </trkpt>
      <trkpt lat="45.20751" lon="3.42488">
        <ele>699.5</ele>
        <time>2021-01-31T10:32:36Z</time>
      </trkpt>
      <trkpt lat="45.20748" lon="3.42494">
        <ele>699.02</ele>
        <time>2021-01-31T10:32:40Z</time>
      </trkpt>
      <trkpt lat="45.20745" lon="3.42501">
        <ele>699.98</ele>
        <time>2021-01-31T10:32:45Z</time>
      </trkpt>
      <trkpt lat="45.20722" lon="3.42525">
        <ele>699.98</ele>
        <time>2021-01-31T10:33:05Z</time>
      </trkpt>
      <trkpt lat="45.20706" lon="3.42543">
        <ele>699.98</ele>
        <time>2021-01-31T10:33:21Z</time>
      </trkpt>
      <trkpt lat="45.20696" lon="3.42559">
        <ele>700.94</ele>
        <time>2021-01-31T10:33:32Z</time>
      </trkpt>
      <trkpt lat="45.20695" lon="3.42568">
        <ele>700.94</ele>
        <time>2021-01-31T10:33:37Z</time>
      </trkpt>
      <trkpt lat="45.20708" lon="3.42595">
        <ele>701.42</ele>
        <time>2021-01-31T10:33:56Z</time>
      </trkpt>
      <trkpt lat="45.20714" lon="3.42605">
        <ele>701.9</ele>
        <time>2021-01-31T10:34:06Z</time>
      </trkpt>
      <trkpt lat="45.20717" lon="3.42609">
        <ele>702.38</ele>
        <time>2021-01-31T10:34:09Z</time>
      </trkpt>
      <trkpt lat="45.20729" lon="3.4264">
        <ele>702.86</ele>
        <time>2021-01-31T10:34:29Z</time>
      </trkpt>
      <trkpt lat="45.2074" lon="3.42656">
        <ele>706.71</ele>
        <time>2021-01-31T10:34:48Z</time>
      </trkpt>
      <trkpt lat="45.20744" lon="3.42668">
        <ele>706.71</ele>
        <time>2021-01-31T10:35:09Z</time>
      </trkpt>
      <trkpt lat="45.20754" lon="3.42703">
        <ele>709.11</ele>
        <time>2021-01-31T10:35:30Z</time>
      </trkpt>
      <trkpt lat="45.2076" lon="3.42724">
        <ele>708.15</ele>
        <time>2021-01-31T10:35:44Z</time>
      </trkpt>
      <trkpt lat="45.2076" lon="3.42733">
        <ele>708.15</ele>
        <time>2021-01-31T10:35:50Z</time>
      </trkpt>
      <trkpt lat="45.20753" lon="3.42736">
        <ele>708.63</ele>
        <time>2021-01-31T10:35:57Z</time>
      </trkpt>
      <trkpt lat="45.20737" lon="3.42735">
        <ele>711.51</ele>
        <time>2021-01-31T10:36:12Z</time>
      </trkpt>
      <trkpt lat="45.20725" lon="3.42736">
        <ele>713.92</ele>
        <time>2021-01-31T10:36:21Z</time>
      </trkpt>
      <trkpt lat="45.20715" lon="3.42734">
        <ele>716.8</ele>
        <time>2021-01-31T10:36:30Z</time>
      </trkpt>
      <trkpt lat="45.20705" lon="3.42734">
        <ele>719.68</ele>
        <time>2021-01-31T10:36:38Z</time>
      </trkpt>
      <trkpt lat="45.20701" lon="3.42734">
        <ele>721.13</ele>
        <time>2021-01-31T10:36:42Z</time>
      </trkpt>
      <trkpt lat="45.20695" lon="3.42734">
        <ele>723.05</ele>
        <time>2021-01-31T10:36:47Z</time>
      </trkpt>
      <trkpt lat="45.20692" lon="3.42736">
        <ele>724.01</ele>
        <time>2021-01-31T10:36:49Z</time>
      </trkpt>
      <trkpt lat="45.20687" lon="3.42735">
        <ele>725.45</ele>
        <time>2021-01-31T10:36:54Z</time>
      </trkpt>
      <trkpt lat="45.2067" lon="3.42736">
        <ele>727.86</ele>
        <time>2021-01-31T10:37:05Z</time>
      </trkpt>
      <trkpt lat="45.20659" lon="3.42738">
        <ele>728.82</ele>
        <time>2021-01-31T10:37:14Z</time>
      </trkpt>
      <trkpt lat="45.20646" lon="3.42748">
        <ele>730.74</ele>
        <time>2021-01-31T10:37:24Z</time>
      </trkpt>
      <trkpt lat="45.20636" lon="3.42757">
        <ele>731.7</ele>
        <time>2021-01-31T10:37:33Z</time>
      </trkpt>
      <trkpt lat="45.20627" lon="3.42764">
        <ele>733.14</ele>
        <time>2021-01-31T10:37:41Z</time>
      </trkpt>
      <trkpt lat="45.20622" lon="3.42769">
        <ele>733.62</ele>
        <time>2021-01-31T10:37:47Z</time>
      </trkpt>
      <trkpt lat="45.20618" lon="3.42771">
        <ele>735.07</ele>
        <time>2021-01-31T10:37:51Z</time>
      </trkpt>
      <trkpt lat="45.20607" lon="3.42775">
        <ele>735.55</ele>
        <time>2021-01-31T10:38:01Z</time>
      </trkpt>
      <trkpt lat="45.20605" lon="3.42777">
        <ele>734.58</ele>
        <time>2021-01-31T10:38:16Z</time>
      </trkpt>
      <trkpt lat="45.20601" lon="3.4278">
        <ele>734.58</ele>
        <time>2021-01-31T10:38:33Z</time>
      </trkpt>
      <trkpt lat="45.2059" lon="3.42788">
        <ele>733.62</ele>
        <time>2021-01-31T10:38:51Z</time>
      </trkpt>
      <trkpt lat="45.20559" lon="3.42794">
        <ele>733.14</ele>
        <time>2021-01-31T10:39:12Z</time>
      </trkpt>
      <trkpt lat="45.20542" lon="3.42805">
        <ele>734.1</ele>
        <time>2021-01-31T10:39:29Z</time>
      </trkpt>
      <trkpt lat="45.20523" lon="3.4281">
        <ele>734.1</ele>
        <time>2021-01-31T10:39:47Z</time>
      </trkpt>
      <trkpt lat="45.20501" lon="3.4282">
        <ele>736.51</ele>
        <time>2021-01-31T10:40:06Z</time>
      </trkpt>
      <trkpt lat="45.20488" lon="3.42834">
        <ele>738.91</ele>
        <time>2021-01-31T10:40:22Z</time>
      </trkpt>
      <trkpt lat="45.2048" lon="3.42861">
        <ele>743.24</ele>
        <time>2021-01-31T10:40:39Z</time>
      </trkpt>
      <trkpt lat="45.20475" lon="3.42886">
        <ele>743.72</ele>
        <time>2021-01-31T10:40:54Z</time>
      </trkpt>
      <trkpt lat="45.20466" lon="3.42916">
        <ele>748.04</ele>
        <time>2021-01-31T10:41:11Z</time>
      </trkpt>
      <trkpt lat="45.2046" lon="3.42926">
        <ele>749.49</ele>
        <time>2021-01-31T10:41:19Z</time>
      </trkpt>
      <trkpt lat="45.20443" lon="3.4295">
        <ele>753.33</ele>
        <time>2021-01-31T10:41:39Z</time>
      </trkpt>
      <trkpt lat="45.2043" lon="3.42974">
        <ele>756.21</ele>
        <time>2021-01-31T10:41:59Z</time>
      </trkpt>
      <trkpt lat="45.20412" lon="3.42996">
        <ele>758.14</ele>
        <time>2021-01-31T10:42:20Z</time>
      </trkpt>
      <trkpt lat="45.2039" lon="3.43021">
        <ele>757.18</ele>
        <time>2021-01-31T10:42:42Z</time>
      </trkpt>
      <trkpt lat="45.20357" lon="3.4305">
        <ele>757.18</ele>
        <time>2021-01-31T10:43:01Z</time>
      </trkpt>
      <trkpt lat="45.20345" lon="3.43075">
        <ele>757.18</ele>
        <time>2021-01-31T10:43:21Z</time>
      </trkpt>
      <trkpt lat="45.20334" lon="3.43107">
        <ele>756.21</ele>
        <time>2021-01-31T10:43:41Z</time>
      </trkpt>
      <trkpt lat="45.20323" lon="3.43136">
        <ele>756.69</ele>
        <time>2021-01-31T10:43:57Z</time>
      </trkpt>
      <trkpt lat="45.20313" lon="3.43152">
        <ele>756.21</ele>
        <time>2021-01-31T10:44:07Z</time>
      </trkpt>
      <trkpt lat="45.20307" lon="3.43158">
        <ele>756.21</ele>
        <time>2021-01-31T10:44:12Z</time>
      </trkpt>
      <trkpt lat="45.20289" lon="3.43175">
        <ele>757.66</ele>
        <time>2021-01-31T10:44:29Z</time>
      </trkpt>
      <trkpt lat="45.20275" lon="3.43194">
        <ele>759.1</ele>
        <time>2021-01-31T10:44:47Z</time>
      </trkpt>
      <trkpt lat="45.2028" lon="3.43191">
        <ele>757.66</ele>
        <time>2021-01-31T10:45:03Z</time>
      </trkpt>
      <trkpt lat="45.20282" lon="3.4319">
        <ele>757.18</ele>
        <time>2021-01-31T10:45:05Z</time>
      </trkpt>
      <trkpt lat="45.20286" lon="3.43184">
        <ele>756.69</ele>
        <time>2021-01-31T10:45:11Z</time>
      </trkpt>
      <trkpt lat="45.20305" lon="3.43173">
        <ele>754.29</ele>
        <time>2021-01-31T10:45:29Z</time>
      </trkpt>
      <trkpt lat="45.20311" lon="3.4319">
        <ele>754.29</ele>
        <time>2021-01-31T10:45:40Z</time>
      </trkpt>
      <trkpt lat="45.20301" lon="3.43228">
        <ele>753.81</ele>
        <time>2021-01-31T10:45:59Z</time>
      </trkpt>
      <trkpt lat="45.20292" lon="3.43258">
        <ele>755.25</ele>
        <time>2021-01-31T10:46:18Z</time>
      </trkpt>
      <trkpt lat="45.20283" lon="3.43277">
        <ele>755.25</ele>
        <time>2021-01-31T10:46:32Z</time>
      </trkpt>
      <trkpt lat="45.20263" lon="3.43296">
        <ele>757.66</ele>
        <time>2021-01-31T10:46:51Z</time>
      </trkpt>
      <trkpt lat="45.20245" lon="3.43316">
        <ele>762.46</ele>
        <time>2021-01-31T10:47:07Z</time>
      </trkpt>
      <trkpt lat="45.20236" lon="3.4334">
        <ele>763.9</ele>
        <time>2021-01-31T10:47:21Z</time>
      </trkpt>
      <trkpt lat="45.20229" lon="3.43363">
        <ele>763.9</ele>
        <time>2021-01-31T10:47:35Z</time>
      </trkpt>
      <trkpt lat="45.20213" lon="3.43383">
        <ele>764.39</ele>
        <time>2021-01-31T10:47:54Z</time>
      </trkpt>
      <trkpt lat="45.20198" lon="3.43402">
        <ele>763.42</ele>
        <time>2021-01-31T10:48:09Z</time>
      </trkpt>
      <trkpt lat="45.20183" lon="3.43421">
        <ele>762.46</ele>
        <time>2021-01-31T10:48:24Z</time>
      </trkpt>
      <trkpt lat="45.2017" lon="3.43437">
        <ele>763.9</ele>
        <time>2021-01-31T10:48:37Z</time>
      </trkpt>
      <trkpt lat="45.20153" lon="3.43447">
        <ele>762.46</ele>
        <time>2021-01-31T10:48:54Z</time>
      </trkpt>
      <trkpt lat="45.20151" lon="3.43449">
        <ele>762.46</ele>
        <time>2021-01-31T10:48:56Z</time>
      </trkpt>
      <trkpt lat="45.20141" lon="3.4348">
        <ele>761.98</ele>
        <time>2021-01-31T10:49:15Z</time>
      </trkpt>
      <trkpt lat="45.20129" lon="3.43509">
        <ele>763.42</ele>
        <time>2021-01-31T10:49:31Z</time>
      </trkpt>
      <trkpt lat="45.20118" lon="3.43533">
        <ele>765.35</ele>
        <time>2021-01-31T10:49:44Z</time>
      </trkpt>
      <trkpt lat="45.20107" lon="3.43562">
        <ele>764.87</ele>
        <time>2021-01-31T10:50:01Z</time>
      </trkpt>
      <trkpt lat="45.20095" lon="3.43595">
        <ele>763.42</ele>
        <time>2021-01-31T10:50:20Z</time>
      </trkpt>
      <trkpt lat="45.20086" lon="3.43623">
        <ele>763.42</ele>
        <time>2021-01-31T10:50:35Z</time>
      </trkpt>
      <trkpt lat="45.20079" lon="3.43654">
        <ele>761.5</ele>
        <time>2021-01-31T10:50:51Z</time>
      </trkpt>
      <trkpt lat="45.20071" lon="3.43683">
        <ele>759.58</ele>
        <time>2021-01-31T10:51:06Z</time>
      </trkpt>
      <trkpt lat="45.20065" lon="3.43714">
        <ele>759.1</ele>
        <time>2021-01-31T10:51:23Z</time>
      </trkpt>
      <trkpt lat="45.20061" lon="3.43747">
        <ele>757.66</ele>
        <time>2021-01-31T10:51:41Z</time>
      </trkpt>
      <trkpt lat="45.20054" lon="3.43784">
        <ele>755.73</ele>
        <time>2021-01-31T10:51:59Z</time>
      </trkpt>
      <trkpt lat="45.20051" lon="3.43817">
        <ele>753.81</ele>
        <time>2021-01-31T10:52:15Z</time>
      </trkpt>
      <trkpt lat="45.20058" lon="3.43852">
        <ele>754.77</ele>
        <time>2021-01-31T10:52:33Z</time>
      </trkpt>
      <trkpt lat="45.20062" lon="3.4387">
        <ele>755.25</ele>
        <time>2021-01-31T10:52:42Z</time>
      </trkpt>
      <trkpt lat="45.20066" lon="3.43889">
        <ele>756.21</ele>
        <time>2021-01-31T10:52:51Z</time>
      </trkpt>
      <trkpt lat="45.20069" lon="3.43899">
        <ele>756.21</ele>
        <time>2021-01-31T10:52:56Z</time>
      </trkpt>
      <trkpt lat="45.20082" lon="3.43901">
        <ele>756.69</ele>
        <time>2021-01-31T10:53:06Z</time>
      </trkpt>
      <trkpt lat="45.20092" lon="3.43902">
        <ele>758.14</ele>
        <time>2021-01-31T10:53:15Z</time>
      </trkpt>
      <trkpt lat="45.201" lon="3.43903">
        <ele>759.1</ele>
        <time>2021-01-31T10:53:23Z</time>
      </trkpt>
      <trkpt lat="45.2011" lon="3.43905">
        <ele>759.58</ele>
        <time>2021-01-31T10:53:31Z</time>
      </trkpt>
      <trkpt lat="45.20111" lon="3.43905">
        <ele>760.06</ele>
        <time>2021-01-31T10:53:32Z</time>
      </trkpt>
      <trkpt lat="45.20125" lon="3.43905">
        <ele>759.1</ele>
        <time>2021-01-31T10:53:46Z</time>
      </trkpt>
      <trkpt lat="45.20135" lon="3.43903">
        <ele>758.14</ele>
        <time>2021-01-31T10:53:59Z</time>
      </trkpt>
      <trkpt lat="45.20135" lon="3.43903">
        <ele>758.14</ele>
        <time>2021-01-31T10:54:00Z</time>
      </trkpt>
      <trkpt lat="45.20151" lon="3.439">
        <ele>756.69</ele>
        <time>2021-01-31T10:54:16Z</time>
      </trkpt>
      <trkpt lat="45.20154" lon="3.43899">
        <ele>757.18</ele>
        <time>2021-01-31T10:54:31Z</time>
      </trkpt>
      <trkpt lat="45.20166" lon="3.43894">
        <ele>755.25</ele>
        <time>2021-01-31T10:54:47Z</time>
      </trkpt>
      <trkpt lat="45.20182" lon="3.43886">
        <ele>753.33</ele>
        <time>2021-01-31T10:55:02Z</time>
      </trkpt>
      <trkpt lat="45.20205" lon="3.43873">
        <ele>753.81</ele>
        <time>2021-01-31T10:55:18Z</time>
      </trkpt>
      <trkpt lat="45.20223" lon="3.43859">
        <ele>753.81</ele>
        <time>2021-01-31T10:55:34Z</time>
      </trkpt>
      <trkpt lat="45.20239" lon="3.43846">
        <ele>753.33</ele>
        <time>2021-01-31T10:55:48Z</time>
      </trkpt>
      <trkpt lat="45.20249" lon="3.43837">
        <ele>751.89</ele>
        <time>2021-01-31T10:55:57Z</time>
      </trkpt>
      <trkpt lat="45.2025" lon="3.43836">
        <ele>751.41</ele>
        <time>2021-01-31T10:55:58Z</time>
      </trkpt>
      <trkpt lat="45.20262" lon="3.43827">
        <ele>750.93</ele>
        <time>2021-01-31T10:56:07Z</time>
      </trkpt>
      <trkpt lat="45.20276" lon="3.43819">
        <ele>750.45</ele>
        <time>2021-01-31T10:56:18Z</time>
      </trkpt>
      <trkpt lat="45.20288" lon="3.43812">
        <ele>749.49</ele>
        <time>2021-01-31T10:56:28Z</time>
      </trkpt>
      <trkpt lat="45.20299" lon="3.43808">
        <ele>749.49</ele>
        <time>2021-01-31T10:56:36Z</time>
      </trkpt>
      <trkpt lat="45.20312" lon="3.438">
        <ele>749</ele>
        <time>2021-01-31T10:56:45Z</time>
      </trkpt>
      <trkpt lat="45.20329" lon="3.4379">
        <ele>748.04</ele>
        <time>2021-01-31T10:56:56Z</time>
      </trkpt>
      <trkpt lat="45.20341" lon="3.4378">
        <ele>747.56</ele>
        <time>2021-01-31T10:57:07Z</time>
      </trkpt>
      <trkpt lat="45.20352" lon="3.4377">
        <ele>748.52</ele>
        <time>2021-01-31T10:57:17Z</time>
      </trkpt>
      <trkpt lat="45.20362" lon="3.43762">
        <ele>749.49</ele>
        <time>2021-01-31T10:57:27Z</time>
      </trkpt>
      <trkpt lat="45.20373" lon="3.43751">
        <ele>749.97</ele>
        <time>2021-01-31T10:57:34Z</time>
      </trkpt>
      <trkpt lat="45.20389" lon="3.43744">
        <ele>751.41</ele>
        <time>2021-01-31T10:57:47Z</time>
      </trkpt>
      <trkpt lat="45.20401" lon="3.43737">
        <ele>752.37</ele>
        <time>2021-01-31T10:57:56Z</time>
      </trkpt>
      <trkpt lat="45.20412" lon="3.4373">
        <ele>753.33</ele>
        <time>2021-01-31T10:58:05Z</time>
      </trkpt>
      <trkpt lat="45.20429" lon="3.43714">
        <ele>751.41</ele>
        <time>2021-01-31T10:58:15Z</time>
      </trkpt>
      <trkpt lat="45.20431" lon="3.43713">
        <ele>750.93</ele>
        <time>2021-01-31T10:58:17Z</time>
      </trkpt>
      <trkpt lat="45.20436" lon="3.43709">
        <ele>749</ele>
        <time>2021-01-31T10:58:24Z</time>
      </trkpt>
      <trkpt lat="45.2044" lon="3.43703">
        <ele>749</ele>
        <time>2021-01-31T10:58:28Z</time>
      </trkpt>
      <trkpt lat="45.20443" lon="3.43701">
        <ele>749</ele>
        <time>2021-01-31T10:58:32Z</time>
      </trkpt>
      <trkpt lat="45.20447" lon="3.43695">
        <ele>747.56</ele>
        <time>2021-01-31T10:58:41Z</time>
      </trkpt>
      <trkpt lat="45.20453" lon="3.4369">
        <ele>747.56</ele>
        <time>2021-01-31T10:58:48Z</time>
      </trkpt>
      <trkpt lat="45.20461" lon="3.43682">
        <ele>748.04</ele>
        <time>2021-01-31T10:58:56Z</time>
      </trkpt>
      <trkpt lat="45.20463" lon="3.43679">
        <ele>748.04</ele>
        <time>2021-01-31T10:59:06Z</time>
      </trkpt>
      <trkpt lat="45.20462" lon="3.43678">
        <ele>747.56</ele>
        <time>2021-01-31T10:59:20Z</time>
      </trkpt>
      <trkpt lat="45.20461" lon="3.4368">
        <ele>747.08</ele>
        <time>2021-01-31T10:59:32Z</time>
      </trkpt>
      <trkpt lat="45.20461" lon="3.4368">
        <ele>747.08</ele>
        <time>2021-01-31T10:59:37Z</time>
      </trkpt>
      <trkpt lat="45.20461" lon="3.43676">
        <ele>747.08</ele>
        <time>2021-01-31T10:59:45Z</time>
      </trkpt>
      <trkpt lat="45.20456" lon="3.43664">
        <ele>744.68</ele>
        <time>2021-01-31T10:59:54Z</time>
      </trkpt>
      <trkpt lat="45.20442" lon="3.43652">
        <ele>743.24</ele>
        <time>2021-01-31T11:00:06Z</time>
      </trkpt>
      <trkpt lat="45.20437" lon="3.43647">
        <ele>743.72</ele>
        <time>2021-01-31T11:00:16Z</time>
      </trkpt>
      <trkpt lat="45.20435" lon="3.43645">
        <ele>744.2</ele>
        <time>2021-01-31T11:00:25Z</time>
      </trkpt>
      <trkpt lat="45.20426" lon="3.43638">
        <ele>744.68</ele>
        <time>2021-01-31T11:00:39Z</time>
      </trkpt>
      <trkpt lat="45.2042" lon="3.43633">
        <ele>744.2</ele>
        <time>2021-01-31T11:00:53Z</time>
      </trkpt>
      <trkpt lat="45.20418" lon="3.43632">
        <ele>743.72</ele>
        <time>2021-01-31T11:01:10Z</time>
      </trkpt>
      <trkpt lat="45.20418" lon="3.43633">
        <ele>743.72</ele>
        <time>2021-01-31T11:01:38Z</time>
      </trkpt>
      <trkpt lat="45.20416" lon="3.43634">
        <ele>742.76</ele>
        <time>2021-01-31T11:02:03Z</time>
      </trkpt>
      <trkpt lat="45.20416" lon="3.43638">
        <ele>742.28</ele>
        <time>2021-01-31T11:02:23Z</time>
      </trkpt>
      <trkpt lat="45.20415" lon="3.43637">
        <ele>741.79</ele>
        <time>2021-01-31T11:02:42Z</time>
      </trkpt>
      <trkpt lat="45.20416" lon="3.43637">
        <ele>740.83</ele>
        <time>2021-01-31T11:03:04Z</time>
      </trkpt>
      <trkpt lat="45.20415" lon="3.43638">
        <ele>740.83</ele>
        <time>2021-01-31T11:03:33Z</time>
      </trkpt>
      <trkpt lat="45.20415" lon="3.43638">
        <ele>740.83</ele>
        <time>2021-01-31T11:03:58Z</time>
      </trkpt>
      <trkpt lat="45.20414" lon="3.43637">
        <ele>740.83</ele>
        <time>2021-01-31T11:04:20Z</time>
      </trkpt>
      <trkpt lat="45.20411" lon="3.43634">
        <ele>738.91</ele>
        <time>2021-01-31T11:04:35Z</time>
      </trkpt>
      <trkpt lat="45.20401" lon="3.43625">
        <ele>735.55</ele>
        <time>2021-01-31T11:04:48Z</time>
      </trkpt>
      <trkpt lat="45.20401" lon="3.43624">
        <ele>735.55</ele>
        <time>2021-01-31T11:04:49Z</time>
      </trkpt>
      <trkpt lat="45.20395" lon="3.4362">
        <ele>733.62</ele>
        <time>2021-01-31T11:04:57Z</time>
      </trkpt>
      <trkpt lat="45.20387" lon="3.43614">
        <ele>732.18</ele>
        <time>2021-01-31T11:05:09Z</time>
      </trkpt>
      <trkpt lat="45.20382" lon="3.43612">
        <ele>731.22</ele>
        <time>2021-01-31T11:05:18Z</time>
      </trkpt>
      <trkpt lat="45.2036" lon="3.43608">
        <ele>726.89</ele>
        <time>2021-01-31T11:05:34Z</time>
      </trkpt>
      <trkpt lat="45.20354" lon="3.43605">
        <ele>724.97</ele>
        <time>2021-01-31T11:05:38Z</time>
      </trkpt>
      <trkpt lat="45.20344" lon="3.43593">
        <ele>720.16</ele>
        <time>2021-01-31T11:05:53Z</time>
      </trkpt>
      <trkpt lat="45.20351" lon="3.43585">
        <ele>718.24</ele>
        <time>2021-01-31T11:05:59Z</time>
      </trkpt>
      <trkpt lat="45.20358" lon="3.43572">
        <ele>713.92</ele>
        <time>2021-01-31T11:06:17Z</time>
      </trkpt>
      <trkpt lat="45.20361" lon="3.43573">
        <ele>713.92</ele>
        <time>2021-01-31T11:06:42Z</time>
      </trkpt>
      <trkpt lat="45.20368" lon="3.43561">
        <ele>715.84</ele>
        <time>2021-01-31T11:07:00Z</time>
      </trkpt>
      <trkpt lat="45.20368" lon="3.43562">
        <ele>714.88</ele>
        <time>2021-01-31T11:07:28Z</time>
      </trkpt>
      <trkpt lat="45.20368" lon="3.43564">
        <ele>713.44</ele>
        <time>2021-01-31T11:07:53Z</time>
      </trkpt>
      <trkpt lat="45.20373" lon="3.4356">
        <ele>712.95</ele>
        <time>2021-01-31T11:08:17Z</time>
      </trkpt>
      <trkpt lat="45.2039" lon="3.4354">
        <ele>709.59</ele>
        <time>2021-01-31T11:08:36Z</time>
      </trkpt>
      <trkpt lat="45.20408" lon="3.43523">
        <ele>708.15</ele>
        <time>2021-01-31T11:08:54Z</time>
      </trkpt>
      <trkpt lat="45.2041" lon="3.43521">
        <ele>707.67</ele>
        <time>2021-01-31T11:08:58Z</time>
      </trkpt>
      <trkpt lat="45.20427" lon="3.43515">
        <ele>704.78</ele>
        <time>2021-01-31T11:09:13Z</time>
      </trkpt>
      <trkpt lat="45.20432" lon="3.43513">
        <ele>703.82</ele>
        <time>2021-01-31T11:09:18Z</time>
      </trkpt>
      <trkpt lat="45.20452" lon="3.43503">
        <ele>703.82</ele>
        <time>2021-01-31T11:09:32Z</time>
      </trkpt>
      <trkpt lat="45.20454" lon="3.43502">
        <ele>704.3</ele>
        <time>2021-01-31T11:09:34Z</time>
      </trkpt>
      <trkpt lat="45.20465" lon="3.43491">
        <ele>706.23</ele>
        <time>2021-01-31T11:09:48Z</time>
      </trkpt>
      <trkpt lat="45.20467" lon="3.4349">
        <ele>706.23</ele>
        <time>2021-01-31T11:09:50Z</time>
      </trkpt>
      <trkpt lat="45.20478" lon="3.43484">
        <ele>706.23</ele>
        <time>2021-01-31T11:10:02Z</time>
      </trkpt>
      <trkpt lat="45.2048" lon="3.43483">
        <ele>705.75</ele>
        <time>2021-01-31T11:10:05Z</time>
      </trkpt>
      <trkpt lat="45.20488" lon="3.43482">
        <ele>705.26</ele>
        <time>2021-01-31T11:10:16Z</time>
      </trkpt>
      <trkpt lat="45.20506" lon="3.43476">
        <ele>704.3</ele>
        <time>2021-01-31T11:10:30Z</time>
      </trkpt>
      <trkpt lat="45.20515" lon="3.43473">
        <ele>704.3</ele>
        <time>2021-01-31T11:10:39Z</time>
      </trkpt>
      <trkpt lat="45.20526" lon="3.4347">
        <ele>703.34</ele>
        <time>2021-01-31T11:10:48Z</time>
      </trkpt>
      <trkpt lat="45.20542" lon="3.43466">
        <ele>701.42</ele>
        <time>2021-01-31T11:11:03Z</time>
      </trkpt>
      <trkpt lat="45.20561" lon="3.4347">
        <ele>699.98</ele>
        <time>2021-01-31T11:11:19Z</time>
      </trkpt>
      <trkpt lat="45.20572" lon="3.43472">
        <ele>698.53</ele>
        <time>2021-01-31T11:11:35Z</time>
      </trkpt>
      <trkpt lat="45.20585" lon="3.43469">
        <ele>697.57</ele>
        <time>2021-01-31T11:11:47Z</time>
      </trkpt>
      <trkpt lat="45.20589" lon="3.43468">
        <ele>697.09</ele>
        <time>2021-01-31T11:11:51Z</time>
      </trkpt>
      <trkpt lat="45.20601" lon="3.43465">
        <ele>695.65</ele>
        <time>2021-01-31T11:12:01Z</time>
      </trkpt>
      <trkpt lat="45.20604" lon="3.43464">
        <ele>695.17</ele>
        <time>2021-01-31T11:12:03Z</time>
      </trkpt>
      <trkpt lat="45.20613" lon="3.4346">
        <ele>693.73</ele>
        <time>2021-01-31T11:12:11Z</time>
      </trkpt>
      <trkpt lat="45.20634" lon="3.43452">
        <ele>690.36</ele>
        <time>2021-01-31T11:12:26Z</time>
      </trkpt>
      <trkpt lat="45.20651" lon="3.43442">
        <ele>686.04</ele>
        <time>2021-01-31T11:12:40Z</time>
      </trkpt>
      <trkpt lat="45.2068" lon="3.43434">
        <ele>679.31</ele>
        <time>2021-01-31T11:12:59Z</time>
      </trkpt>
      <trkpt lat="45.20709" lon="3.43417">
        <ele>674.02</ele>
        <time>2021-01-31T11:13:20Z</time>
      </trkpt>
      <trkpt lat="45.20723" lon="3.43398">
        <ele>669.22</ele>
        <time>2021-01-31T11:13:37Z</time>
      </trkpt>
      <trkpt lat="45.20737" lon="3.4338">
        <ele>664.41</ele>
        <time>2021-01-31T11:13:52Z</time>
      </trkpt>
      <trkpt lat="45.20753" lon="3.43363">
        <ele>658.16</ele>
        <time>2021-01-31T11:14:07Z</time>
      </trkpt>
      <trkpt lat="45.20758" lon="3.43353">
        <ele>657.2</ele>
        <time>2021-01-31T11:14:25Z</time>
      </trkpt>
      <trkpt lat="45.20758" lon="3.43348">
        <ele>656.72</ele>
        <time>2021-01-31T11:14:28Z</time>
      </trkpt>
      <trkpt lat="45.20751" lon="3.43329">
        <ele>652.87</ele>
        <time>2021-01-31T11:14:43Z</time>
      </trkpt>
      <trkpt lat="45.20756" lon="3.433">
        <ele>649.03</ele>
        <time>2021-01-31T11:14:59Z</time>
      </trkpt>
      <trkpt lat="45.20756" lon="3.43299">
        <ele>648.55</ele>
        <time>2021-01-31T11:15:00Z</time>
      </trkpt>
      <trkpt lat="45.20772" lon="3.43273">
        <ele>646.62</ele>
        <time>2021-01-31T11:15:18Z</time>
      </trkpt>
      <trkpt lat="45.20791" lon="3.43249">
        <ele>646.62</ele>
        <time>2021-01-31T11:15:35Z</time>
      </trkpt>
      <trkpt lat="45.20795" lon="3.43238">
        <ele>646.62</ele>
        <time>2021-01-31T11:15:43Z</time>
      </trkpt>
      <trkpt lat="45.20804" lon="3.43225">
        <ele>646.14</ele>
        <time>2021-01-31T11:15:52Z</time>
      </trkpt>
      <trkpt lat="45.20833" lon="3.43194">
        <ele>647.59</ele>
        <time>2021-01-31T11:16:11Z</time>
      </trkpt>
      <trkpt lat="45.20837" lon="3.43189">
        <ele>648.55</ele>
        <time>2021-01-31T11:16:29Z</time>
      </trkpt>
      <trkpt lat="45.20842" lon="3.43194">
        <ele>648.07</ele>
        <time>2021-01-31T11:16:47Z</time>
      </trkpt>
      <trkpt lat="45.20843" lon="3.43194">
        <ele>647.59</ele>
        <time>2021-01-31T11:17:11Z</time>
      </trkpt>
      <trkpt lat="45.20854" lon="3.43225">
        <ele>646.14</ele>
        <time>2021-01-31T11:17:29Z</time>
      </trkpt>
      <trkpt lat="45.20872" lon="3.4324">
        <ele>645.66</ele>
        <time>2021-01-31T11:17:53Z</time>
      </trkpt>
      <trkpt lat="45.20893" lon="3.43226">
        <ele>643.74</ele>
        <time>2021-01-31T11:18:09Z</time>
      </trkpt>
      <trkpt lat="45.20905" lon="3.43213">
        <ele>641.34</ele>
        <time>2021-01-31T11:18:24Z</time>
      </trkpt>
      <trkpt lat="45.20926" lon="3.43198">
        <ele>640.86</ele>
        <time>2021-01-31T11:18:43Z</time>
      </trkpt>
      <trkpt lat="45.20949" lon="3.43188">
        <ele>642.78</ele>
        <time>2021-01-31T11:18:58Z</time>
      </trkpt>
      <trkpt lat="45.20969" lon="3.43183">
        <ele>642.3</ele>
        <time>2021-01-31T11:19:16Z</time>
      </trkpt>
      <trkpt lat="45.20971" lon="3.43175">
        <ele>642.78</ele>
        <time>2021-01-31T11:19:25Z</time>
      </trkpt>
      <trkpt lat="45.20989" lon="3.43163">
        <ele>643.26</ele>
        <time>2021-01-31T11:19:39Z</time>
      </trkpt>
      <trkpt lat="45.20998" lon="3.43148">
        <ele>642.78</ele>
        <time>2021-01-31T11:19:47Z</time>
      </trkpt>
      <trkpt lat="45.21004" lon="3.43143">
        <ele>642.78</ele>
        <time>2021-01-31T11:19:54Z</time>
      </trkpt>
      <trkpt lat="45.21015" lon="3.43134">
        <ele>643.74</ele>
        <time>2021-01-31T11:20:09Z</time>
      </trkpt>
      <trkpt lat="45.21016" lon="3.43132">
        <ele>643.74</ele>
        <time>2021-01-31T11:20:21Z</time>
      </trkpt>
      <trkpt lat="45.2103" lon="3.43129">
        <ele>644.7</ele>
        <time>2021-01-31T11:20:35Z</time>
      </trkpt>
      <trkpt lat="45.21039" lon="3.43127">
        <ele>646.62</ele>
        <time>2021-01-31T11:20:41Z</time>
      </trkpt>
      <trkpt lat="45.21056" lon="3.43123">
        <ele>649.99</ele>
        <time>2021-01-31T11:20:54Z</time>
      </trkpt>
      <trkpt lat="45.21074" lon="3.43123">
        <ele>650.95</ele>
        <time>2021-01-31T11:21:07Z</time>
      </trkpt>
      <trkpt lat="45.2109" lon="3.43122">
        <ele>651.91</ele>
        <time>2021-01-31T11:21:20Z</time>
      </trkpt>
      <trkpt lat="45.21103" lon="3.4312">
        <ele>652.87</ele>
        <time>2021-01-31T11:21:30Z</time>
      </trkpt>
      <trkpt lat="45.21117" lon="3.43125">
        <ele>657.2</ele>
        <time>2021-01-31T11:21:44Z</time>
      </trkpt>
      <trkpt lat="45.21129" lon="3.43144">
        <ele>659.6</ele>
        <time>2021-01-31T11:22:02Z</time>
      </trkpt>
      <trkpt lat="45.2113" lon="3.43151">
        <ele>660.08</ele>
        <time>2021-01-31T11:22:07Z</time>
      </trkpt>
      <trkpt lat="45.21138" lon="3.4318">
        <ele>659.12</ele>
        <time>2021-01-31T11:22:24Z</time>
      </trkpt>
      <trkpt lat="45.21139" lon="3.43183">
        <ele>658.64</ele>
        <time>2021-01-31T11:22:26Z</time>
      </trkpt>
      <trkpt lat="45.21142" lon="3.43191">
        <ele>656.72</ele>
        <time>2021-01-31T11:22:32Z</time>
      </trkpt>
      <trkpt lat="45.21145" lon="3.43203">
        <ele>655.28</ele>
        <time>2021-01-31T11:22:41Z</time>
      </trkpt>
      <trkpt lat="45.21149" lon="3.4321">
        <ele>654.31</ele>
        <time>2021-01-31T11:22:47Z</time>
      </trkpt>
      <trkpt lat="45.21152" lon="3.4321">
        <ele>653.35</ele>
        <time>2021-01-31T11:22:50Z</time>
      </trkpt>
      <trkpt lat="45.21154" lon="3.43209">
        <ele>652.87</ele>
        <time>2021-01-31T11:23:08Z</time>
      </trkpt>
      <trkpt lat="45.21154" lon="3.43209">
        <ele>652.39</ele>
        <time>2021-01-31T11:23:11Z</time>
      </trkpt>
      <trkpt lat="45.21159" lon="3.43244">
        <ele>650.95</ele>
        <time>2021-01-31T11:23:27Z</time>
      </trkpt>
      <trkpt lat="45.21164" lon="3.43273">
        <ele>650.47</ele>
        <time>2021-01-31T11:23:40Z</time>
      </trkpt>
      <trkpt lat="45.2117" lon="3.43286">
        <ele>649.51</ele>
        <time>2021-01-31T11:23:48Z</time>
      </trkpt>
      <trkpt lat="45.21176" lon="3.4329">
        <ele>648.55</ele>
        <time>2021-01-31T11:23:52Z</time>
      </trkpt>
      <trkpt lat="45.21197" lon="3.43297">
        <ele>643.74</ele>
        <time>2021-01-31T11:24:07Z</time>
      </trkpt>
      <trkpt lat="45.21215" lon="3.433">
        <ele>639.89</ele>
        <time>2021-01-31T11:24:21Z</time>
      </trkpt>
      <trkpt lat="45.21234" lon="3.433">
        <ele>636.05</ele>
        <time>2021-01-31T11:24:36Z</time>
      </trkpt>
      <trkpt lat="45.21253" lon="3.4331">
        <ele>632.68</ele>
        <time>2021-01-31T11:24:50Z</time>
      </trkpt>
      <trkpt lat="45.21265" lon="3.43329">
        <ele>630.28</ele>
        <time>2021-01-31T11:25:04Z</time>
      </trkpt>
      <trkpt lat="45.21272" lon="3.43347">
        <ele>628.84</ele>
        <time>2021-01-31T11:25:15Z</time>
      </trkpt>
      <trkpt lat="45.21289" lon="3.43359">
        <ele>628.84</ele>
        <time>2021-01-31T11:25:29Z</time>
      </trkpt>
      <trkpt lat="45.21305" lon="3.43361">
        <ele>628.84</ele>
        <time>2021-01-31T11:25:43Z</time>
      </trkpt>
      <trkpt lat="45.21313" lon="3.43364">
        <ele>627.88</ele>
        <time>2021-01-31T11:25:53Z</time>
      </trkpt>
      <trkpt lat="45.21332" lon="3.43376">
        <ele>628.36</ele>
        <time>2021-01-31T11:26:09Z</time>
      </trkpt>
      <trkpt lat="45.21352" lon="3.43387">
        <ele>629.8</ele>
        <time>2021-01-31T11:26:27Z</time>
      </trkpt>
      <trkpt lat="45.21359" lon="3.43389">
        <ele>629.8</ele>
        <time>2021-01-31T11:26:41Z</time>
      </trkpt>
      <trkpt lat="45.21373" lon="3.43404">
        <ele>628.84</ele>
        <time>2021-01-31T11:26:54Z</time>
      </trkpt>
      <trkpt lat="45.21382" lon="3.43421">
        <ele>625.96</ele>
        <time>2021-01-31T11:27:06Z</time>
      </trkpt>
      <trkpt lat="45.21383" lon="3.43419">
        <ele>624.51</ele>
        <time>2021-01-31T11:27:19Z</time>
      </trkpt>
      <trkpt lat="45.21388" lon="3.43455">
        <ele>618.26</ele>
        <time>2021-01-31T11:27:37Z</time>
      </trkpt>
      <trkpt lat="45.21382" lon="3.43489">
        <ele>615.38</ele>
        <time>2021-01-31T11:27:52Z</time>
      </trkpt>
      <trkpt lat="45.21379" lon="3.43496">
        <ele>614.42</ele>
        <time>2021-01-31T11:27:57Z</time>
      </trkpt>
      <trkpt lat="45.21385" lon="3.43535">
        <ele>611.54</ele>
        <time>2021-01-31T11:28:16Z</time>
      </trkpt>
      <trkpt lat="45.2139" lon="3.43565">
        <ele>612.02</ele>
        <time>2021-01-31T11:28:31Z</time>
      </trkpt>
      <trkpt lat="45.21393" lon="3.43588">
        <ele>612.5</ele>
        <time>2021-01-31T11:28:44Z</time>
      </trkpt>
      <trkpt lat="45.21402" lon="3.43622">
        <ele>612.98</ele>
        <time>2021-01-31T11:29:04Z</time>
      </trkpt>
      <trkpt lat="45.21411" lon="3.43651">
        <ele>613.94</ele>
        <time>2021-01-31T11:29:20Z</time>
      </trkpt>
      <trkpt lat="45.21417" lon="3.43679">
        <ele>614.9</ele>
        <time>2021-01-31T11:29:36Z</time>
      </trkpt>
      <trkpt lat="45.21419" lon="3.43687">
        <ele>615.38</ele>
        <time>2021-01-31T11:29:41Z</time>
      </trkpt>
      <trkpt lat="45.21419" lon="3.43722">
        <ele>617.78</ele>
        <time>2021-01-31T11:29:58Z</time>
      </trkpt>
      <trkpt lat="45.21415" lon="3.43747">
        <ele>616.82</ele>
        <time>2021-01-31T11:30:13Z</time>
      </trkpt>
      <trkpt lat="45.21411" lon="3.43775">
        <ele>617.78</ele>
        <time>2021-01-31T11:30:29Z</time>
      </trkpt>
      <trkpt lat="45.21405" lon="3.43796">
        <ele>618.75</ele>
        <time>2021-01-31T11:30:42Z</time>
      </trkpt>
      <trkpt lat="45.21399" lon="3.43816">
        <ele>623.55</ele>
        <time>2021-01-31T11:30:54Z</time>
      </trkpt>
      <trkpt lat="45.21394" lon="3.43837">
        <ele>624.51</ele>
        <time>2021-01-31T11:31:05Z</time>
      </trkpt>
      <trkpt lat="45.21394" lon="3.43846">
        <ele>624.51</ele>
        <time>2021-01-31T11:31:10Z</time>
      </trkpt>
      <trkpt lat="45.21392" lon="3.43848">
        <ele>624.51</ele>
        <time>2021-01-31T11:31:12Z</time>
      </trkpt>
      <trkpt lat="45.21388" lon="3.43868">
        <ele>624.03</ele>
        <time>2021-01-31T11:31:22Z</time>
      </trkpt>
      <trkpt lat="45.21384" lon="3.43884">
        <ele>624.03</ele>
        <time>2021-01-31T11:31:31Z</time>
      </trkpt>
      <trkpt lat="45.21378" lon="3.43902">
        <ele>624.03</ele>
        <time>2021-01-31T11:31:40Z</time>
      </trkpt>
      <trkpt lat="45.21373" lon="3.43921">
        <ele>622.59</ele>
        <time>2021-01-31T11:31:51Z</time>
      </trkpt>
      <trkpt lat="45.21371" lon="3.4394">
        <ele>623.55</ele>
        <time>2021-01-31T11:32:02Z</time>
      </trkpt>
      <trkpt lat="45.2137" lon="3.43949">
        <ele>624.51</ele>
        <time>2021-01-31T11:32:05Z</time>
      </trkpt>
      <trkpt lat="45.21368" lon="3.43959">
        <ele>624.51</ele>
        <time>2021-01-31T11:32:11Z</time>
      </trkpt>
      <trkpt lat="45.21366" lon="3.43968">
        <ele>622.59</ele>
        <time>2021-01-31T11:32:16Z</time>
      </trkpt>
      <trkpt lat="45.21362" lon="3.4398">
        <ele>621.15</ele>
        <time>2021-01-31T11:32:23Z</time>
      </trkpt>
      <trkpt lat="45.2136" lon="3.43986">
        <ele>620.19</ele>
        <time>2021-01-31T11:32:32Z</time>
      </trkpt>
      <trkpt lat="45.2136" lon="3.43989">
        <ele>620.19</ele>
        <time>2021-01-31T11:32:50Z</time>
      </trkpt>
      <trkpt lat="45.21361" lon="3.4399">
        <ele>621.15</ele>
        <time>2021-01-31T11:33:06Z</time>
      </trkpt>
      <trkpt lat="45.21362" lon="3.43989">
        <ele>622.11</ele>
        <time>2021-01-31T11:33:24Z</time>
      </trkpt>
      <trkpt lat="45.2136" lon="3.43988">
        <ele>622.11</ele>
        <time>2021-01-31T11:33:47Z</time>
      </trkpt>
      <trkpt lat="45.2136" lon="3.43988">
        <ele>622.11</ele>
        <time>2021-01-31T11:34:08Z</time>
      </trkpt>
      <trkpt lat="45.21359" lon="3.43988">
        <ele>622.11</ele>
        <time>2021-01-31T11:34:30Z</time>
      </trkpt>
      <trkpt lat="45.21359" lon="3.43987">
        <ele>622.59</ele>
        <time>2021-01-31T11:34:55Z</time>
      </trkpt>
      <trkpt lat="45.21358" lon="3.43987">
        <ele>620.19</ele>
        <time>2021-01-31T11:35:13Z</time>
      </trkpt>
      <trkpt lat="45.2136" lon="3.43988">
        <ele>619.71</ele>
        <time>2021-01-31T11:35:39Z</time>
      </trkpt>
      <trkpt lat="45.2136" lon="3.43988">
        <ele>618.75</ele>
        <time>2021-01-31T11:36:11Z</time>
      </trkpt>
      <trkpt lat="45.21359" lon="3.43988">
        <ele>621.15</ele>
        <time>2021-01-31T11:36:41Z</time>
      </trkpt>
      <trkpt lat="45.21359" lon="3.43989">
        <ele>622.11</ele>
        <time>2021-01-31T11:37:09Z</time>
      </trkpt>
      <trkpt lat="45.21361" lon="3.43992">
        <ele>622.11</ele>
        <time>2021-01-31T11:37:39Z</time>
      </trkpt>
      <trkpt lat="45.21363" lon="3.4399">
        <ele>628.36</ele>
        <time>2021-01-31T11:38:21Z</time>
      </trkpt>
      <trkpt lat="45.21363" lon="3.43989">
        <ele>629.32</ele>
        <time>2021-01-31T11:38:51Z</time>
      </trkpt>
      <trkpt lat="45.21364" lon="3.43989">
        <ele>629.32</ele>
        <time>2021-01-31T11:39:18Z</time>
      </trkpt>
      <trkpt lat="45.21364" lon="3.4399">
        <ele>629.8</ele>
        <time>2021-01-31T11:39:42Z</time>
      </trkpt>
      <trkpt lat="45.21364" lon="3.43992">
        <ele>628.84</ele>
        <time>2021-01-31T11:40:18Z</time>
      </trkpt>
      <trkpt lat="45.21364" lon="3.43993">
        <ele>629.32</ele>
        <time>2021-01-31T11:40:42Z</time>
      </trkpt>
      <trkpt lat="45.21364" lon="3.43993">
        <ele>629.8</ele>
        <time>2021-01-31T11:41:05Z</time>
      </trkpt>
      <trkpt lat="45.21365" lon="3.43995">
        <ele>629.8</ele>
        <time>2021-01-31T11:41:28Z</time>
      </trkpt>
      <trkpt lat="45.21365" lon="3.43997">
        <ele>629.8</ele>
        <time>2021-01-31T11:41:48Z</time>
      </trkpt>
      <trkpt lat="45.21365" lon="3.43998">
        <ele>629.8</ele>
        <time>2021-01-31T11:42:10Z</time>
      </trkpt>
      <trkpt lat="45.21364" lon="3.43997">
        <ele>630.76</ele>
        <time>2021-01-31T11:42:33Z</time>
      </trkpt>
      <trkpt lat="45.2136" lon="3.43994">
        <ele>633.17</ele>
        <time>2021-01-31T11:43:03Z</time>
      </trkpt>
      <trkpt lat="45.2136" lon="3.43993">
        <ele>632.68</ele>
        <time>2021-01-31T11:43:33Z</time>
      </trkpt>
      <trkpt lat="45.21362" lon="3.43994">
        <ele>631.24</ele>
        <time>2021-01-31T11:44:10Z</time>
      </trkpt>
      <trkpt lat="45.21363" lon="3.43993">
        <ele>629.32</ele>
        <time>2021-01-31T11:44:36Z</time>
      </trkpt>
      <trkpt lat="45.21364" lon="3.43992">
        <ele>629.8</ele>
        <time>2021-01-31T11:45:02Z</time>
      </trkpt>
      <trkpt lat="45.21363" lon="3.43993">
        <ele>627.88</ele>
        <time>2021-01-31T11:45:32Z</time>
      </trkpt>
      <trkpt lat="45.21362" lon="3.43992">
        <ele>626.92</ele>
        <time>2021-01-31T11:46:02Z</time>
      </trkpt>
      <trkpt lat="45.21361" lon="3.43989">
        <ele>628.84</ele>
        <time>2021-01-31T11:46:34Z</time>
      </trkpt>
      <trkpt lat="45.21361" lon="3.4399">
        <ele>629.32</ele>
        <time>2021-01-31T11:47:08Z</time>
      </trkpt>
      <trkpt lat="45.2136" lon="3.4399">
        <ele>627.88</ele>
        <time>2021-01-31T11:47:44Z</time>
      </trkpt>
      <trkpt lat="45.21359" lon="3.4399">
        <ele>628.36</ele>
        <time>2021-01-31T11:47:59Z</time>
      </trkpt>
      <trkpt lat="45.21358" lon="3.43987">
        <ele>630.76</ele>
        <time>2021-01-31T11:48:35Z</time>
      </trkpt>
      <trkpt lat="45.21357" lon="3.43985">
        <ele>631.72</ele>
        <time>2021-01-31T11:49:02Z</time>
      </trkpt>
      <trkpt lat="45.21357" lon="3.43987">
        <ele>631.24</ele>
        <time>2021-01-31T11:49:17Z</time>
      </trkpt>
      <trkpt lat="45.21357" lon="3.43988">
        <ele>628.84</ele>
        <time>2021-01-31T11:49:30Z</time>
      </trkpt>
      <trkpt lat="45.21358" lon="3.43987">
        <ele>627.88</ele>
        <time>2021-01-31T11:49:42Z</time>
      </trkpt>
      <trkpt lat="45.21356" lon="3.4399">
        <ele>626.44</ele>
        <time>2021-01-31T11:49:53Z</time>
      </trkpt>
      <trkpt lat="45.21351" lon="3.4401">
        <ele>624.03</ele>
        <time>2021-01-31T11:50:04Z</time>
      </trkpt>
      <trkpt lat="45.2135" lon="3.44043">
        <ele>619.71</ele>
        <time>2021-01-31T11:50:20Z</time>
      </trkpt>
      <trkpt lat="45.2135" lon="3.44047">
        <ele>619.23</ele>
        <time>2021-01-31T11:50:22Z</time>
      </trkpt>
      <trkpt lat="45.21349" lon="3.44057">
        <ele>619.23</ele>
        <time>2021-01-31T11:50:28Z</time>
      </trkpt>
      <trkpt lat="45.21348" lon="3.4408">
        <ele>618.26</ele>
        <time>2021-01-31T11:50:41Z</time>
      </trkpt>
      <trkpt lat="45.21347" lon="3.44089">
        <ele>618.26</ele>
        <time>2021-01-31T11:50:45Z</time>
      </trkpt>
      <trkpt lat="45.21343" lon="3.44114">
        <ele>616.82</ele>
        <time>2021-01-31T11:51:01Z</time>
      </trkpt>
      <trkpt lat="45.21336" lon="3.44129">
        <ele>614.9</ele>
        <time>2021-01-31T11:51:16Z</time>
      </trkpt>
      <trkpt lat="45.21329" lon="3.44155">
        <ele>612.5</ele>
        <time>2021-01-31T11:51:28Z</time>
      </trkpt>
      <trkpt lat="45.21324" lon="3.44179">
        <ele>605.77</ele>
        <time>2021-01-31T11:51:45Z</time>
      </trkpt>
      <trkpt lat="45.21328" lon="3.44203">
        <ele>596.15</ele>
        <time>2021-01-31T11:52:02Z</time>
      </trkpt>
      <trkpt lat="45.21326" lon="3.44234">
        <ele>586.54</ele>
        <time>2021-01-31T11:52:22Z</time>
      </trkpt>
      <trkpt lat="45.21316" lon="3.44243">
        <ele>588.46</ele>
        <time>2021-01-31T11:52:42Z</time>
      </trkpt>
      <trkpt lat="45.21317" lon="3.44243">
        <ele>588.46</ele>
        <time>2021-01-31T11:53:04Z</time>
      </trkpt>
      <trkpt lat="45.21309" lon="3.44248">
        <ele>585.58</ele>
        <time>2021-01-31T11:53:26Z</time>
      </trkpt>
      <trkpt lat="45.21296" lon="3.44257">
        <ele>582.22</ele>
        <time>2021-01-31T11:53:48Z</time>
      </trkpt>
      <trkpt lat="45.2129" lon="3.44263">
        <ele>581.25</ele>
        <time>2021-01-31T11:54:01Z</time>
      </trkpt>
      <trkpt lat="45.21271" lon="3.44275">
        <ele>579.33</ele>
        <time>2021-01-31T11:54:20Z</time>
      </trkpt>
      <trkpt lat="45.21265" lon="3.44282">
        <ele>579.33</ele>
        <time>2021-01-31T11:54:44Z</time>
      </trkpt>
      <trkpt lat="45.21249" lon="3.44306">
        <ele>576.93</ele>
        <time>2021-01-31T11:55:02Z</time>
      </trkpt>
      <trkpt lat="45.21228" lon="3.44342">
        <ele>578.37</ele>
        <time>2021-01-31T11:55:22Z</time>
      </trkpt>
      <trkpt lat="45.21214" lon="3.44381">
        <ele>581.73</ele>
        <time>2021-01-31T11:55:44Z</time>
      </trkpt>
      <trkpt lat="45.21208" lon="3.44402">
        <ele>581.25</ele>
        <time>2021-01-31T11:56:08Z</time>
      </trkpt>
      <trkpt lat="45.21197" lon="3.44442">
        <ele>577.89</ele>
        <time>2021-01-31T11:56:29Z</time>
      </trkpt>
      <trkpt lat="45.21176" lon="3.44482">
        <ele>576.45</ele>
        <time>2021-01-31T11:56:49Z</time>
      </trkpt>
      <trkpt lat="45.21155" lon="3.44524">
        <ele>586.06</ele>
        <time>2021-01-31T11:57:10Z</time>
      </trkpt>
      <trkpt lat="45.2114" lon="3.44557">
        <ele>594.23</ele>
        <time>2021-01-31T11:57:28Z</time>
      </trkpt>
      <trkpt lat="45.21129" lon="3.44595">
        <ele>609.13</ele>
        <time>2021-01-31T11:57:51Z</time>
      </trkpt>
      <trkpt lat="45.21127" lon="3.44604">
        <ele>608.17</ele>
        <time>2021-01-31T11:57:57Z</time>
      </trkpt>
      <trkpt lat="45.2112" lon="3.44633">
        <ele>610.09</ele>
        <time>2021-01-31T11:58:17Z</time>
      </trkpt>
      <trkpt lat="45.21111" lon="3.44653">
        <ele>602.88</ele>
        <time>2021-01-31T11:58:38Z</time>
      </trkpt>
      <trkpt lat="45.21095" lon="3.44689">
        <ele>596.64</ele>
        <time>2021-01-31T11:58:57Z</time>
      </trkpt>
      <trkpt lat="45.21086" lon="3.4472">
        <ele>596.15</ele>
        <time>2021-01-31T11:59:13Z</time>
      </trkpt>
      <trkpt lat="45.21081" lon="3.44754">
        <ele>596.15</ele>
        <time>2021-01-31T11:59:33Z</time>
      </trkpt>
      <trkpt lat="45.21074" lon="3.44795">
        <ele>598.08</ele>
        <time>2021-01-31T11:59:53Z</time>
      </trkpt>
      <trkpt lat="45.21071" lon="3.44831">
        <ele>605.29</ele>
        <time>2021-01-31T12:00:09Z</time>
      </trkpt>
      <trkpt lat="45.21072" lon="3.44845">
        <ele>607.21</ele>
        <time>2021-01-31T12:00:26Z</time>
      </trkpt>
      <trkpt lat="45.21071" lon="3.44857">
        <ele>605.29</ele>
        <time>2021-01-31T12:00:47Z</time>
      </trkpt>
      <trkpt lat="45.21068" lon="3.4489">
        <ele>602.88</ele>
        <time>2021-01-31T12:01:04Z</time>
      </trkpt>
      <trkpt lat="45.21068" lon="3.4492">
        <ele>600</ele>
        <time>2021-01-31T12:01:19Z</time>
      </trkpt>
      <trkpt lat="45.21058" lon="3.44956">
        <ele>596.15</ele>
        <time>2021-01-31T12:01:39Z</time>
      </trkpt>
      <trkpt lat="45.21044" lon="3.44983">
        <ele>599.04</ele>
        <time>2021-01-31T12:01:58Z</time>
      </trkpt>
      <trkpt lat="45.21033" lon="3.44999">
        <ele>603.36</ele>
        <time>2021-01-31T12:02:08Z</time>
      </trkpt>
      <trkpt lat="45.21016" lon="3.45016">
        <ele>607.21</ele>
        <time>2021-01-31T12:02:21Z</time>
      </trkpt>
      <trkpt lat="45.21016" lon="3.45019">
        <ele>609.61</ele>
        <time>2021-01-31T12:02:23Z</time>
      </trkpt>
      <trkpt lat="45.21008" lon="3.45039">
        <ele>619.23</ele>
        <time>2021-01-31T12:02:32Z</time>
      </trkpt>
      <trkpt lat="45.20999" lon="3.45055">
        <ele>624.99</ele>
        <time>2021-01-31T12:02:42Z</time>
      </trkpt>
      <trkpt lat="45.20998" lon="3.45056">
        <ele>625.47</ele>
        <time>2021-01-31T12:02:43Z</time>
      </trkpt>
      <trkpt lat="45.20989" lon="3.45075">
        <ele>628.84</ele>
        <time>2021-01-31T12:02:55Z</time>
      </trkpt>
      <trkpt lat="45.20987" lon="3.45082">
        <ele>630.28</ele>
        <time>2021-01-31T12:03:05Z</time>
      </trkpt>
      <trkpt lat="45.20976" lon="3.45112">
        <ele>632.2</ele>
        <time>2021-01-31T12:03:23Z</time>
      </trkpt>
      <trkpt lat="45.20963" lon="3.45141">
        <ele>635.57</ele>
        <time>2021-01-31T12:03:39Z</time>
      </trkpt>
      <trkpt lat="45.20951" lon="3.45161">
        <ele>635.57</ele>
        <time>2021-01-31T12:03:56Z</time>
      </trkpt>
      <trkpt lat="45.20935" lon="3.4519">
        <ele>632.68</ele>
        <time>2021-01-31T12:04:16Z</time>
      </trkpt>
      <trkpt lat="45.2092" lon="3.45228">
        <ele>631.72</ele>
        <time>2021-01-31T12:04:37Z</time>
      </trkpt>
      <trkpt lat="45.20919" lon="3.45253">
        <ele>624.51</ele>
        <time>2021-01-31T12:04:55Z</time>
      </trkpt>
      <trkpt lat="45.20926" lon="3.45264">
        <ele>621.15</ele>
        <time>2021-01-31T12:05:12Z</time>
      </trkpt>
      <trkpt lat="45.20935" lon="3.45266">
        <ele>622.59</ele>
        <time>2021-01-31T12:05:28Z</time>
      </trkpt>
      <trkpt lat="45.20938" lon="3.45267">
        <ele>623.55</ele>
        <time>2021-01-31T12:05:44Z</time>
      </trkpt>
      <trkpt lat="45.20944" lon="3.45264">
        <ele>624.03</ele>
        <time>2021-01-31T12:05:54Z</time>
      </trkpt>
      <trkpt lat="45.20965" lon="3.45246">
        <ele>622.59</ele>
        <time>2021-01-31T12:06:14Z</time>
      </trkpt>
      <trkpt lat="45.20979" lon="3.4523">
        <ele>621.15</ele>
        <time>2021-01-31T12:06:32Z</time>
      </trkpt>
      <trkpt lat="45.20988" lon="3.4522">
        <ele>621.15</ele>
        <time>2021-01-31T12:06:41Z</time>
      </trkpt>
      <trkpt lat="45.20993" lon="3.45214">
        <ele>621.15</ele>
        <time>2021-01-31T12:06:57Z</time>
      </trkpt>
      <trkpt lat="45.20998" lon="3.4521">
        <ele>622.59</ele>
        <time>2021-01-31T12:07:11Z</time>
      </trkpt>
      <trkpt lat="45.21016" lon="3.45201">
        <ele>621.15</ele>
        <time>2021-01-31T12:07:30Z</time>
      </trkpt>
      <trkpt lat="45.21016" lon="3.45198">
        <ele>620.67</ele>
        <time>2021-01-31T12:07:50Z</time>
      </trkpt>
      <trkpt lat="45.21015" lon="3.45204">
        <ele>615.86</ele>
        <time>2021-01-31T12:08:09Z</time>
      </trkpt>
      <trkpt lat="45.21007" lon="3.45231">
        <ele>604.33</ele>
        <time>2021-01-31T12:08:29Z</time>
      </trkpt>
      <trkpt lat="45.20998" lon="3.45241">
        <ele>602.88</ele>
        <time>2021-01-31T12:08:46Z</time>
      </trkpt>
      <trkpt lat="45.20989" lon="3.45266">
        <ele>599.04</ele>
        <time>2021-01-31T12:09:04Z</time>
      </trkpt>
      <trkpt lat="45.2099" lon="3.45266">
        <ele>599.04</ele>
        <time>2021-01-31T12:09:17Z</time>
      </trkpt>
      <trkpt lat="45.20997" lon="3.45286">
        <ele>593.75</ele>
        <time>2021-01-31T12:09:37Z</time>
      </trkpt>
      <trkpt lat="45.20987" lon="3.45295">
        <ele>593.27</ele>
        <time>2021-01-31T12:09:57Z</time>
      </trkpt>
      <trkpt lat="45.20983" lon="3.45301">
        <ele>592.79</ele>
        <time>2021-01-31T12:10:19Z</time>
      </trkpt>
      <trkpt lat="45.20983" lon="3.45319">
        <ele>589.43</ele>
        <time>2021-01-31T12:10:41Z</time>
      </trkpt>
      <trkpt lat="45.20969" lon="3.45363">
        <ele>590.87</ele>
        <time>2021-01-31T12:10:58Z</time>
      </trkpt>
      <trkpt lat="45.20969" lon="3.45374">
        <ele>589.91</ele>
        <time>2021-01-31T12:11:16Z</time>
      </trkpt>
      <trkpt lat="45.20968" lon="3.45379">
        <ele>589.43</ele>
        <time>2021-01-31T12:11:19Z</time>
      </trkpt>
      <trkpt lat="45.20953" lon="3.45407">
        <ele>587.02</ele>
        <time>2021-01-31T12:11:31Z</time>
      </trkpt>
      <trkpt lat="45.20939" lon="3.45417">
        <ele>587.98</ele>
        <time>2021-01-31T12:11:51Z</time>
      </trkpt>
      <trkpt lat="45.20916" lon="3.45422">
        <ele>586.54</ele>
        <time>2021-01-31T12:12:08Z</time>
      </trkpt>
      <trkpt lat="45.20894" lon="3.45434">
        <ele>585.58</ele>
        <time>2021-01-31T12:12:24Z</time>
      </trkpt>
      <trkpt lat="45.20868" lon="3.45456">
        <ele>591.83</ele>
        <time>2021-01-31T12:12:41Z</time>
      </trkpt>
      <trkpt lat="45.20857" lon="3.45476">
        <ele>611.54</ele>
        <time>2021-01-31T12:13:03Z</time>
      </trkpt>
      <trkpt lat="45.2086" lon="3.45476">
        <ele>616.82</ele>
        <time>2021-01-31T12:13:24Z</time>
      </trkpt>
      <trkpt lat="45.20859" lon="3.4548">
        <ele>616.82</ele>
        <time>2021-01-31T12:13:28Z</time>
      </trkpt>
      <trkpt lat="45.20843" lon="3.45502">
        <ele>617.78</ele>
        <time>2021-01-31T12:13:45Z</time>
      </trkpt>
      <trkpt lat="45.20826" lon="3.45525">
        <ele>619.23</ele>
        <time>2021-01-31T12:14:02Z</time>
      </trkpt>
      <trkpt lat="45.20807" lon="3.45544">
        <ele>620.19</ele>
        <time>2021-01-31T12:14:19Z</time>
      </trkpt>
      <trkpt lat="45.20788" lon="3.45566">
        <ele>623.55</ele>
        <time>2021-01-31T12:14:38Z</time>
      </trkpt>
      <trkpt lat="45.2077" lon="3.4559">
        <ele>627.88</ele>
        <time>2021-01-31T12:14:56Z</time>
      </trkpt>
      <trkpt lat="45.20757" lon="3.45614">
        <ele>628.84</ele>
        <time>2021-01-31T12:15:13Z</time>
      </trkpt>
      <trkpt lat="45.20749" lon="3.45632">
        <ele>630.28</ele>
        <time>2021-01-31T12:15:29Z</time>
      </trkpt>
      <trkpt lat="45.20742" lon="3.45652">
        <ele>632.2</ele>
        <time>2021-01-31T12:15:46Z</time>
      </trkpt>
      <trkpt lat="45.20742" lon="3.45659">
        <ele>637.01</ele>
        <time>2021-01-31T12:16:05Z</time>
      </trkpt>
      <trkpt lat="45.20741" lon="3.45666">
        <ele>645.66</ele>
        <time>2021-01-31T12:16:24Z</time>
      </trkpt>
      <trkpt lat="45.20742" lon="3.45666">
        <ele>646.62</ele>
        <time>2021-01-31T12:16:33Z</time>
      </trkpt>
      <trkpt lat="45.20738" lon="3.4567">
        <ele>647.1</ele>
        <time>2021-01-31T12:16:37Z</time>
      </trkpt>
      <trkpt lat="45.2073" lon="3.45677">
        <ele>649.51</ele>
        <time>2021-01-31T12:16:51Z</time>
      </trkpt>
      <trkpt lat="45.2072" lon="3.45688">
        <ele>650.47</ele>
        <time>2021-01-31T12:17:05Z</time>
      </trkpt>
      <trkpt lat="45.20701" lon="3.45702">
        <ele>653.83</ele>
        <time>2021-01-31T12:17:21Z</time>
      </trkpt>
      <trkpt lat="45.20684" lon="3.45709">
        <ele>658.16</ele>
        <time>2021-01-31T12:17:35Z</time>
      </trkpt>
      <trkpt lat="45.20672" lon="3.4571">
        <ele>662.49</ele>
        <time>2021-01-31T12:17:51Z</time>
      </trkpt>
      <trkpt lat="45.20671" lon="3.4571">
        <ele>663.45</ele>
        <time>2021-01-31T12:18:12Z</time>
      </trkpt>
      <trkpt lat="45.20672" lon="3.45709">
        <ele>664.89</ele>
        <time>2021-01-31T12:18:35Z</time>
      </trkpt>
      <trkpt lat="45.20669" lon="3.4571">
        <ele>665.37</ele>
        <time>2021-01-31T12:18:52Z</time>
      </trkpt>
      <trkpt lat="45.20647" lon="3.45714">
        <ele>667.29</ele>
        <time>2021-01-31T12:19:08Z</time>
      </trkpt>
      <trkpt lat="45.20629" lon="3.45718">
        <ele>670.66</ele>
        <time>2021-01-31T12:19:24Z</time>
      </trkpt>
      <trkpt lat="45.20608" lon="3.45724">
        <ele>673.06</ele>
        <time>2021-01-31T12:19:43Z</time>
      </trkpt>
      <trkpt lat="45.20587" lon="3.45729">
        <ele>674.98</ele>
        <time>2021-01-31T12:19:58Z</time>
      </trkpt>
      <trkpt lat="45.20584" lon="3.45728">
        <ele>675.46</ele>
        <time>2021-01-31T12:20:01Z</time>
      </trkpt>
      <trkpt lat="45.20577" lon="3.4573">
        <ele>676.91</ele>
        <time>2021-01-31T12:20:07Z</time>
      </trkpt>
      <trkpt lat="45.20553" lon="3.45735">
        <ele>677.39</ele>
        <time>2021-01-31T12:20:25Z</time>
      </trkpt>
      <trkpt lat="45.20531" lon="3.45746">
        <ele>678.35</ele>
        <time>2021-01-31T12:20:43Z</time>
      </trkpt>
      <trkpt lat="45.20507" lon="3.45751">
        <ele>678.83</ele>
        <time>2021-01-31T12:21:00Z</time>
      </trkpt>
      <trkpt lat="45.20496" lon="3.4575">
        <ele>679.79</ele>
        <time>2021-01-31T12:21:08Z</time>
      </trkpt>
      <trkpt lat="45.20475" lon="3.45742">
        <ele>680.75</ele>
        <time>2021-01-31T12:21:25Z</time>
      </trkpt>
      <trkpt lat="45.20462" lon="3.45737">
        <ele>682.19</ele>
        <time>2021-01-31T12:21:38Z</time>
      </trkpt>
      <trkpt lat="45.20455" lon="3.45731">
        <ele>682.67</ele>
        <time>2021-01-31T12:21:51Z</time>
      </trkpt>
      <trkpt lat="45.20454" lon="3.45731">
        <ele>681.71</ele>
        <time>2021-01-31T12:22:07Z</time>
      </trkpt>
      <trkpt lat="45.20454" lon="3.45731">
        <ele>681.71</ele>
        <time>2021-01-31T12:22:17Z</time>
      </trkpt>
      <trkpt lat="45.2045" lon="3.45732">
        <ele>681.71</ele>
        <time>2021-01-31T12:22:21Z</time>
      </trkpt>
      <trkpt lat="45.20437" lon="3.45736">
        <ele>680.27</ele>
        <time>2021-01-31T12:22:31Z</time>
      </trkpt>
      <trkpt lat="45.20415" lon="3.45743">
        <ele>679.79</ele>
        <time>2021-01-31T12:22:46Z</time>
      </trkpt>
      <trkpt lat="45.20401" lon="3.45761">
        <ele>679.79</ele>
        <time>2021-01-31T12:23:00Z</time>
      </trkpt>
      <trkpt lat="45.20388" lon="3.45775">
        <ele>681.23</ele>
        <time>2021-01-31T12:23:14Z</time>
      </trkpt>
      <trkpt lat="45.20377" lon="3.45787">
        <ele>680.27</ele>
        <time>2021-01-31T12:23:27Z</time>
      </trkpt>
      <trkpt lat="45.2037" lon="3.45794">
        <ele>678.83</ele>
        <time>2021-01-31T12:23:40Z</time>
      </trkpt>
      <trkpt lat="45.20366" lon="3.458">
        <ele>678.83</ele>
        <time>2021-01-31T12:23:46Z</time>
      </trkpt>
      <trkpt lat="45.20352" lon="3.45812">
        <ele>678.83</ele>
        <time>2021-01-31T12:24:00Z</time>
      </trkpt>
      <trkpt lat="45.20341" lon="3.45823">
        <ele>679.79</ele>
        <time>2021-01-31T12:24:12Z</time>
      </trkpt>
      <trkpt lat="45.20332" lon="3.45831">
        <ele>680.75</ele>
        <time>2021-01-31T12:24:25Z</time>
      </trkpt>
      <trkpt lat="45.20333" lon="3.4584">
        <ele>681.71</ele>
        <time>2021-01-31T12:24:39Z</time>
      </trkpt>
      <trkpt lat="45.20334" lon="3.45847">
        <ele>681.71</ele>
        <time>2021-01-31T12:24:44Z</time>
      </trkpt>
      <trkpt lat="45.20336" lon="3.45856">
        <ele>681.71</ele>
        <time>2021-01-31T12:24:50Z</time>
      </trkpt>
      <trkpt lat="45.20345" lon="3.45869">
        <ele>683.15</ele>
        <time>2021-01-31T12:25:03Z</time>
      </trkpt>
      <trkpt lat="45.20351" lon="3.45871">
        <ele>683.63</ele>
        <time>2021-01-31T12:25:08Z</time>
      </trkpt>
      <trkpt lat="45.20367" lon="3.45883">
        <ele>685.56</ele>
        <time>2021-01-31T12:25:26Z</time>
      </trkpt>
      <trkpt lat="45.20374" lon="3.45898">
        <ele>689.88</ele>
        <time>2021-01-31T12:25:42Z</time>
      </trkpt>
      <trkpt lat="45.20374" lon="3.45902">
        <ele>692.29</ele>
        <time>2021-01-31T12:25:44Z</time>
      </trkpt>
      <trkpt lat="45.20376" lon="3.45913">
        <ele>697.09</ele>
        <time>2021-01-31T12:25:53Z</time>
      </trkpt>
      <trkpt lat="45.20379" lon="3.45924">
        <ele>699.5</ele>
        <time>2021-01-31T12:26:01Z</time>
      </trkpt>
      <trkpt lat="45.20382" lon="3.45928">
        <ele>700.46</ele>
        <time>2021-01-31T12:26:15Z</time>
      </trkpt>
      <trkpt lat="45.20382" lon="3.45928">
        <ele>700.94</ele>
        <time>2021-01-31T12:26:22Z</time>
      </trkpt>
      <trkpt lat="45.20388" lon="3.45928">
        <ele>701.9</ele>
        <time>2021-01-31T12:26:28Z</time>
      </trkpt>
      <trkpt lat="45.20396" lon="3.45923">
        <ele>702.38</ele>
        <time>2021-01-31T12:26:33Z</time>
      </trkpt>
      <trkpt lat="45.20398" lon="3.45923">
        <ele>702.86</ele>
        <time>2021-01-31T12:26:35Z</time>
      </trkpt>
      <trkpt lat="45.20408" lon="3.45919">
        <ele>703.34</ele>
        <time>2021-01-31T12:26:43Z</time>
      </trkpt>
      <trkpt lat="45.20413" lon="3.45921">
        <ele>704.3</ele>
        <time>2021-01-31T12:26:52Z</time>
      </trkpt>
      <trkpt lat="45.20412" lon="3.45924">
        <ele>704.3</ele>
        <time>2021-01-31T12:26:57Z</time>
      </trkpt>
      <trkpt lat="45.20419" lon="3.45936">
        <ele>705.75</ele>
        <time>2021-01-31T12:27:12Z</time>
      </trkpt>
      <trkpt lat="45.2042" lon="3.45938">
        <ele>705.75</ele>
        <time>2021-01-31T12:27:31Z</time>
      </trkpt>
      <trkpt lat="45.20438" lon="3.45956">
        <ele>705.26</ele>
        <time>2021-01-31T12:27:49Z</time>
      </trkpt>
      <trkpt lat="45.20453" lon="3.45982">
        <ele>705.75</ele>
        <time>2021-01-31T12:28:11Z</time>
      </trkpt>
      <trkpt lat="45.20462" lon="3.45999">
        <ele>707.67</ele>
        <time>2021-01-31T12:28:29Z</time>
      </trkpt>
      <trkpt lat="45.20469" lon="3.46013">
        <ele>709.59</ele>
        <time>2021-01-31T12:28:44Z</time>
      </trkpt>
      <trkpt lat="45.20482" lon="3.46041">
        <ele>712.95</ele>
        <time>2021-01-31T12:29:03Z</time>
      </trkpt>
      <trkpt lat="45.20492" lon="3.46058">
        <ele>715.36</ele>
        <time>2021-01-31T12:29:19Z</time>
      </trkpt>
      <trkpt lat="45.205" lon="3.46074">
        <ele>716.32</ele>
        <time>2021-01-31T12:29:36Z</time>
      </trkpt>
      <trkpt lat="45.20511" lon="3.46101">
        <ele>716.8</ele>
        <time>2021-01-31T12:29:53Z</time>
      </trkpt>
      <trkpt lat="45.20523" lon="3.46124">
        <ele>717.76</ele>
        <time>2021-01-31T12:30:11Z</time>
      </trkpt>
      <trkpt lat="45.20525" lon="3.46131">
        <ele>719.68</ele>
        <time>2021-01-31T12:30:29Z</time>
      </trkpt>
      <trkpt lat="45.20532" lon="3.46146">
        <ele>720.65</ele>
        <time>2021-01-31T12:30:44Z</time>
      </trkpt>
      <trkpt lat="45.20547" lon="3.46168">
        <ele>722.57</ele>
        <time>2021-01-31T12:31:00Z</time>
      </trkpt>
      <trkpt lat="45.20554" lon="3.46178">
        <ele>724.01</ele>
        <time>2021-01-31T12:31:08Z</time>
      </trkpt>
      <trkpt lat="45.20567" lon="3.46202">
        <ele>726.89</ele>
        <time>2021-01-31T12:31:25Z</time>
      </trkpt>
      <trkpt lat="45.20573" lon="3.46234">
        <ele>730.74</ele>
        <time>2021-01-31T12:31:41Z</time>
      </trkpt>
      <trkpt lat="45.20579" lon="3.46267">
        <ele>733.14</ele>
        <time>2021-01-31T12:31:59Z</time>
      </trkpt>
      <trkpt lat="45.20583" lon="3.46282">
        <ele>734.58</ele>
        <time>2021-01-31T12:32:14Z</time>
      </trkpt>
      <trkpt lat="45.20583" lon="3.46286">
        <ele>735.07</ele>
        <time>2021-01-31T12:32:19Z</time>
      </trkpt>
      <trkpt lat="45.20577" lon="3.46299">
        <ele>730.26</ele>
        <time>2021-01-31T12:32:38Z</time>
      </trkpt>
      <trkpt lat="45.20569" lon="3.46311">
        <ele>728.34</ele>
        <time>2021-01-31T12:32:55Z</time>
      </trkpt>
      <trkpt lat="45.2055" lon="3.46339">
        <ele>727.37</ele>
        <time>2021-01-31T12:33:15Z</time>
      </trkpt>
      <trkpt lat="45.20535" lon="3.46363">
        <ele>724.97</ele>
        <time>2021-01-31T12:33:32Z</time>
      </trkpt>
      <trkpt lat="45.20523" lon="3.46388">
        <ele>723.53</ele>
        <time>2021-01-31T12:33:49Z</time>
      </trkpt>
      <trkpt lat="45.2052" lon="3.4642">
        <ele>721.13</ele>
        <time>2021-01-31T12:34:07Z</time>
      </trkpt>
      <trkpt lat="45.20522" lon="3.46445">
        <ele>719.68</ele>
        <time>2021-01-31T12:34:22Z</time>
      </trkpt>
      <trkpt lat="45.20524" lon="3.46448">
        <ele>719.68</ele>
        <time>2021-01-31T12:34:26Z</time>
      </trkpt>
      <trkpt lat="45.20539" lon="3.46461">
        <ele>718.24</ele>
        <time>2021-01-31T12:34:41Z</time>
      </trkpt>
      <trkpt lat="45.20549" lon="3.46472">
        <ele>716.32</ele>
        <time>2021-01-31T12:34:56Z</time>
      </trkpt>
      <trkpt lat="45.20553" lon="3.46478">
        <ele>714.88</ele>
        <time>2021-01-31T12:35:13Z</time>
      </trkpt>
      <trkpt lat="45.20569" lon="3.46495">
        <ele>712.95</ele>
        <time>2021-01-31T12:35:29Z</time>
      </trkpt>
      <trkpt lat="45.20575" lon="3.46501">
        <ele>712.47</ele>
        <time>2021-01-31T12:35:35Z</time>
      </trkpt>
      <trkpt lat="45.20591" lon="3.46516">
        <ele>711.51</ele>
        <time>2021-01-31T12:35:52Z</time>
      </trkpt>
      <trkpt lat="45.20607" lon="3.46535">
        <ele>710.07</ele>
        <time>2021-01-31T12:36:11Z</time>
      </trkpt>
      <trkpt lat="45.20609" lon="3.46537">
        <ele>710.55</ele>
        <time>2021-01-31T12:36:13Z</time>
      </trkpt>
      <trkpt lat="45.20609" lon="3.46557">
        <ele>711.51</ele>
        <time>2021-01-31T12:36:28Z</time>
      </trkpt>
      <trkpt lat="45.20604" lon="3.46563">
        <ele>712.47</ele>
        <time>2021-01-31T12:36:43Z</time>
      </trkpt>
      <trkpt lat="45.20585" lon="3.46585">
        <ele>712.47</ele>
        <time>2021-01-31T12:37:00Z</time>
      </trkpt>
      <trkpt lat="45.20582" lon="3.46593">
        <ele>712.47</ele>
        <time>2021-01-31T12:37:05Z</time>
      </trkpt>
      <trkpt lat="45.20572" lon="3.46616">
        <ele>711.99</ele>
        <time>2021-01-31T12:37:22Z</time>
      </trkpt>
      <trkpt lat="45.2056" lon="3.46641">
        <ele>712.47</ele>
        <time>2021-01-31T12:37:39Z</time>
      </trkpt>
      <trkpt lat="45.20551" lon="3.46667">
        <ele>711.99</ele>
        <time>2021-01-31T12:37:56Z</time>
      </trkpt>
      <trkpt lat="45.2054" lon="3.467">
        <ele>711.99</ele>
        <time>2021-01-31T12:38:17Z</time>
      </trkpt>
      <trkpt lat="45.2053" lon="3.46731">
        <ele>712.47</ele>
        <time>2021-01-31T12:38:36Z</time>
      </trkpt>
      <trkpt lat="45.20517" lon="3.46755">
        <ele>713.44</ele>
        <time>2021-01-31T12:38:53Z</time>
      </trkpt>
      <trkpt lat="45.20494" lon="3.46778">
        <ele>712.95</ele>
        <time>2021-01-31T12:39:16Z</time>
      </trkpt>
      <trkpt lat="45.20484" lon="3.46783">
        <ele>712.95</ele>
        <time>2021-01-31T12:39:32Z</time>
      </trkpt>
      <trkpt lat="45.20468" lon="3.46788">
        <ele>712.95</ele>
        <time>2021-01-31T12:39:51Z</time>
      </trkpt>
      <trkpt lat="45.20452" lon="3.46795">
        <ele>711.99</ele>
        <time>2021-01-31T12:40:10Z</time>
      </trkpt>
      <trkpt lat="45.20441" lon="3.46802">
        <ele>710.55</ele>
        <time>2021-01-31T12:40:27Z</time>
      </trkpt>
      <trkpt lat="45.20432" lon="3.46827">
        <ele>709.59</ele>
        <time>2021-01-31T12:40:49Z</time>
      </trkpt>
      <trkpt lat="45.20423" lon="3.46854">
        <ele>712.47</ele>
        <time>2021-01-31T12:40:56Z</time>
      </trkpt>
      <trkpt lat="45.20417" lon="3.46884">
        <ele>714.88</ele>
        <time>2021-01-31T12:41:10Z</time>
      </trkpt>
      <trkpt lat="45.20412" lon="3.46895">
        <ele>714.88</ele>
        <time>2021-01-31T12:41:24Z</time>
      </trkpt>
      <trkpt lat="45.20412" lon="3.46901">
        <ele>715.84</ele>
        <time>2021-01-31T12:41:42Z</time>
      </trkpt>
      <trkpt lat="45.20412" lon="3.46904">
        <ele>717.76</ele>
        <time>2021-01-31T12:42:06Z</time>
      </trkpt>
      <trkpt lat="45.20402" lon="3.46927">
        <ele>711.03</ele>
        <time>2021-01-31T12:42:24Z</time>
      </trkpt>
      <trkpt lat="45.204" lon="3.46931">
        <ele>709.59</ele>
        <time>2021-01-31T12:42:27Z</time>
      </trkpt>
      <trkpt lat="45.20383" lon="3.46949">
        <ele>704.78</ele>
        <time>2021-01-31T12:42:41Z</time>
      </trkpt>
      <trkpt lat="45.20366" lon="3.46958">
        <ele>699.98</ele>
        <time>2021-01-31T12:42:56Z</time>
      </trkpt>
      <trkpt lat="45.20351" lon="3.46963">
        <ele>696.13</ele>
        <time>2021-01-31T12:43:10Z</time>
      </trkpt>
      <trkpt lat="45.20358" lon="3.46971">
        <ele>695.17</ele>
        <time>2021-01-31T12:43:21Z</time>
      </trkpt>
      <trkpt lat="45.20377" lon="3.46979">
        <ele>693.73</ele>
        <time>2021-01-31T12:43:38Z</time>
      </trkpt>
      <trkpt lat="45.20395" lon="3.46987">
        <ele>690.36</ele>
        <time>2021-01-31T12:43:53Z</time>
      </trkpt>
      <trkpt lat="45.20403" lon="3.46991">
        <ele>688.92</ele>
        <time>2021-01-31T12:44:00Z</time>
      </trkpt>
      <trkpt lat="45.20423" lon="3.46998">
        <ele>683.63</ele>
        <time>2021-01-31T12:44:18Z</time>
      </trkpt>
      <trkpt lat="45.20441" lon="3.46997">
        <ele>679.79</ele>
        <time>2021-01-31T12:44:34Z</time>
      </trkpt>
      <trkpt lat="45.20458" lon="3.47001">
        <ele>677.39</ele>
        <time>2021-01-31T12:44:48Z</time>
      </trkpt>
      <trkpt lat="45.20464" lon="3.47004">
        <ele>676.91</ele>
        <time>2021-01-31T12:44:54Z</time>
      </trkpt>
      <trkpt lat="45.2048" lon="3.47025">
        <ele>675.94</ele>
        <time>2021-01-31T12:45:12Z</time>
      </trkpt>
      <trkpt lat="45.20483" lon="3.47029">
        <ele>675.94</ele>
        <time>2021-01-31T12:45:14Z</time>
      </trkpt>
      <trkpt lat="45.20495" lon="3.47057">
        <ele>676.91</ele>
        <time>2021-01-31T12:45:31Z</time>
      </trkpt>
      <trkpt lat="45.20501" lon="3.47071">
        <ele>676.42</ele>
        <time>2021-01-31T12:45:47Z</time>
      </trkpt>
      <trkpt lat="45.20506" lon="3.47087">
        <ele>672.58</ele>
        <time>2021-01-31T12:46:04Z</time>
      </trkpt>
      <trkpt lat="45.20506" lon="3.4709">
        <ele>671.62</ele>
        <time>2021-01-31T12:46:06Z</time>
      </trkpt>
      <trkpt lat="45.20513" lon="3.47116">
        <ele>664.89</ele>
        <time>2021-01-31T12:46:24Z</time>
      </trkpt>
      <trkpt lat="45.20518" lon="3.47143">
        <ele>658.64</ele>
        <time>2021-01-31T12:46:44Z</time>
      </trkpt>
      <trkpt lat="45.20522" lon="3.47165">
        <ele>657.2</ele>
        <time>2021-01-31T12:47:00Z</time>
      </trkpt>
      <trkpt lat="45.20521" lon="3.47174">
        <ele>657.2</ele>
        <time>2021-01-31T12:47:06Z</time>
      </trkpt>
      <trkpt lat="45.2051" lon="3.47197">
        <ele>658.64</ele>
        <time>2021-01-31T12:47:22Z</time>
      </trkpt>
      <trkpt lat="45.20495" lon="3.47206">
        <ele>657.2</ele>
        <time>2021-01-31T12:47:40Z</time>
      </trkpt>
      <trkpt lat="45.20488" lon="3.47208">
        <ele>657.2</ele>
        <time>2021-01-31T12:47:47Z</time>
      </trkpt>
      <trkpt lat="45.20468" lon="3.47206">
        <ele>656.72</ele>
        <time>2021-01-31T12:48:03Z</time>
      </trkpt>
      <trkpt lat="45.20453" lon="3.47202">
        <ele>655.28</ele>
        <time>2021-01-31T12:48:17Z</time>
      </trkpt>
      <trkpt lat="45.20448" lon="3.47199">
        <ele>655.28</ele>
        <time>2021-01-31T12:48:21Z</time>
      </trkpt>
      <trkpt lat="45.20439" lon="3.47197">
        <ele>655.28</ele>
        <time>2021-01-31T12:48:29Z</time>
      </trkpt>
      <trkpt lat="45.20438" lon="3.47205">
        <ele>658.64</ele>
        <time>2021-01-31T12:48:44Z</time>
      </trkpt>
      <trkpt lat="45.20436" lon="3.47209">
        <ele>657.68</ele>
        <time>2021-01-31T12:49:03Z</time>
      </trkpt>
      <trkpt lat="45.20436" lon="3.47212">
        <ele>658.16</ele>
        <time>2021-01-31T12:49:28Z</time>
      </trkpt>
      <trkpt lat="45.20436" lon="3.47213">
        <ele>659.12</ele>
        <time>2021-01-31T12:49:33Z</time>
      </trkpt>
      <trkpt lat="45.2044" lon="3.47226">
        <ele>663.93</ele>
        <time>2021-01-31T12:49:47Z</time>
      </trkpt>
      <trkpt lat="45.20453" lon="3.47241">
        <ele>660.08</ele>
        <time>2021-01-31T12:50:06Z</time>
      </trkpt>
      <trkpt lat="45.20461" lon="3.47263">
        <ele>656.72</ele>
        <time>2021-01-31T12:50:25Z</time>
      </trkpt>
      <trkpt lat="45.20469" lon="3.473">
        <ele>651.43</ele>
        <time>2021-01-31T12:50:44Z</time>
      </trkpt>
      <trkpt lat="45.20469" lon="3.47329">
        <ele>651.43</ele>
        <time>2021-01-31T12:50:54Z</time>
      </trkpt>
      <trkpt lat="45.20461" lon="3.4735">
        <ele>648.55</ele>
        <time>2021-01-31T12:51:10Z</time>
      </trkpt>
      <trkpt lat="45.20454" lon="3.47357">
        <ele>647.1</ele>
        <time>2021-01-31T12:51:18Z</time>
      </trkpt>
      <trkpt lat="45.20431" lon="3.47377">
        <ele>641.34</ele>
        <time>2021-01-31T12:51:37Z</time>
      </trkpt>
      <trkpt lat="45.20419" lon="3.4739">
        <ele>637.97</ele>
        <time>2021-01-31T12:51:50Z</time>
      </trkpt>
      <trkpt lat="45.20409" lon="3.47401">
        <ele>636.53</ele>
        <time>2021-01-31T12:52:06Z</time>
      </trkpt>
      <trkpt lat="45.20395" lon="3.47412">
        <ele>636.05</ele>
        <time>2021-01-31T12:52:22Z</time>
      </trkpt>
      <trkpt lat="45.20373" lon="3.47425">
        <ele>630.76</ele>
        <time>2021-01-31T12:52:39Z</time>
      </trkpt>
      <trkpt lat="45.20352" lon="3.47439">
        <ele>627.88</ele>
        <time>2021-01-31T12:52:56Z</time>
      </trkpt>
      <trkpt lat="45.20329" lon="3.47446">
        <ele>629.32</ele>
        <time>2021-01-31T12:53:14Z</time>
      </trkpt>
      <trkpt lat="45.20312" lon="3.47456">
        <ele>627.88</ele>
        <time>2021-01-31T12:53:29Z</time>
      </trkpt>
      <trkpt lat="45.20302" lon="3.47465">
        <ele>626.44</ele>
        <time>2021-01-31T12:53:47Z</time>
      </trkpt>
      <trkpt lat="45.20301" lon="3.47466">
        <ele>626.44</ele>
        <time>2021-01-31T12:53:50Z</time>
      </trkpt>
      <trkpt lat="45.2029" lon="3.4749">
        <ele>624.03</ele>
        <time>2021-01-31T12:54:06Z</time>
      </trkpt>
      <trkpt lat="45.2029" lon="3.47499">
        <ele>623.55</ele>
        <time>2021-01-31T12:54:12Z</time>
      </trkpt>
      <trkpt lat="45.20296" lon="3.47522">
        <ele>620.67</ele>
        <time>2021-01-31T12:54:27Z</time>
      </trkpt>
      <trkpt lat="45.20297" lon="3.47523">
        <ele>620.67</ele>
        <time>2021-01-31T12:54:28Z</time>
      </trkpt>
      <trkpt lat="45.20307" lon="3.47543">
        <ele>616.82</ele>
        <time>2021-01-31T12:54:44Z</time>
      </trkpt>
      <trkpt lat="45.2031" lon="3.47551">
        <ele>614.9</ele>
        <time>2021-01-31T12:54:56Z</time>
      </trkpt>
      <trkpt lat="45.20318" lon="3.47563">
        <ele>613.94</ele>
        <time>2021-01-31T12:55:09Z</time>
      </trkpt>
      <trkpt lat="45.20329" lon="3.47575">
        <ele>610.09</ele>
        <time>2021-01-31T12:55:24Z</time>
      </trkpt>
      <trkpt lat="45.2034" lon="3.47597">
        <ele>605.77</ele>
        <time>2021-01-31T12:55:39Z</time>
      </trkpt>
      <trkpt lat="45.20346" lon="3.47617">
        <ele>603.36</ele>
        <time>2021-01-31T12:55:54Z</time>
      </trkpt>
      <trkpt lat="45.20348" lon="3.47635">
        <ele>601.44</ele>
        <time>2021-01-31T12:56:05Z</time>
      </trkpt>
      <trkpt lat="45.20338" lon="3.47658">
        <ele>599.04</ele>
        <time>2021-01-31T12:56:17Z</time>
      </trkpt>
      <trkpt lat="45.2032" lon="3.47678">
        <ele>601.44</ele>
        <time>2021-01-31T12:56:33Z</time>
      </trkpt>
      <trkpt lat="45.20313" lon="3.47682">
        <ele>601.92</ele>
        <time>2021-01-31T12:56:39Z</time>
      </trkpt>
      <trkpt lat="45.20309" lon="3.47684">
        <ele>601.92</ele>
        <time>2021-01-31T12:56:42Z</time>
      </trkpt>
      <trkpt lat="45.20292" lon="3.47689">
        <ele>600.48</ele>
        <time>2021-01-31T12:56:59Z</time>
      </trkpt>
      <trkpt lat="45.20279" lon="3.47691">
        <ele>599.04</ele>
        <time>2021-01-31T12:57:12Z</time>
      </trkpt>
      <trkpt lat="45.20272" lon="3.47697">
        <ele>597.6</ele>
        <time>2021-01-31T12:57:21Z</time>
      </trkpt>
      <trkpt lat="45.20261" lon="3.47705">
        <ele>595.19</ele>
        <time>2021-01-31T12:57:38Z</time>
      </trkpt>
      <trkpt lat="45.20259" lon="3.47708">
        <ele>595.67</ele>
        <time>2021-01-31T12:57:55Z</time>
      </trkpt>
      <trkpt lat="45.20258" lon="3.47724">
        <ele>594.23</ele>
        <time>2021-01-31T12:58:06Z</time>
      </trkpt>
      <trkpt lat="45.20257" lon="3.4776">
        <ele>591.35</ele>
        <time>2021-01-31T12:58:23Z</time>
      </trkpt>
      <trkpt lat="45.20256" lon="3.47764">
        <ele>590.87</ele>
        <time>2021-01-31T12:58:25Z</time>
      </trkpt>
      <trkpt lat="45.2025" lon="3.4778">
        <ele>588.95</ele>
        <time>2021-01-31T12:58:34Z</time>
      </trkpt>
      <trkpt lat="45.20233" lon="3.47802">
        <ele>587.02</ele>
        <time>2021-01-31T12:58:49Z</time>
      </trkpt>
      <trkpt lat="45.20218" lon="3.47812">
        <ele>582.7</ele>
        <time>2021-01-31T12:59:01Z</time>
      </trkpt>
      <trkpt lat="45.20212" lon="3.47825">
        <ele>579.81</ele>
        <time>2021-01-31T12:59:14Z</time>
      </trkpt>
      <trkpt lat="45.20213" lon="3.47825">
        <ele>579.81</ele>
        <time>2021-01-31T12:59:34Z</time>
      </trkpt>
      <trkpt lat="45.2022" lon="3.47836">
        <ele>579.33</ele>
        <time>2021-01-31T12:59:51Z</time>
      </trkpt>
      <trkpt lat="45.20222" lon="3.47838">
        <ele>578.85</ele>
        <time>2021-01-31T12:59:53Z</time>
      </trkpt>
      <trkpt lat="45.2024" lon="3.4785">
        <ele>576.93</ele>
        <time>2021-01-31T13:00:11Z</time>
      </trkpt>
      <trkpt lat="45.20242" lon="3.47855">
        <ele>576.93</ele>
        <time>2021-01-31T13:00:28Z</time>
      </trkpt>
      <trkpt lat="45.20247" lon="3.47863">
        <ele>576.93</ele>
        <time>2021-01-31T13:00:46Z</time>
      </trkpt>
      <trkpt lat="45.20255" lon="3.47881">
        <ele>575.49</ele>
        <time>2021-01-31T13:00:59Z</time>
      </trkpt>
      <trkpt lat="45.20256" lon="3.47891">
        <ele>574.53</ele>
        <time>2021-01-31T13:01:05Z</time>
      </trkpt>
      <trkpt lat="45.20258" lon="3.47919">
        <ele>574.53</ele>
        <time>2021-01-31T13:01:20Z</time>
      </trkpt>
      <trkpt lat="45.20256" lon="3.47927">
        <ele>574.53</ele>
        <time>2021-01-31T13:01:25Z</time>
      </trkpt>
      <trkpt lat="45.20251" lon="3.47933">
        <ele>575.49</ele>
        <time>2021-01-31T13:01:30Z</time>
      </trkpt>
      <trkpt lat="45.20241" lon="3.47929">
        <ele>575.49</ele>
        <time>2021-01-31T13:01:45Z</time>
      </trkpt>
      <trkpt lat="45.20231" lon="3.47921">
        <ele>575.49</ele>
        <time>2021-01-31T13:02:02Z</time>
      </trkpt>
      <trkpt lat="45.20221" lon="3.47915">
        <ele>575.49</ele>
        <time>2021-01-31T13:02:19Z</time>
      </trkpt>
      <trkpt lat="45.20208" lon="3.47909">
        <ele>575.97</ele>
        <time>2021-01-31T13:02:34Z</time>
      </trkpt>
      <trkpt lat="45.202" lon="3.47904">
        <ele>576.45</ele>
        <time>2021-01-31T13:02:49Z</time>
      </trkpt>
      <trkpt lat="45.20184" lon="3.47896">
        <ele>578.37</ele>
        <time>2021-01-31T13:03:06Z</time>
      </trkpt>
      <trkpt lat="45.20167" lon="3.4788">
        <ele>580.29</ele>
        <time>2021-01-31T13:03:21Z</time>
      </trkpt>
      <trkpt lat="45.20149" lon="3.47862">
        <ele>580.77</ele>
        <time>2021-01-31T13:03:39Z</time>
      </trkpt>
      <trkpt lat="45.2014" lon="3.47848">
        <ele>578.85</ele>
        <time>2021-01-31T13:03:52Z</time>
      </trkpt>
      <trkpt lat="45.20125" lon="3.47827">
        <ele>577.89</ele>
        <time>2021-01-31T13:04:08Z</time>
      </trkpt>
      <trkpt lat="45.20117" lon="3.47818">
        <ele>577.89</ele>
        <time>2021-01-31T13:04:22Z</time>
      </trkpt>
      <trkpt lat="45.20098" lon="3.47799">
        <ele>577.41</ele>
        <time>2021-01-31T13:04:39Z</time>
      </trkpt>
      <trkpt lat="45.20076" lon="3.47783">
        <ele>576.93</ele>
        <time>2021-01-31T13:04:57Z</time>
      </trkpt>
      <trkpt lat="45.20056" lon="3.47774">
        <ele>575.49</ele>
        <time>2021-01-31T13:05:09Z</time>
      </trkpt>
      <trkpt lat="45.20039" lon="3.47765">
        <ele>574.53</ele>
        <time>2021-01-31T13:05:23Z</time>
      </trkpt>
      <trkpt lat="45.20023" lon="3.47757">
        <ele>574.53</ele>
        <time>2021-01-31T13:05:37Z</time>
      </trkpt>
      <trkpt lat="45.20003" lon="3.47754">
        <ele>575.49</ele>
        <time>2021-01-31T13:05:52Z</time>
      </trkpt>
      <trkpt lat="45.1999" lon="3.47754">
        <ele>576.45</ele>
        <time>2021-01-31T13:06:02Z</time>
      </trkpt>
      <trkpt lat="45.19971" lon="3.47746">
        <ele>577.41</ele>
        <time>2021-01-31T13:06:18Z</time>
      </trkpt>
      <trkpt lat="45.19966" lon="3.47743">
        <ele>577.41</ele>
        <time>2021-01-31T13:06:31Z</time>
      </trkpt>
      <trkpt lat="45.19965" lon="3.47742">
        <ele>576.45</ele>
        <time>2021-01-31T13:06:44Z</time>
      </trkpt>
      <trkpt lat="45.19962" lon="3.47739">
        <ele>576.45</ele>
        <time>2021-01-31T13:06:48Z</time>
      </trkpt>
      <trkpt lat="45.19945" lon="3.47721">
        <ele>575.49</ele>
        <time>2021-01-31T13:07:04Z</time>
      </trkpt>
      <trkpt lat="45.19929" lon="3.47701">
        <ele>575.49</ele>
        <time>2021-01-31T13:07:19Z</time>
      </trkpt>
      <trkpt lat="45.19912" lon="3.47679">
        <ele>577.89</ele>
        <time>2021-01-31T13:07:36Z</time>
      </trkpt>
      <trkpt lat="45.19898" lon="3.47664">
        <ele>579.81</ele>
        <time>2021-01-31T13:07:51Z</time>
      </trkpt>
      <trkpt lat="45.19882" lon="3.47647">
        <ele>580.77</ele>
        <time>2021-01-31T13:08:06Z</time>
      </trkpt>
      <trkpt lat="45.19865" lon="3.4763">
        <ele>582.7</ele>
        <time>2021-01-31T13:08:23Z</time>
      </trkpt>
      <trkpt lat="45.19848" lon="3.47615">
        <ele>585.1</ele>
        <time>2021-01-31T13:08:39Z</time>
      </trkpt>
      <trkpt lat="45.19829" lon="3.47598">
        <ele>587.02</ele>
        <time>2021-01-31T13:08:57Z</time>
      </trkpt>
      <trkpt lat="45.19812" lon="3.47584">
        <ele>587.5</ele>
        <time>2021-01-31T13:09:13Z</time>
      </trkpt>
      <trkpt lat="45.19792" lon="3.47564">
        <ele>588.95</ele>
        <time>2021-01-31T13:09:31Z</time>
      </trkpt>
      <trkpt lat="45.19777" lon="3.47545">
        <ele>590.87</ele>
        <time>2021-01-31T13:09:45Z</time>
      </trkpt>
      <trkpt lat="45.19764" lon="3.47532">
        <ele>592.31</ele>
        <time>2021-01-31T13:09:59Z</time>
      </trkpt>
      <trkpt lat="45.19749" lon="3.47514">
        <ele>593.27</ele>
        <time>2021-01-31T13:10:14Z</time>
      </trkpt>
      <trkpt lat="45.19733" lon="3.47495">
        <ele>595.19</ele>
        <time>2021-01-31T13:10:30Z</time>
      </trkpt>
      <trkpt lat="45.19714" lon="3.47472">
        <ele>596.64</ele>
        <time>2021-01-31T13:10:49Z</time>
      </trkpt>
      <trkpt lat="45.19696" lon="3.47448">
        <ele>598.08</ele>
        <time>2021-01-31T13:11:08Z</time>
      </trkpt>
      <trkpt lat="45.19681" lon="3.47429">
        <ele>598.56</ele>
        <time>2021-01-31T13:11:23Z</time>
      </trkpt>
      <trkpt lat="45.19657" lon="3.47404">
        <ele>600.48</ele>
        <time>2021-01-31T13:11:46Z</time>
      </trkpt>
      <trkpt lat="45.19648" lon="3.47392">
        <ele>601.92</ele>
        <time>2021-01-31T13:11:55Z</time>
      </trkpt>
      <trkpt lat="45.19631" lon="3.47366">
        <ele>604.81</ele>
        <time>2021-01-31T13:12:13Z</time>
      </trkpt>
      <trkpt lat="45.19617" lon="3.47347">
        <ele>606.73</ele>
        <time>2021-01-31T13:12:29Z</time>
      </trkpt>
      <trkpt lat="45.19605" lon="3.47331">
        <ele>607.69</ele>
        <time>2021-01-31T13:12:42Z</time>
      </trkpt>
      <trkpt lat="45.19595" lon="3.4732">
        <ele>609.61</ele>
        <time>2021-01-31T13:12:53Z</time>
      </trkpt>
      <trkpt lat="45.19579" lon="3.47305">
        <ele>612.02</ele>
        <time>2021-01-31T13:13:08Z</time>
      </trkpt>
      <trkpt lat="45.19569" lon="3.473">
        <ele>612.02</ele>
        <time>2021-01-31T13:13:18Z</time>
      </trkpt>
      <trkpt lat="45.19559" lon="3.47292">
        <ele>613.94</ele>
        <time>2021-01-31T13:13:25Z</time>
      </trkpt>
      <trkpt lat="45.19547" lon="3.47281">
        <ele>616.82</ele>
        <time>2021-01-31T13:13:36Z</time>
      </trkpt>
      <trkpt lat="45.19538" lon="3.47273">
        <ele>617.78</ele>
        <time>2021-01-31T13:13:45Z</time>
      </trkpt>
      <trkpt lat="45.19525" lon="3.47263">
        <ele>620.67</ele>
        <time>2021-01-31T13:13:59Z</time>
      </trkpt>
      <trkpt lat="45.1951" lon="3.47256">
        <ele>623.55</ele>
        <time>2021-01-31T13:14:12Z</time>
      </trkpt>
      <trkpt lat="45.19505" lon="3.47254">
        <ele>624.51</ele>
        <time>2021-01-31T13:14:16Z</time>
      </trkpt>
      <trkpt lat="45.19497" lon="3.47253">
        <ele>626.92</ele>
        <time>2021-01-31T13:14:24Z</time>
      </trkpt>
      <trkpt lat="45.19481" lon="3.47245">
        <ele>632.2</ele>
        <time>2021-01-31T13:14:36Z</time>
      </trkpt>
      <trkpt lat="45.19468" lon="3.47239">
        <ele>635.57</ele>
        <time>2021-01-31T13:14:46Z</time>
      </trkpt>
      <trkpt lat="45.19464" lon="3.47237">
        <ele>636.05</ele>
        <time>2021-01-31T13:14:50Z</time>
      </trkpt>
      <trkpt lat="45.19459" lon="3.47235">
        <ele>638.45</ele>
        <time>2021-01-31T13:14:55Z</time>
      </trkpt>
      <trkpt lat="45.19443" lon="3.47227">
        <ele>641.34</ele>
        <time>2021-01-31T13:15:07Z</time>
      </trkpt>
      <trkpt lat="45.19432" lon="3.47222">
        <ele>642.78</ele>
        <time>2021-01-31T13:15:16Z</time>
      </trkpt>
      <trkpt lat="45.19425" lon="3.47217">
        <ele>643.74</ele>
        <time>2021-01-31T13:15:24Z</time>
      </trkpt>
      <trkpt lat="45.19416" lon="3.4721">
        <ele>644.7</ele>
        <time>2021-01-31T13:15:32Z</time>
      </trkpt>
      <trkpt lat="45.19415" lon="3.47209">
        <ele>644.7</ele>
        <time>2021-01-31T13:15:33Z</time>
      </trkpt>
      <trkpt lat="45.19408" lon="3.47196">
        <ele>646.14</ele>
        <time>2021-01-31T13:15:43Z</time>
      </trkpt>
      <trkpt lat="45.194" lon="3.47185">
        <ele>646.62</ele>
        <time>2021-01-31T13:15:51Z</time>
      </trkpt>
      <trkpt lat="45.19398" lon="3.47181">
        <ele>646.62</ele>
        <time>2021-01-31T13:15:54Z</time>
      </trkpt>
      <trkpt lat="45.19396" lon="3.4718">
        <ele>646.62</ele>
        <time>2021-01-31T13:16:02Z</time>
      </trkpt>
      <trkpt lat="45.19394" lon="3.47179">
        <ele>645.66</ele>
        <time>2021-01-31T13:16:19Z</time>
      </trkpt>
      <trkpt lat="45.19393" lon="3.47178">
        <ele>645.18</ele>
        <time>2021-01-31T13:16:41Z</time>
      </trkpt>
      <trkpt lat="45.1939" lon="3.47173">
        <ele>645.18</ele>
        <time>2021-01-31T13:16:54Z</time>
      </trkpt>
      <trkpt lat="45.19386" lon="3.47164">
        <ele>644.7</ele>
        <time>2021-01-31T13:17:01Z</time>
      </trkpt>
      <trkpt lat="45.19383" lon="3.47156">
        <ele>645.18</ele>
        <time>2021-01-31T13:17:06Z</time>
      </trkpt>
      <trkpt lat="45.1937" lon="3.47132">
        <ele>645.66</ele>
        <time>2021-01-31T13:17:22Z</time>
      </trkpt>
      <trkpt lat="45.19355" lon="3.47106">
        <ele>646.62</ele>
        <time>2021-01-31T13:17:39Z</time>
      </trkpt>
      <trkpt lat="45.19342" lon="3.47079">
        <ele>646.62</ele>
        <time>2021-01-31T13:17:56Z</time>
      </trkpt>
      <trkpt lat="45.19329" lon="3.47051">
        <ele>646.62</ele>
        <time>2021-01-31T13:18:13Z</time>
      </trkpt>
      <trkpt lat="45.19318" lon="3.47024">
        <ele>647.1</ele>
        <time>2021-01-31T13:18:29Z</time>
      </trkpt>
      <trkpt lat="45.19307" lon="3.46987">
        <ele>647.1</ele>
        <time>2021-01-31T13:18:50Z</time>
      </trkpt>
      <trkpt lat="45.19299" lon="3.46955">
        <ele>645.66</ele>
        <time>2021-01-31T13:19:07Z</time>
      </trkpt>
      <trkpt lat="45.19292" lon="3.4693">
        <ele>643.26</ele>
        <time>2021-01-31T13:19:21Z</time>
      </trkpt>
      <trkpt lat="45.19285" lon="3.46905">
        <ele>641.34</ele>
        <time>2021-01-31T13:19:35Z</time>
      </trkpt>
      <trkpt lat="45.19279" lon="3.46875">
        <ele>639.41</ele>
        <time>2021-01-31T13:19:53Z</time>
      </trkpt>
      <trkpt lat="45.19276" lon="3.46858">
        <ele>638.93</ele>
        <time>2021-01-31T13:20:02Z</time>
      </trkpt>
      <trkpt lat="45.19279" lon="3.46848">
        <ele>640.38</ele>
        <time>2021-01-31T13:20:14Z</time>
      </trkpt>
      <trkpt lat="45.19279" lon="3.46849">
        <ele>640.86</ele>
        <time>2021-01-31T13:20:35Z</time>
      </trkpt>
      <trkpt lat="45.19279" lon="3.46839">
        <ele>641.82</ele>
        <time>2021-01-31T13:20:51Z</time>
      </trkpt>
      <trkpt lat="45.19283" lon="3.46823">
        <ele>641.82</ele>
        <time>2021-01-31T13:21:03Z</time>
      </trkpt>
      <trkpt lat="45.19287" lon="3.46801">
        <ele>641.34</ele>
        <time>2021-01-31T13:21:17Z</time>
      </trkpt>
      <trkpt lat="45.19293" lon="3.46778">
        <ele>640.38</ele>
        <time>2021-01-31T13:21:30Z</time>
      </trkpt>
      <trkpt lat="45.19305" lon="3.4675">
        <ele>639.41</ele>
        <time>2021-01-31T13:21:50Z</time>
      </trkpt>
      <trkpt lat="45.19314" lon="3.4673">
        <ele>638.93</ele>
        <time>2021-01-31T13:22:03Z</time>
      </trkpt>
      <trkpt lat="45.19325" lon="3.46706">
        <ele>639.89</ele>
        <time>2021-01-31T13:22:19Z</time>
      </trkpt>
      <trkpt lat="45.19339" lon="3.46681">
        <ele>641.34</ele>
        <time>2021-01-31T13:22:35Z</time>
      </trkpt>
      <trkpt lat="45.19346" lon="3.46659">
        <ele>641.82</ele>
        <time>2021-01-31T13:22:48Z</time>
      </trkpt>
      <trkpt lat="45.19349" lon="3.46649">
        <ele>641.34</ele>
        <time>2021-01-31T13:22:54Z</time>
      </trkpt>
      <trkpt lat="45.19349" lon="3.46631">
        <ele>641.34</ele>
        <time>2021-01-31T13:23:04Z</time>
      </trkpt>
      <trkpt lat="45.19332" lon="3.46611">
        <ele>640.86</ele>
        <time>2021-01-31T13:23:21Z</time>
      </trkpt>
      <trkpt lat="45.19325" lon="3.46601">
        <ele>640.86</ele>
        <time>2021-01-31T13:23:30Z</time>
      </trkpt>
      <trkpt lat="45.19311" lon="3.46582">
        <ele>640.38</ele>
        <time>2021-01-31T13:23:48Z</time>
      </trkpt>
      <trkpt lat="45.19298" lon="3.46567">
        <ele>639.89</ele>
        <time>2021-01-31T13:24:03Z</time>
      </trkpt>
      <trkpt lat="45.19281" lon="3.46542">
        <ele>642.3</ele>
        <time>2021-01-31T13:24:22Z</time>
      </trkpt>
      <trkpt lat="45.19271" lon="3.46526">
        <ele>641.82</ele>
        <time>2021-01-31T13:24:33Z</time>
      </trkpt>
      <trkpt lat="45.19254" lon="3.46505">
        <ele>643.26</ele>
        <time>2021-01-31T13:24:47Z</time>
      </trkpt>
      <trkpt lat="45.19242" lon="3.46492">
        <ele>646.14</ele>
        <time>2021-01-31T13:24:57Z</time>
      </trkpt>
      <trkpt lat="45.19232" lon="3.4648">
        <ele>649.03</ele>
        <time>2021-01-31T13:25:07Z</time>
      </trkpt>
      <trkpt lat="45.19225" lon="3.46472">
        <ele>650.95</ele>
        <time>2021-01-31T13:25:15Z</time>
      </trkpt>
      <trkpt lat="45.19216" lon="3.46462">
        <ele>652.39</ele>
        <time>2021-01-31T13:25:23Z</time>
      </trkpt>
      <trkpt lat="45.19203" lon="3.46449">
        <ele>652.87</ele>
        <time>2021-01-31T13:25:33Z</time>
      </trkpt>
      <trkpt lat="45.19196" lon="3.46441">
        <ele>654.31</ele>
        <time>2021-01-31T13:25:41Z</time>
      </trkpt>
      <trkpt lat="45.1919" lon="3.46434">
        <ele>654.31</ele>
        <time>2021-01-31T13:25:50Z</time>
      </trkpt>
      <trkpt lat="45.19181" lon="3.46423">
        <ele>654.31</ele>
        <time>2021-01-31T13:26:00Z</time>
      </trkpt>
      <trkpt lat="45.19176" lon="3.46417">
        <ele>655.76</ele>
        <time>2021-01-31T13:26:06Z</time>
      </trkpt>
      <trkpt lat="45.19165" lon="3.46405">
        <ele>659.6</ele>
        <time>2021-01-31T13:26:15Z</time>
      </trkpt>
      <trkpt lat="45.19158" lon="3.46398">
        <ele>660.08</ele>
        <time>2021-01-31T13:26:20Z</time>
      </trkpt>
      <trkpt lat="45.19147" lon="3.46387">
        <ele>661.04</ele>
        <time>2021-01-31T13:26:30Z</time>
      </trkpt>
      <trkpt lat="45.19142" lon="3.46379">
        <ele>660.08</ele>
        <time>2021-01-31T13:26:37Z</time>
      </trkpt>
      <trkpt lat="45.19131" lon="3.46367">
        <ele>659.12</ele>
        <time>2021-01-31T13:26:49Z</time>
      </trkpt>
      <trkpt lat="45.19123" lon="3.46354">
        <ele>657.68</ele>
        <time>2021-01-31T13:26:58Z</time>
      </trkpt>
      <trkpt lat="45.1912" lon="3.4635">
        <ele>657.2</ele>
        <time>2021-01-31T13:27:09Z</time>
      </trkpt>
      <trkpt lat="45.19116" lon="3.46343">
        <ele>656.24</ele>
        <time>2021-01-31T13:27:15Z</time>
      </trkpt>
      <trkpt lat="45.19107" lon="3.46333">
        <ele>656.72</ele>
        <time>2021-01-31T13:27:22Z</time>
      </trkpt>
      <trkpt lat="45.19098" lon="3.46312">
        <ele>657.2</ele>
        <time>2021-01-31T13:27:34Z</time>
      </trkpt>
      <trkpt lat="45.1909" lon="3.46302">
        <ele>657.2</ele>
        <time>2021-01-31T13:27:48Z</time>
      </trkpt>
      <trkpt lat="45.19086" lon="3.46298">
        <ele>655.76</ele>
        <time>2021-01-31T13:28:05Z</time>
      </trkpt>
      <trkpt lat="45.19089" lon="3.46299">
        <ele>654.31</ele>
        <time>2021-01-31T13:28:09Z</time>
      </trkpt>
      <trkpt lat="45.19084" lon="3.46286">
        <ele>653.83</ele>
        <time>2021-01-31T13:28:20Z</time>
      </trkpt>
      <trkpt lat="45.19083" lon="3.46282">
        <ele>653.35</ele>
        <time>2021-01-31T13:28:23Z</time>
      </trkpt>
      <trkpt lat="45.19078" lon="3.46265">
        <ele>652.39</ele>
        <time>2021-01-31T13:28:35Z</time>
      </trkpt>
      <trkpt lat="45.19079" lon="3.46259">
        <ele>652.39</ele>
        <time>2021-01-31T13:28:38Z</time>
      </trkpt>
      <trkpt lat="45.19075" lon="3.46252">
        <ele>652.87</ele>
        <time>2021-01-31T13:28:43Z</time>
      </trkpt>
      <trkpt lat="45.19068" lon="3.46234">
        <ele>654.8</ele>
        <time>2021-01-31T13:28:56Z</time>
      </trkpt>
      <trkpt lat="45.1906" lon="3.46213">
        <ele>654.31</ele>
        <time>2021-01-31T13:29:09Z</time>
      </trkpt>
      <trkpt lat="45.19056" lon="3.46207">
        <ele>653.83</ele>
        <time>2021-01-31T13:29:21Z</time>
      </trkpt>
      <trkpt lat="45.19056" lon="3.46207">
        <ele>653.83</ele>
        <time>2021-01-31T13:29:22Z</time>
      </trkpt>
      <trkpt lat="45.19056" lon="3.46206">
        <ele>653.83</ele>
        <time>2021-01-31T13:29:24Z</time>
      </trkpt>
      <trkpt lat="45.19052" lon="3.46199">
        <ele>653.35</ele>
        <time>2021-01-31T13:29:29Z</time>
      </trkpt>
      <trkpt lat="45.19049" lon="3.4619">
        <ele>653.35</ele>
        <time>2021-01-31T13:29:34Z</time>
      </trkpt>
      <trkpt lat="45.19038" lon="3.4618">
        <ele>653.83</ele>
        <time>2021-01-31T13:29:48Z</time>
      </trkpt>
      <trkpt lat="45.19038" lon="3.46178">
        <ele>652.39</ele>
        <time>2021-01-31T13:29:56Z</time>
      </trkpt>
      <trkpt lat="45.19033" lon="3.46155">
        <ele>651.91</ele>
        <time>2021-01-31T13:30:08Z</time>
      </trkpt>
      <trkpt lat="45.19029" lon="3.46143">
        <ele>651.43</ele>
        <time>2021-01-31T13:30:21Z</time>
      </trkpt>
      <trkpt lat="45.19023" lon="3.46134">
        <ele>651.43</ele>
        <time>2021-01-31T13:30:33Z</time>
      </trkpt>
      <trkpt lat="45.19017" lon="3.46129">
        <ele>650.95</ele>
        <time>2021-01-31T13:30:43Z</time>
      </trkpt>
      <trkpt lat="45.18998" lon="3.46121">
        <ele>648.07</ele>
        <time>2021-01-31T13:30:59Z</time>
      </trkpt>
      <trkpt lat="45.18992" lon="3.46122">
        <ele>647.1</ele>
        <time>2021-01-31T13:31:14Z</time>
      </trkpt>
      <trkpt lat="45.18981" lon="3.46119">
        <ele>648.55</ele>
        <time>2021-01-31T13:31:28Z</time>
      </trkpt>
      <trkpt lat="45.18977" lon="3.46118">
        <ele>649.03</ele>
        <time>2021-01-31T13:31:32Z</time>
      </trkpt>
      <trkpt lat="45.18959" lon="3.46108">
        <ele>648.07</ele>
        <time>2021-01-31T13:31:49Z</time>
      </trkpt>
      <trkpt lat="45.18951" lon="3.46103">
        <ele>646.62</ele>
        <time>2021-01-31T13:32:06Z</time>
      </trkpt>
      <trkpt lat="45.18932" lon="3.46096">
        <ele>643.74</ele>
        <time>2021-01-31T13:32:25Z</time>
      </trkpt>
      <trkpt lat="45.18909" lon="3.46083">
        <ele>641.82</ele>
        <time>2021-01-31T13:32:43Z</time>
      </trkpt>
      <trkpt lat="45.1889" lon="3.46074">
        <ele>638.93</ele>
        <time>2021-01-31T13:32:58Z</time>
      </trkpt>
      <trkpt lat="45.18874" lon="3.46061">
        <ele>636.05</ele>
        <time>2021-01-31T13:33:13Z</time>
      </trkpt>
      <trkpt lat="45.18857" lon="3.46051">
        <ele>636.53</ele>
        <time>2021-01-31T13:33:29Z</time>
      </trkpt>
      <trkpt lat="45.18836" lon="3.4604">
        <ele>636.53</ele>
        <time>2021-01-31T13:33:45Z</time>
      </trkpt>
      <trkpt lat="45.1883" lon="3.46037">
        <ele>637.01</ele>
        <time>2021-01-31T13:33:59Z</time>
      </trkpt>
      <trkpt lat="45.18809" lon="3.4603">
        <ele>637.49</ele>
        <time>2021-01-31T13:34:17Z</time>
      </trkpt>
      <trkpt lat="45.18789" lon="3.4602">
        <ele>638.45</ele>
        <time>2021-01-31T13:34:31Z</time>
      </trkpt>
      <trkpt lat="45.18769" lon="3.46018">
        <ele>643.74</ele>
        <time>2021-01-31T13:34:42Z</time>
      </trkpt>
      <trkpt lat="45.18767" lon="3.46017">
        <ele>643.74</ele>
        <time>2021-01-31T13:34:43Z</time>
      </trkpt>
      <trkpt lat="45.18755" lon="3.46006">
        <ele>643.26</ele>
        <time>2021-01-31T13:34:53Z</time>
      </trkpt>
      <trkpt lat="45.18744" lon="3.46003">
        <ele>645.18</ele>
        <time>2021-01-31T13:35:03Z</time>
      </trkpt>
      <trkpt lat="45.18731" lon="3.46001">
        <ele>646.62</ele>
        <time>2021-01-31T13:35:21Z</time>
      </trkpt>
      <trkpt lat="45.18712" lon="3.45992">
        <ele>646.62</ele>
        <time>2021-01-31T13:35:36Z</time>
      </trkpt>
      <trkpt lat="45.18701" lon="3.45987">
        <ele>647.59</ele>
        <time>2021-01-31T13:35:53Z</time>
      </trkpt>
      <trkpt lat="45.18686" lon="3.45981">
        <ele>648.07</ele>
        <time>2021-01-31T13:36:05Z</time>
      </trkpt>
      <trkpt lat="45.18678" lon="3.4598">
        <ele>648.07</ele>
        <time>2021-01-31T13:36:11Z</time>
      </trkpt>
      <trkpt lat="45.18655" lon="3.45973">
        <ele>648.55</ele>
        <time>2021-01-31T13:36:29Z</time>
      </trkpt>
      <trkpt lat="45.18641" lon="3.4597">
        <ele>649.51</ele>
        <time>2021-01-31T13:36:42Z</time>
      </trkpt>
      <trkpt lat="45.18632" lon="3.4597">
        <ele>648.55</ele>
        <time>2021-01-31T13:36:58Z</time>
      </trkpt>
      <trkpt lat="45.18613" lon="3.45956">
        <ele>648.55</ele>
        <time>2021-01-31T13:37:15Z</time>
      </trkpt>
      <trkpt lat="45.18595" lon="3.45944">
        <ele>649.03</ele>
        <time>2021-01-31T13:37:29Z</time>
      </trkpt>
      <trkpt lat="45.18586" lon="3.45939">
        <ele>649.03</ele>
        <time>2021-01-31T13:37:36Z</time>
      </trkpt>
      <trkpt lat="45.18563" lon="3.45935">
        <ele>650.47</ele>
        <time>2021-01-31T13:37:53Z</time>
      </trkpt>
      <trkpt lat="45.18559" lon="3.45933">
        <ele>647.1</ele>
        <time>2021-01-31T13:38:14Z</time>
      </trkpt>
      <trkpt lat="45.18555" lon="3.45933">
        <ele>647.59</ele>
        <time>2021-01-31T13:38:18Z</time>
      </trkpt>
      <trkpt lat="45.18534" lon="3.45935">
        <ele>649.51</ele>
        <time>2021-01-31T13:38:36Z</time>
      </trkpt>
      <trkpt lat="45.18507" lon="3.45942">
        <ele>650.47</ele>
        <time>2021-01-31T13:38:59Z</time>
      </trkpt>
      <trkpt lat="45.18472" lon="3.45956">
        <ele>655.28</ele>
        <time>2021-01-31T13:39:20Z</time>
      </trkpt>
      <trkpt lat="45.18437" lon="3.45971">
        <ele>663.93</ele>
        <time>2021-01-31T13:39:41Z</time>
      </trkpt>
      <trkpt lat="45.18421" lon="3.4597">
        <ele>665.85</ele>
        <time>2021-01-31T13:39:56Z</time>
      </trkpt>
      <trkpt lat="45.184" lon="3.4596">
        <ele>665.37</ele>
        <time>2021-01-31T13:40:16Z</time>
      </trkpt>
      <trkpt lat="45.18382" lon="3.45962">
        <ele>663.45</ele>
        <time>2021-01-31T13:40:33Z</time>
      </trkpt>
      <trkpt lat="45.18363" lon="3.45965">
        <ele>662.49</ele>
        <time>2021-01-31T13:40:52Z</time>
      </trkpt>
      <trkpt lat="45.18346" lon="3.45965">
        <ele>663.45</ele>
        <time>2021-01-31T13:41:11Z</time>
      </trkpt>
      <trkpt lat="45.18334" lon="3.45964">
        <ele>670.18</ele>
        <time>2021-01-31T13:41:35Z</time>
      </trkpt>
      <trkpt lat="45.18329" lon="3.45961">
        <ele>671.14</ele>
        <time>2021-01-31T13:41:53Z</time>
      </trkpt>
      <trkpt lat="45.18321" lon="3.45961">
        <ele>672.1</ele>
        <time>2021-01-31T13:42:14Z</time>
      </trkpt>
      <trkpt lat="45.18315" lon="3.4596">
        <ele>674.02</ele>
        <time>2021-01-31T13:42:38Z</time>
      </trkpt>
      <trkpt lat="45.18308" lon="3.45959">
        <ele>675.46</ele>
        <time>2021-01-31T13:42:59Z</time>
      </trkpt>
      <trkpt lat="45.18302" lon="3.45961">
        <ele>675.46</ele>
        <time>2021-01-31T13:43:09Z</time>
      </trkpt>
      <trkpt lat="45.18255" lon="3.45979">
        <ele>682.19</ele>
        <time>2021-01-31T13:43:29Z</time>
      </trkpt>
      <trkpt lat="45.1823" lon="3.45991">
        <ele>687</ele>
        <time>2021-01-31T13:43:54Z</time>
      </trkpt>
      <trkpt lat="45.18219" lon="3.45993">
        <ele>687.48</ele>
        <time>2021-01-31T13:44:17Z</time>
      </trkpt>
      <trkpt lat="45.18204" lon="3.46">
        <ele>688.44</ele>
        <time>2021-01-31T13:44:40Z</time>
      </trkpt>
      <trkpt lat="45.18196" lon="3.46004">
        <ele>689.88</ele>
        <time>2021-01-31T13:45:01Z</time>
      </trkpt>
      <trkpt lat="45.18185" lon="3.4601">
        <ele>692.29</ele>
        <time>2021-01-31T13:45:20Z</time>
      </trkpt>
      <trkpt lat="45.18165" lon="3.46022">
        <ele>700.46</ele>
        <time>2021-01-31T13:45:40Z</time>
      </trkpt>
      <trkpt lat="45.18108" lon="3.46056">
        <ele>708.15</ele>
        <time>2021-01-31T13:45:59Z</time>
      </trkpt>
      <trkpt lat="45.18088" lon="3.46058">
        <ele>715.84</ele>
        <time>2021-01-31T13:46:12Z</time>
      </trkpt>
      <trkpt lat="45.18069" lon="3.46048">
        <ele>722.57</ele>
        <time>2021-01-31T13:46:26Z</time>
      </trkpt>
      <trkpt lat="45.18058" lon="3.46037">
        <ele>727.86</ele>
        <time>2021-01-31T13:46:41Z</time>
      </trkpt>
      <trkpt lat="45.18057" lon="3.46038">
        <ele>729.3</ele>
        <time>2021-01-31T13:47:04Z</time>
      </trkpt>
      <trkpt lat="45.18056" lon="3.46038">
        <ele>730.74</ele>
        <time>2021-01-31T13:47:23Z</time>
      </trkpt>
      <trkpt lat="45.18059" lon="3.46038">
        <ele>731.7</ele>
        <time>2021-01-31T13:47:37Z</time>
      </trkpt>
      <trkpt lat="45.1806" lon="3.46037">
        <ele>732.18</ele>
        <time>2021-01-31T13:48:12Z</time>
      </trkpt>
      <trkpt lat="45.1806" lon="3.46037">
        <ele>733.14</ele>
        <time>2021-01-31T13:48:32Z</time>
      </trkpt>
      <trkpt lat="45.18061" lon="3.46036">
        <ele>733.14</ele>
        <time>2021-01-31T13:48:58Z</time>
      </trkpt>
      <trkpt lat="45.18058" lon="3.46036">
        <ele>733.14</ele>
        <time>2021-01-31T13:49:17Z</time>
      </trkpt>
      <trkpt lat="45.18058" lon="3.46038">
        <ele>733.62</ele>
        <time>2021-01-31T13:49:30Z</time>
      </trkpt>
      <trkpt lat="45.18058" lon="3.46037">
        <ele>733.14</ele>
        <time>2021-01-31T13:49:52Z</time>
      </trkpt>
      <trkpt lat="45.18057" lon="3.46037">
        <ele>733.14</ele>
        <time>2021-01-31T13:50:16Z</time>
      </trkpt>
      <trkpt lat="45.18057" lon="3.46036">
        <ele>733.14</ele>
        <time>2021-01-31T13:50:41Z</time>
      </trkpt>
      <trkpt lat="45.18057" lon="3.46036">
        <ele>733.14</ele>
        <time>2021-01-31T13:50:57Z</time>
      </trkpt>
      <trkpt lat="45.18056" lon="3.46034">
        <ele>733.62</ele>
        <time>2021-01-31T13:51:16Z</time>
      </trkpt>
      <trkpt lat="45.18051" lon="3.46029">
        <ele>733.62</ele>
        <time>2021-01-31T13:51:24Z</time>
      </trkpt>
      <trkpt lat="45.18046" lon="3.46022">
        <ele>734.1</ele>
        <time>2021-01-31T13:51:38Z</time>
      </trkpt>
      <trkpt lat="45.1804" lon="3.46014">
        <ele>734.58</ele>
        <time>2021-01-31T13:51:48Z</time>
      </trkpt>
      <trkpt lat="45.18037" lon="3.4601">
        <ele>734.58</ele>
        <time>2021-01-31T13:51:52Z</time>
      </trkpt>
      <trkpt lat="45.18024" lon="3.46">
        <ele>734.1</ele>
        <time>2021-01-31T13:52:02Z</time>
      </trkpt>
      <trkpt lat="45.18017" lon="3.45991">
        <ele>732.18</ele>
        <time>2021-01-31T13:52:10Z</time>
      </trkpt>
      <trkpt lat="45.18011" lon="3.45985">
        <ele>732.18</ele>
        <time>2021-01-31T13:52:14Z</time>
      </trkpt>
      <trkpt lat="45.17998" lon="3.45974">
        <ele>731.7</ele>
        <time>2021-01-31T13:52:25Z</time>
      </trkpt>
      <trkpt lat="45.17984" lon="3.4596">
        <ele>730.74</ele>
        <time>2021-01-31T13:52:37Z</time>
      </trkpt>
      <trkpt lat="45.17983" lon="3.45959">
        <ele>730.26</ele>
        <time>2021-01-31T13:52:39Z</time>
      </trkpt>
      <trkpt lat="45.17968" lon="3.45944">
        <ele>729.3</ele>
        <time>2021-01-31T13:52:52Z</time>
      </trkpt>
      <trkpt lat="45.17959" lon="3.45937">
        <ele>727.86</ele>
        <time>2021-01-31T13:53:01Z</time>
      </trkpt>
      <trkpt lat="45.17941" lon="3.45922">
        <ele>723.53</ele>
        <time>2021-01-31T13:53:18Z</time>
      </trkpt>
      <trkpt lat="45.17921" lon="3.45905">
        <ele>720.16</ele>
        <time>2021-01-31T13:53:35Z</time>
      </trkpt>
      <trkpt lat="45.17904" lon="3.45887">
        <ele>718.24</ele>
        <time>2021-01-31T13:53:50Z</time>
      </trkpt>
      <trkpt lat="45.17889" lon="3.45872">
        <ele>717.28</ele>
        <time>2021-01-31T13:54:05Z</time>
      </trkpt>
      <trkpt lat="45.17876" lon="3.4585">
        <ele>713.92</ele>
        <time>2021-01-31T13:54:21Z</time>
      </trkpt>
      <trkpt lat="45.17873" lon="3.45846">
        <ele>712.95</ele>
        <time>2021-01-31T13:54:24Z</time>
      </trkpt>
      <trkpt lat="45.17857" lon="3.45822">
        <ele>707.19</ele>
        <time>2021-01-31T13:54:41Z</time>
      </trkpt>
      <trkpt lat="45.17845" lon="3.45805">
        <ele>705.26</ele>
        <time>2021-01-31T13:54:55Z</time>
      </trkpt>
      <trkpt lat="45.17839" lon="3.45798">
        <ele>705.26</ele>
        <time>2021-01-31T13:55:09Z</time>
      </trkpt>
      <trkpt lat="45.1784" lon="3.45798">
        <ele>705.26</ele>
        <time>2021-01-31T13:55:28Z</time>
      </trkpt>
      <trkpt lat="45.17838" lon="3.45799">
        <ele>705.75</ele>
        <time>2021-01-31T13:55:50Z</time>
      </trkpt>
      <trkpt lat="45.17827" lon="3.45795">
        <ele>705.75</ele>
        <time>2021-01-31T13:56:02Z</time>
      </trkpt>
      <trkpt lat="45.17806" lon="3.4577">
        <ele>701.42</ele>
        <time>2021-01-31T13:56:19Z</time>
      </trkpt>
      <trkpt lat="45.17788" lon="3.4575">
        <ele>699.98</ele>
        <time>2021-01-31T13:56:35Z</time>
      </trkpt>
      <trkpt lat="45.17774" lon="3.45724">
        <ele>696.61</ele>
        <time>2021-01-31T13:56:53Z</time>
      </trkpt>
      <trkpt lat="45.17771" lon="3.45722">
        <ele>696.61</ele>
        <time>2021-01-31T13:56:58Z</time>
      </trkpt>
      <trkpt lat="45.17768" lon="3.4572">
        <ele>696.13</ele>
        <time>2021-01-31T13:57:14Z</time>
      </trkpt>
      <trkpt lat="45.17767" lon="3.45715">
        <ele>697.09</ele>
        <time>2021-01-31T13:57:30Z</time>
      </trkpt>
      <trkpt lat="45.17764" lon="3.45709">
        <ele>696.61</ele>
        <time>2021-01-31T13:57:44Z</time>
      </trkpt>
      <trkpt lat="45.17764" lon="3.45704">
        <ele>696.13</ele>
        <time>2021-01-31T13:57:47Z</time>
      </trkpt>
      <trkpt lat="45.17762" lon="3.45689">
        <ele>695.17</ele>
        <time>2021-01-31T13:57:54Z</time>
      </trkpt>
      <trkpt lat="45.17754" lon="3.45661">
        <ele>690.84</ele>
        <time>2021-01-31T13:58:09Z</time>
      </trkpt>
      <trkpt lat="45.17749" lon="3.45653">
        <ele>689.88</ele>
        <time>2021-01-31T13:58:17Z</time>
      </trkpt>
      <trkpt lat="45.17743" lon="3.45639">
        <ele>690.36</ele>
        <time>2021-01-31T13:58:32Z</time>
      </trkpt>
      <trkpt lat="45.17743" lon="3.45638">
        <ele>690.36</ele>
        <time>2021-01-31T13:58:36Z</time>
      </trkpt>
      <trkpt lat="45.17725" lon="3.45616">
        <ele>689.88</ele>
        <time>2021-01-31T13:58:53Z</time>
      </trkpt>
      <trkpt lat="45.17705" lon="3.45595">
        <ele>688.92</ele>
        <time>2021-01-31T13:59:11Z</time>
      </trkpt>
      <trkpt lat="45.17689" lon="3.45569">
        <ele>687.96</ele>
        <time>2021-01-31T13:59:29Z</time>
      </trkpt>
      <trkpt lat="45.17675" lon="3.45548">
        <ele>687.48</ele>
        <time>2021-01-31T13:59:45Z</time>
      </trkpt>
      <trkpt lat="45.17662" lon="3.45531">
        <ele>687.48</ele>
        <time>2021-01-31T13:59:59Z</time>
      </trkpt>
      <trkpt lat="45.17661" lon="3.45529">
        <ele>687.48</ele>
        <time>2021-01-31T14:00:13Z</time>
      </trkpt>
      <trkpt lat="45.17661" lon="3.45528">
        <ele>687.48</ele>
        <time>2021-01-31T14:00:16Z</time>
      </trkpt>
      <trkpt lat="45.17641" lon="3.45501">
        <ele>687.48</ele>
        <time>2021-01-31T14:00:35Z</time>
      </trkpt>
      <trkpt lat="45.17636" lon="3.45491">
        <ele>688.44</ele>
        <time>2021-01-31T14:00:46Z</time>
      </trkpt>
      <trkpt lat="45.17623" lon="3.45474">
        <ele>689.4</ele>
        <time>2021-01-31T14:01:01Z</time>
      </trkpt>
      <trkpt lat="45.17617" lon="3.45463">
        <ele>690.36</ele>
        <time>2021-01-31T14:01:13Z</time>
      </trkpt>
      <trkpt lat="45.17617" lon="3.45462">
        <ele>689.88</ele>
        <time>2021-01-31T14:01:17Z</time>
      </trkpt>
      <trkpt lat="45.17608" lon="3.45434">
        <ele>692.77</ele>
        <time>2021-01-31T14:01:34Z</time>
      </trkpt>
      <trkpt lat="45.176" lon="3.45404">
        <ele>695.17</ele>
        <time>2021-01-31T14:01:50Z</time>
      </trkpt>
      <trkpt lat="45.17586" lon="3.45376">
        <ele>697.09</ele>
        <time>2021-01-31T14:02:10Z</time>
      </trkpt>
      <trkpt lat="45.17587" lon="3.45362">
        <ele>698.53</ele>
        <time>2021-01-31T14:02:25Z</time>
      </trkpt>
      <trkpt lat="45.17588" lon="3.45345">
        <ele>698.53</ele>
        <time>2021-01-31T14:02:33Z</time>
      </trkpt>
      <trkpt lat="45.17596" lon="3.45311">
        <ele>697.09</ele>
        <time>2021-01-31T14:02:51Z</time>
      </trkpt>
      <trkpt lat="45.17604" lon="3.45283">
        <ele>696.13</ele>
        <time>2021-01-31T14:03:05Z</time>
      </trkpt>
      <trkpt lat="45.17609" lon="3.45264">
        <ele>697.09</ele>
        <time>2021-01-31T14:03:16Z</time>
      </trkpt>
      <trkpt lat="45.17613" lon="3.45251">
        <ele>696.61</ele>
        <time>2021-01-31T14:03:23Z</time>
      </trkpt>
      <trkpt lat="45.17617" lon="3.45222">
        <ele>697.09</ele>
        <time>2021-01-31T14:03:38Z</time>
      </trkpt>
      <trkpt lat="45.17619" lon="3.45192">
        <ele>696.61</ele>
        <time>2021-01-31T14:03:54Z</time>
      </trkpt>
      <trkpt lat="45.17622" lon="3.45164">
        <ele>696.13</ele>
        <time>2021-01-31T14:04:09Z</time>
      </trkpt>
      <trkpt lat="45.17625" lon="3.45138">
        <ele>695.65</ele>
        <time>2021-01-31T14:04:23Z</time>
      </trkpt>
      <trkpt lat="45.17628" lon="3.45106">
        <ele>697.57</ele>
        <time>2021-01-31T14:04:38Z</time>
      </trkpt>
      <trkpt lat="45.17632" lon="3.45077">
        <ele>698.53</ele>
        <time>2021-01-31T14:04:54Z</time>
      </trkpt>
      <trkpt lat="45.17634" lon="3.45065">
        <ele>698.53</ele>
        <time>2021-01-31T14:05:03Z</time>
      </trkpt>
      <trkpt lat="45.17634" lon="3.45057">
        <ele>698.53</ele>
        <time>2021-01-31T14:05:09Z</time>
      </trkpt>
      <trkpt lat="45.17639" lon="3.45026">
        <ele>698.53</ele>
        <time>2021-01-31T14:05:25Z</time>
      </trkpt>
      <trkpt lat="45.17641" lon="3.44994">
        <ele>699.5</ele>
        <time>2021-01-31T14:05:41Z</time>
      </trkpt>
      <trkpt lat="45.17638" lon="3.44971">
        <ele>701.42</ele>
        <time>2021-01-31T14:05:56Z</time>
      </trkpt>
      <trkpt lat="45.17635" lon="3.44947">
        <ele>702.38</ele>
        <time>2021-01-31T14:06:12Z</time>
      </trkpt>
      <trkpt lat="45.17634" lon="3.44925">
        <ele>704.3</ele>
        <time>2021-01-31T14:06:26Z</time>
      </trkpt>
      <trkpt lat="45.17631" lon="3.44919">
        <ele>704.3</ele>
        <time>2021-01-31T14:06:35Z</time>
      </trkpt>
      <trkpt lat="45.17638" lon="3.44905">
        <ele>704.3</ele>
        <time>2021-01-31T14:06:47Z</time>
      </trkpt>
      <trkpt lat="45.17644" lon="3.44893">
        <ele>704.3</ele>
        <time>2021-01-31T14:06:56Z</time>
      </trkpt>
      <trkpt lat="45.17652" lon="3.44872">
        <ele>704.78</ele>
        <time>2021-01-31T14:07:10Z</time>
      </trkpt>
      <trkpt lat="45.17659" lon="3.4485">
        <ele>706.23</ele>
        <time>2021-01-31T14:07:24Z</time>
      </trkpt>
      <trkpt lat="45.17667" lon="3.44826">
        <ele>708.63</ele>
        <time>2021-01-31T14:07:38Z</time>
      </trkpt>
      <trkpt lat="45.17672" lon="3.44804">
        <ele>710.07</ele>
        <time>2021-01-31T14:07:51Z</time>
      </trkpt>
      <trkpt lat="45.17673" lon="3.44792">
        <ele>710.07</ele>
        <time>2021-01-31T14:07:57Z</time>
      </trkpt>
      <trkpt lat="45.17674" lon="3.44785">
        <ele>710.55</ele>
        <time>2021-01-31T14:08:01Z</time>
      </trkpt>
      <trkpt lat="45.17675" lon="3.44758">
        <ele>710.07</ele>
        <time>2021-01-31T14:08:15Z</time>
      </trkpt>
      <trkpt lat="45.17672" lon="3.44731">
        <ele>709.11</ele>
        <time>2021-01-31T14:08:29Z</time>
      </trkpt>
      <trkpt lat="45.17666" lon="3.44703">
        <ele>709.11</ele>
        <time>2021-01-31T14:08:45Z</time>
      </trkpt>
      <trkpt lat="45.17662" lon="3.4469">
        <ele>708.15</ele>
        <time>2021-01-31T14:08:56Z</time>
      </trkpt>
      <trkpt lat="45.17659" lon="3.44674">
        <ele>707.67</ele>
        <time>2021-01-31T14:09:09Z</time>
      </trkpt>
      <trkpt lat="45.17659" lon="3.44663">
        <ele>707.19</ele>
        <time>2021-01-31T14:09:21Z</time>
      </trkpt>
      <trkpt lat="45.17657" lon="3.44657">
        <ele>706.71</ele>
        <time>2021-01-31T14:09:33Z</time>
      </trkpt>
      <trkpt lat="45.1765" lon="3.44633">
        <ele>706.23</ele>
        <time>2021-01-31T14:09:48Z</time>
      </trkpt>
      <trkpt lat="45.1764" lon="3.44605">
        <ele>706.23</ele>
        <time>2021-01-31T14:10:05Z</time>
      </trkpt>
      <trkpt lat="45.1763" lon="3.4458">
        <ele>706.23</ele>
        <time>2021-01-31T14:10:21Z</time>
      </trkpt>
      <trkpt lat="45.17619" lon="3.44556">
        <ele>705.26</ele>
        <time>2021-01-31T14:10:37Z</time>
      </trkpt>
      <trkpt lat="45.17612" lon="3.44531">
        <ele>702.86</ele>
        <time>2021-01-31T14:10:51Z</time>
      </trkpt>
      <trkpt lat="45.17611" lon="3.44503">
        <ele>699.5</ele>
        <time>2021-01-31T14:11:06Z</time>
      </trkpt>
      <trkpt lat="45.17623" lon="3.44472">
        <ele>698.05</ele>
        <time>2021-01-31T14:11:22Z</time>
      </trkpt>
      <trkpt lat="45.17636" lon="3.44454">
        <ele>697.09</ele>
        <time>2021-01-31T14:11:36Z</time>
      </trkpt>
      <trkpt lat="45.17652" lon="3.44437">
        <ele>696.61</ele>
        <time>2021-01-31T14:11:50Z</time>
      </trkpt>
      <trkpt lat="45.17672" lon="3.44416">
        <ele>697.09</ele>
        <time>2021-01-31T14:12:07Z</time>
      </trkpt>
      <trkpt lat="45.17686" lon="3.444">
        <ele>695.17</ele>
        <time>2021-01-31T14:12:21Z</time>
      </trkpt>
      <trkpt lat="45.17702" lon="3.44382">
        <ele>693.73</ele>
        <time>2021-01-31T14:12:37Z</time>
      </trkpt>
      <trkpt lat="45.17717" lon="3.44364">
        <ele>693.73</ele>
        <time>2021-01-31T14:12:52Z</time>
      </trkpt>
      <trkpt lat="45.1773" lon="3.44351">
        <ele>692.29</ele>
        <time>2021-01-31T14:13:05Z</time>
      </trkpt>
      <trkpt lat="45.1774" lon="3.4434">
        <ele>692.29</ele>
        <time>2021-01-31T14:13:14Z</time>
      </trkpt>
      <trkpt lat="45.17746" lon="3.44332">
        <ele>691.33</ele>
        <time>2021-01-31T14:13:23Z</time>
      </trkpt>
      <trkpt lat="45.17753" lon="3.44317">
        <ele>690.84</ele>
        <time>2021-01-31T14:13:32Z</time>
      </trkpt>
      <trkpt lat="45.17757" lon="3.443">
        <ele>689.4</ele>
        <time>2021-01-31T14:13:42Z</time>
      </trkpt>
      <trkpt lat="45.17757" lon="3.44285">
        <ele>687.96</ele>
        <time>2021-01-31T14:13:51Z</time>
      </trkpt>
      <trkpt lat="45.17756" lon="3.44266">
        <ele>685.08</ele>
        <time>2021-01-31T14:14:01Z</time>
      </trkpt>
      <trkpt lat="45.17755" lon="3.4425">
        <ele>684.12</ele>
        <time>2021-01-31T14:14:12Z</time>
      </trkpt>
      <trkpt lat="45.17752" lon="3.44227">
        <ele>683.15</ele>
        <time>2021-01-31T14:14:23Z</time>
      </trkpt>
      <trkpt lat="45.1775" lon="3.44212">
        <ele>682.19</ele>
        <time>2021-01-31T14:14:32Z</time>
      </trkpt>
      <trkpt lat="45.17747" lon="3.44199">
        <ele>681.71</ele>
        <time>2021-01-31T14:14:42Z</time>
      </trkpt>
      <trkpt lat="45.17743" lon="3.44186">
        <ele>681.71</ele>
        <time>2021-01-31T14:14:50Z</time>
      </trkpt>
      <trkpt lat="45.17739" lon="3.44173">
        <ele>681.71</ele>
        <time>2021-01-31T14:14:58Z</time>
      </trkpt>
      <trkpt lat="45.17733" lon="3.44158">
        <ele>680.75</ele>
        <time>2021-01-31T14:15:07Z</time>
      </trkpt>
      <trkpt lat="45.17732" lon="3.44155">
        <ele>680.75</ele>
        <time>2021-01-31T14:15:09Z</time>
      </trkpt>
      <trkpt lat="45.17734" lon="3.4415">
        <ele>679.79</ele>
        <time>2021-01-31T14:15:13Z</time>
      </trkpt>
      <trkpt lat="45.17744" lon="3.4415">
        <ele>679.31</ele>
        <time>2021-01-31T14:15:21Z</time>
      </trkpt>
      <trkpt lat="45.17755" lon="3.44155">
        <ele>679.31</ele>
        <time>2021-01-31T14:15:29Z</time>
      </trkpt>
      <trkpt lat="45.17766" lon="3.4416">
        <ele>679.79</ele>
        <time>2021-01-31T14:15:38Z</time>
      </trkpt>
      <trkpt lat="45.17775" lon="3.44163">
        <ele>680.27</ele>
        <time>2021-01-31T14:15:47Z</time>
      </trkpt>
      <trkpt lat="45.17784" lon="3.44167">
        <ele>680.75</ele>
        <time>2021-01-31T14:15:55Z</time>
      </trkpt>
      <trkpt lat="45.17793" lon="3.44171">
        <ele>681.23</ele>
        <time>2021-01-31T14:16:03Z</time>
      </trkpt>
      <trkpt lat="45.17803" lon="3.44177">
        <ele>681.23</ele>
        <time>2021-01-31T14:16:11Z</time>
      </trkpt>
      <trkpt lat="45.17813" lon="3.44184">
        <ele>681.71</ele>
        <time>2021-01-31T14:16:19Z</time>
      </trkpt>
      <trkpt lat="45.17825" lon="3.44194">
        <ele>680.75</ele>
        <time>2021-01-31T14:16:28Z</time>
      </trkpt>
      <trkpt lat="45.17834" lon="3.44203">
        <ele>680.75</ele>
        <time>2021-01-31T14:16:36Z</time>
      </trkpt>
      <trkpt lat="45.17845" lon="3.44212">
        <ele>681.23</ele>
        <time>2021-01-31T14:16:45Z</time>
      </trkpt>
      <trkpt lat="45.17848" lon="3.44215">
        <ele>681.71</ele>
        <time>2021-01-31T14:16:52Z</time>
      </trkpt>
      <trkpt lat="45.17861" lon="3.44225">
        <ele>681.23</ele>
        <time>2021-01-31T14:17:02Z</time>
      </trkpt>
      <trkpt lat="45.17873" lon="3.44234">
        <ele>679.79</ele>
        <time>2021-01-31T14:17:10Z</time>
      </trkpt>
      <trkpt lat="45.17883" lon="3.44245">
        <ele>677.87</ele>
        <time>2021-01-31T14:17:19Z</time>
      </trkpt>
      <trkpt lat="45.17893" lon="3.44254">
        <ele>675.94</ele>
        <time>2021-01-31T14:17:27Z</time>
      </trkpt>
      <trkpt lat="45.17903" lon="3.44263">
        <ele>675.94</ele>
        <time>2021-01-31T14:17:36Z</time>
      </trkpt>
      <trkpt lat="45.17913" lon="3.44271">
        <ele>676.42</ele>
        <time>2021-01-31T14:17:45Z</time>
      </trkpt>
      <trkpt lat="45.17923" lon="3.4428">
        <ele>676.42</ele>
        <time>2021-01-31T14:17:54Z</time>
      </trkpt>
      <trkpt lat="45.17934" lon="3.44288">
        <ele>676.91</ele>
        <time>2021-01-31T14:18:03Z</time>
      </trkpt>
      <trkpt lat="45.17944" lon="3.44296">
        <ele>676.91</ele>
        <time>2021-01-31T14:18:12Z</time>
      </trkpt>
      <trkpt lat="45.17955" lon="3.44304">
        <ele>677.39</ele>
        <time>2021-01-31T14:18:21Z</time>
      </trkpt>
      <trkpt lat="45.17966" lon="3.44312">
        <ele>678.35</ele>
        <time>2021-01-31T14:18:31Z</time>
      </trkpt>
      <trkpt lat="45.17974" lon="3.44319">
        <ele>678.83</ele>
        <time>2021-01-31T14:18:39Z</time>
      </trkpt>
      <trkpt lat="45.17983" lon="3.44327">
        <ele>678.83</ele>
        <time>2021-01-31T14:18:47Z</time>
      </trkpt>
      <trkpt lat="45.17984" lon="3.44328">
        <ele>678.83</ele>
        <time>2021-01-31T14:18:48Z</time>
      </trkpt>
      <trkpt lat="45.17995" lon="3.44339">
        <ele>677.87</ele>
        <time>2021-01-31T14:18:59Z</time>
      </trkpt>
      <trkpt lat="45.18004" lon="3.44346">
        <ele>678.35</ele>
        <time>2021-01-31T14:19:07Z</time>
      </trkpt>
      <trkpt lat="45.18013" lon="3.44357">
        <ele>677.87</ele>
        <time>2021-01-31T14:19:16Z</time>
      </trkpt>
      <trkpt lat="45.18022" lon="3.44369">
        <ele>676.91</ele>
        <time>2021-01-31T14:19:26Z</time>
      </trkpt>
      <trkpt lat="45.18028" lon="3.4438">
        <ele>676.42</ele>
        <time>2021-01-31T14:19:36Z</time>
      </trkpt>
      <trkpt lat="45.1804" lon="3.44398">
        <ele>674.98</ele>
        <time>2021-01-31T14:19:51Z</time>
      </trkpt>
      <trkpt lat="45.18046" lon="3.44409">
        <ele>674.5</ele>
        <time>2021-01-31T14:19:59Z</time>
      </trkpt>
      <trkpt lat="45.18055" lon="3.44418">
        <ele>675.46</ele>
        <time>2021-01-31T14:20:08Z</time>
      </trkpt>
      <trkpt lat="45.18066" lon="3.44427">
        <ele>675.94</ele>
        <time>2021-01-31T14:20:17Z</time>
      </trkpt>
      <trkpt lat="45.18072" lon="3.44433">
        <ele>676.42</ele>
        <time>2021-01-31T14:20:24Z</time>
      </trkpt>
      <trkpt lat="45.18073" lon="3.44436">
        <ele>676.42</ele>
        <time>2021-01-31T14:20:35Z</time>
      </trkpt>
      <trkpt lat="45.18073" lon="3.44437">
        <ele>676.42</ele>
        <time>2021-01-31T14:20:41Z</time>
      </trkpt>
      <trkpt lat="45.18075" lon="3.44437">
        <ele>676.42</ele>
        <time>2021-01-31T14:20:44Z</time>
      </trkpt>
      <trkpt lat="45.18083" lon="3.44442">
        <ele>676.42</ele>
        <time>2021-01-31T14:20:55Z</time>
      </trkpt>
      <trkpt lat="45.18092" lon="3.44447">
        <ele>676.91</ele>
        <time>2021-01-31T14:21:03Z</time>
      </trkpt>
      <trkpt lat="45.18105" lon="3.44452">
        <ele>676.91</ele>
        <time>2021-01-31T14:21:12Z</time>
      </trkpt>
      <trkpt lat="45.18115" lon="3.44453">
        <ele>677.87</ele>
        <time>2021-01-31T14:21:22Z</time>
      </trkpt>
      <trkpt lat="45.1813" lon="3.44454">
        <ele>678.83</ele>
        <time>2021-01-31T14:21:31Z</time>
      </trkpt>
      <trkpt lat="45.18141" lon="3.44455">
        <ele>679.31</ele>
        <time>2021-01-31T14:21:39Z</time>
      </trkpt>
      <trkpt lat="45.1815" lon="3.44457">
        <ele>679.79</ele>
        <time>2021-01-31T14:21:45Z</time>
      </trkpt>
      <trkpt lat="45.18159" lon="3.44459">
        <ele>680.27</ele>
        <time>2021-01-31T14:21:54Z</time>
      </trkpt>
      <trkpt lat="45.18167" lon="3.44464">
        <ele>682.19</ele>
        <time>2021-01-31T14:22:02Z</time>
      </trkpt>
      <trkpt lat="45.1819" lon="3.4448">
        <ele>685.56</ele>
        <time>2021-01-31T14:22:21Z</time>
      </trkpt>
      <trkpt lat="45.18204" lon="3.44498">
        <ele>684.12</ele>
        <time>2021-01-31T14:22:36Z</time>
      </trkpt>
      <trkpt lat="45.18215" lon="3.44516">
        <ele>682.67</ele>
        <time>2021-01-31T14:22:50Z</time>
      </trkpt>
      <trkpt lat="45.18214" lon="3.44542">
        <ele>682.19</ele>
        <time>2021-01-31T14:23:08Z</time>
      </trkpt>
      <trkpt lat="45.18205" lon="3.44553">
        <ele>681.23</ele>
        <time>2021-01-31T14:23:27Z</time>
      </trkpt>
      <trkpt lat="45.18205" lon="3.44555">
        <ele>681.23</ele>
        <time>2021-01-31T14:23:46Z</time>
      </trkpt>
      <trkpt lat="45.18206" lon="3.44558">
        <ele>681.23</ele>
        <time>2021-01-31T14:24:06Z</time>
      </trkpt>
      <trkpt lat="45.18206" lon="3.44564">
        <ele>681.23</ele>
        <time>2021-01-31T14:24:22Z</time>
      </trkpt>
      <trkpt lat="45.18207" lon="3.44577">
        <ele>681.23</ele>
        <time>2021-01-31T14:24:30Z</time>
      </trkpt>
      <trkpt lat="45.18218" lon="3.44612">
        <ele>678.35</ele>
        <time>2021-01-31T14:24:49Z</time>
      </trkpt>
      <trkpt lat="45.18232" lon="3.44631">
        <ele>675.94</ele>
        <time>2021-01-31T14:25:09Z</time>
      </trkpt>
      <trkpt lat="45.18253" lon="3.4464">
        <ele>673.54</ele>
        <time>2021-01-31T14:25:31Z</time>
      </trkpt>
      <trkpt lat="45.18276" lon="3.44648">
        <ele>669.7</ele>
        <time>2021-01-31T14:25:44Z</time>
      </trkpt>
      <trkpt lat="45.18293" lon="3.44648">
        <ele>667.77</ele>
        <time>2021-01-31T14:25:55Z</time>
      </trkpt>
      <trkpt lat="45.18308" lon="3.44648">
        <ele>666.33</ele>
        <time>2021-01-31T14:26:06Z</time>
      </trkpt>
      <trkpt lat="45.18326" lon="3.44649">
        <ele>666.33</ele>
        <time>2021-01-31T14:26:17Z</time>
      </trkpt>
      <trkpt lat="45.18333" lon="3.44649">
        <ele>664.89</ele>
        <time>2021-01-31T14:26:21Z</time>
      </trkpt>
      <trkpt lat="45.18348" lon="3.44648">
        <ele>661.52</ele>
        <time>2021-01-31T14:26:34Z</time>
      </trkpt>
      <trkpt lat="45.18374" lon="3.4465">
        <ele>658.16</ele>
        <time>2021-01-31T14:26:56Z</time>
      </trkpt>
      <trkpt lat="45.184" lon="3.44658">
        <ele>656.24</ele>
        <time>2021-01-31T14:27:16Z</time>
      </trkpt>
      <trkpt lat="45.18422" lon="3.44665">
        <ele>655.28</ele>
        <time>2021-01-31T14:27:36Z</time>
      </trkpt>
      <trkpt lat="45.18453" lon="3.44677">
        <ele>655.28</ele>
        <time>2021-01-31T14:27:58Z</time>
      </trkpt>
      <trkpt lat="45.18463" lon="3.44685">
        <ele>654.8</ele>
        <time>2021-01-31T14:28:07Z</time>
      </trkpt>
      <trkpt lat="45.1848" lon="3.44707">
        <ele>649.99</ele>
        <time>2021-01-31T14:28:27Z</time>
      </trkpt>
      <trkpt lat="45.18496" lon="3.44751">
        <ele>647.59</ele>
        <time>2021-01-31T14:28:50Z</time>
      </trkpt>
      <trkpt lat="45.18512" lon="3.44781">
        <ele>640.86</ele>
        <time>2021-01-31T14:29:13Z</time>
      </trkpt>
      <trkpt lat="45.18516" lon="3.44802">
        <ele>633.65</ele>
        <time>2021-01-31T14:29:29Z</time>
      </trkpt>
      <trkpt lat="45.18519" lon="3.44804">
        <ele>634.61</ele>
        <time>2021-01-31T14:29:50Z</time>
      </trkpt>
      <trkpt lat="45.1852" lon="3.44807">
        <ele>639.41</ele>
        <time>2021-01-31T14:30:20Z</time>
      </trkpt>
      <trkpt lat="45.18521" lon="3.4481">
        <ele>640.38</ele>
        <time>2021-01-31T14:30:43Z</time>
      </trkpt>
      <trkpt lat="45.18527" lon="3.4483">
        <ele>641.34</ele>
        <time>2021-01-31T14:30:55Z</time>
      </trkpt>
      <trkpt lat="45.18535" lon="3.44866">
        <ele>640.38</ele>
        <time>2021-01-31T14:31:16Z</time>
      </trkpt>
      <trkpt lat="45.18547" lon="3.44907">
        <ele>636.53</ele>
        <time>2021-01-31T14:31:38Z</time>
      </trkpt>
      <trkpt lat="45.1856" lon="3.44925">
        <ele>632.68</ele>
        <time>2021-01-31T14:31:55Z</time>
      </trkpt>
      <trkpt lat="45.18569" lon="3.44929">
        <ele>631.72</ele>
        <time>2021-01-31T14:32:04Z</time>
      </trkpt>
      <trkpt lat="45.18606" lon="3.44929">
        <ele>638.93</ele>
        <time>2021-01-31T14:32:23Z</time>
      </trkpt>
      <trkpt lat="45.18634" lon="3.44933">
        <ele>643.26</ele>
        <time>2021-01-31T14:32:43Z</time>
      </trkpt>
      <trkpt lat="45.18655" lon="3.44944">
        <ele>646.14</ele>
        <time>2021-01-31T14:33:01Z</time>
      </trkpt>
      <trkpt lat="45.18675" lon="3.44958">
        <ele>647.59</ele>
        <time>2021-01-31T14:33:18Z</time>
      </trkpt>
      <trkpt lat="45.18695" lon="3.4498">
        <ele>649.03</ele>
        <time>2021-01-31T14:33:37Z</time>
      </trkpt>
      <trkpt lat="45.18707" lon="3.45007">
        <ele>648.07</ele>
        <time>2021-01-31T14:33:55Z</time>
      </trkpt>
      <trkpt lat="45.18713" lon="3.45027">
        <ele>647.1</ele>
        <time>2021-01-31T14:34:10Z</time>
      </trkpt>
      <trkpt lat="45.18732" lon="3.45056">
        <ele>646.62</ele>
        <time>2021-01-31T14:34:31Z</time>
      </trkpt>
      <trkpt lat="45.18743" lon="3.4508">
        <ele>646.62</ele>
        <time>2021-01-31T14:34:51Z</time>
      </trkpt>
      <trkpt lat="45.18755" lon="3.451">
        <ele>652.39</ele>
        <time>2021-01-31T14:35:08Z</time>
      </trkpt>
      <trkpt lat="45.18772" lon="3.45114">
        <ele>659.12</ele>
        <time>2021-01-31T14:35:24Z</time>
      </trkpt>
      <trkpt lat="45.18779" lon="3.45116">
        <ele>661.52</ele>
        <time>2021-01-31T14:35:41Z</time>
      </trkpt>
      <trkpt lat="45.1878" lon="3.45115">
        <ele>662.01</ele>
        <time>2021-01-31T14:36:00Z</time>
      </trkpt>
      <trkpt lat="45.18788" lon="3.45116">
        <ele>663.93</ele>
        <time>2021-01-31T14:36:17Z</time>
      </trkpt>
      <trkpt lat="45.188" lon="3.45117">
        <ele>665.85</ele>
        <time>2021-01-31T14:36:31Z</time>
      </trkpt>
      <trkpt lat="45.18804" lon="3.45115">
        <ele>665.37</ele>
        <time>2021-01-31T14:36:48Z</time>
      </trkpt>
      <trkpt lat="45.18805" lon="3.45114">
        <ele>665.37</ele>
        <time>2021-01-31T14:37:02Z</time>
      </trkpt>
      <trkpt lat="45.18805" lon="3.45112">
        <ele>665.37</ele>
        <time>2021-01-31T14:37:24Z</time>
      </trkpt>
      <trkpt lat="45.18806" lon="3.45111">
        <ele>665.37</ele>
        <time>2021-01-31T14:37:54Z</time>
      </trkpt>
      <trkpt lat="45.18807" lon="3.4511">
        <ele>667.29</ele>
        <time>2021-01-31T14:38:21Z</time>
      </trkpt>
      <trkpt lat="45.18821" lon="3.45108">
        <ele>668.25</ele>
        <time>2021-01-31T14:38:40Z</time>
      </trkpt>
      <trkpt lat="45.18838" lon="3.45101">
        <ele>667.77</ele>
        <time>2021-01-31T14:38:55Z</time>
      </trkpt>
      <trkpt lat="45.18843" lon="3.45096">
        <ele>667.77</ele>
        <time>2021-01-31T14:39:10Z</time>
      </trkpt>
      <trkpt lat="45.18849" lon="3.45087">
        <ele>667.77</ele>
        <time>2021-01-31T14:39:27Z</time>
      </trkpt>
      <trkpt lat="45.18856" lon="3.45073">
        <ele>670.66</ele>
        <time>2021-01-31T14:39:44Z</time>
      </trkpt>
      <trkpt lat="45.18856" lon="3.45058">
        <ele>671.62</ele>
        <time>2021-01-31T14:39:59Z</time>
      </trkpt>
      <trkpt lat="45.1886" lon="3.4505">
        <ele>672.1</ele>
        <time>2021-01-31T14:40:16Z</time>
      </trkpt>
      <trkpt lat="45.18865" lon="3.45025">
        <ele>673.54</ele>
        <time>2021-01-31T14:40:35Z</time>
      </trkpt>
      <trkpt lat="45.18864" lon="3.45019">
        <ele>673.54</ele>
        <time>2021-01-31T14:40:41Z</time>
      </trkpt>
      <trkpt lat="45.18857" lon="3.44987">
        <ele>672.1</ele>
        <time>2021-01-31T14:41:03Z</time>
      </trkpt>
      <trkpt lat="45.18852" lon="3.44977">
        <ele>670.18</ele>
        <time>2021-01-31T14:41:12Z</time>
      </trkpt>
      <trkpt lat="45.18842" lon="3.44964">
        <ele>670.18</ele>
        <time>2021-01-31T14:41:22Z</time>
      </trkpt>
      <trkpt lat="45.18834" lon="3.4494">
        <ele>672.58</ele>
        <time>2021-01-31T14:41:42Z</time>
      </trkpt>
      <trkpt lat="45.18835" lon="3.44937">
        <ele>673.54</ele>
        <time>2021-01-31T14:41:59Z</time>
      </trkpt>
      <trkpt lat="45.18833" lon="3.44918">
        <ele>680.75</ele>
        <time>2021-01-31T14:42:17Z</time>
      </trkpt>
      <trkpt lat="45.18823" lon="3.44904">
        <ele>684.12</ele>
        <time>2021-01-31T14:42:33Z</time>
      </trkpt>
      <trkpt lat="45.18815" lon="3.44872">
        <ele>682.19</ele>
        <time>2021-01-31T14:42:51Z</time>
      </trkpt>
      <trkpt lat="45.18803" lon="3.44853">
        <ele>680.75</ele>
        <time>2021-01-31T14:43:08Z</time>
      </trkpt>
      <trkpt lat="45.18805" lon="3.44853">
        <ele>680.75</ele>
        <time>2021-01-31T14:43:26Z</time>
      </trkpt>
      <trkpt lat="45.18802" lon="3.44836">
        <ele>681.71</ele>
        <time>2021-01-31T14:43:40Z</time>
      </trkpt>
      <trkpt lat="45.18801" lon="3.44823">
        <ele>680.75</ele>
        <time>2021-01-31T14:43:52Z</time>
      </trkpt>
      <trkpt lat="45.18805" lon="3.44806">
        <ele>679.31</ele>
        <time>2021-01-31T14:44:03Z</time>
      </trkpt>
      <trkpt lat="45.18813" lon="3.44778">
        <ele>675.46</ele>
        <time>2021-01-31T14:44:20Z</time>
      </trkpt>
      <trkpt lat="45.18813" lon="3.44762">
        <ele>677.39</ele>
        <time>2021-01-31T14:44:34Z</time>
      </trkpt>
      <trkpt lat="45.18816" lon="3.44754">
        <ele>677.87</ele>
        <time>2021-01-31T14:44:49Z</time>
      </trkpt>
      <trkpt lat="45.18822" lon="3.44723">
        <ele>677.87</ele>
        <time>2021-01-31T14:45:07Z</time>
      </trkpt>
      <trkpt lat="45.18824" lon="3.44714">
        <ele>674.98</ele>
        <time>2021-01-31T14:45:11Z</time>
      </trkpt>
      <trkpt lat="45.1883" lon="3.447">
        <ele>669.22</ele>
        <time>2021-01-31T14:45:21Z</time>
      </trkpt>
      <trkpt lat="45.18834" lon="3.44698">
        <ele>668.73</ele>
        <time>2021-01-31T14:45:29Z</time>
      </trkpt>
      <trkpt lat="45.18841" lon="3.44689">
        <ele>667.29</ele>
        <time>2021-01-31T14:45:37Z</time>
      </trkpt>
      <trkpt lat="45.18845" lon="3.44682">
        <ele>667.29</ele>
        <time>2021-01-31T14:45:42Z</time>
      </trkpt>
      <trkpt lat="45.18849" lon="3.44664">
        <ele>670.18</ele>
        <time>2021-01-31T14:45:52Z</time>
      </trkpt>
      <trkpt lat="45.18854" lon="3.44651">
        <ele>669.7</ele>
        <time>2021-01-31T14:46:01Z</time>
      </trkpt>
      <trkpt lat="45.1886" lon="3.4464">
        <ele>669.7</ele>
        <time>2021-01-31T14:46:09Z</time>
      </trkpt>
      <trkpt lat="45.18863" lon="3.44628">
        <ele>670.18</ele>
        <time>2021-01-31T14:46:17Z</time>
      </trkpt>
      <trkpt lat="45.18865" lon="3.44618">
        <ele>670.66</ele>
        <time>2021-01-31T14:46:23Z</time>
      </trkpt>
      <trkpt lat="45.18863" lon="3.446">
        <ele>672.58</ele>
        <time>2021-01-31T14:46:33Z</time>
      </trkpt>
      <trkpt lat="45.18857" lon="3.44588">
        <ele>675.46</ele>
        <time>2021-01-31T14:46:41Z</time>
      </trkpt>
      <trkpt lat="45.18849" lon="3.44572">
        <ele>677.39</ele>
        <time>2021-01-31T14:46:50Z</time>
      </trkpt>
      <trkpt lat="45.18845" lon="3.44558">
        <ele>678.83</ele>
        <time>2021-01-31T14:46:59Z</time>
      </trkpt>
      <trkpt lat="45.18843" lon="3.44542">
        <ele>680.27</ele>
        <time>2021-01-31T14:47:07Z</time>
      </trkpt>
      <trkpt lat="45.18842" lon="3.44532">
        <ele>682.19</ele>
        <time>2021-01-31T14:47:14Z</time>
      </trkpt>
      <trkpt lat="45.18847" lon="3.4452">
        <ele>683.15</ele>
        <time>2021-01-31T14:47:23Z</time>
      </trkpt>
      <trkpt lat="45.18848" lon="3.44517">
        <ele>684.12</ele>
        <time>2021-01-31T14:47:25Z</time>
      </trkpt>
      <trkpt lat="45.1885" lon="3.44516">
        <ele>684.6</ele>
        <time>2021-01-31T14:47:28Z</time>
      </trkpt>
    </trkseg>
  </trk>
</gpx>